<?xml version="1.0" encoding="UTF-8" standalone="no" ?>
<gpx xmlns="http://www.topografix.com/GPX/1/1" xmlns:xsi="http://www.w3.org/2001/XMLSchema-instance" xsi:schemaLocation="http://www.topografix.com/GPX/1/1 http://www.topografix.com/GPX/1/1/gpx.xsd" version="1.1" creator="VisuGPX - https://www.visugpx.com">
  <metadata>
    <name>Courances - Moigny / école - Mondeville - Dannemois</name>
    <desc><![CDATA[Roland B
Points d'intérêts : Château de Courances, Église Saint Etienne , Moulin de Dannemois
]]></desc>
  </metadata>
  <trk>
    <name><![CDATA[COURANCES]]></name>
    <trkseg>
      <trkpt lat="48.44073" lon="2.47355">
        <ele>63.1</ele>
        <time>2015-03-04T08:46:28Z</time>
      </trkpt>
      <trkpt lat="48.44077" lon="2.47346">
        <ele>64.07</ele>
        <time>2015-03-04T08:46:50Z</time>
      </trkpt>
      <trkpt lat="48.44072" lon="2.47345">
        <ele>64.07</ele>
        <time>2015-03-04T08:47:02Z</time>
      </trkpt>
      <trkpt lat="48.4407" lon="2.47346">
        <ele>64.07</ele>
        <time>2015-03-04T08:47:24Z</time>
      </trkpt>
      <trkpt lat="48.4407" lon="2.47346">
        <ele>64.55</ele>
        <time>2015-03-04T08:47:46Z</time>
      </trkpt>
      <trkpt lat="48.4407" lon="2.47344">
        <ele>64.55</ele>
        <time>2015-03-04T08:48:02Z</time>
      </trkpt>
      <trkpt lat="48.44072" lon="2.47343">
        <ele>64.55</ele>
        <time>2015-03-04T08:48:13Z</time>
      </trkpt>
      <trkpt lat="48.4407" lon="2.47344">
        <ele>65.03</ele>
        <time>2015-03-04T08:48:32Z</time>
      </trkpt>
      <trkpt lat="48.44072" lon="2.47348">
        <ele>65.03</ele>
        <time>2015-03-04T08:48:45Z</time>
      </trkpt>
      <trkpt lat="48.4407" lon="2.47348">
        <ele>65.03</ele>
        <time>2015-03-04T08:48:55Z</time>
      </trkpt>
      <trkpt lat="48.4407" lon="2.47351">
        <ele>65.03</ele>
        <time>2015-03-04T08:49:10Z</time>
      </trkpt>
      <trkpt lat="48.44071" lon="2.47351">
        <ele>65.03</ele>
        <time>2015-03-04T08:49:22Z</time>
      </trkpt>
      <trkpt lat="48.44071" lon="2.47353">
        <ele>65.03</ele>
        <time>2015-03-04T08:49:45Z</time>
      </trkpt>
      <trkpt lat="48.44071" lon="2.47354">
        <ele>65.03</ele>
        <time>2015-03-04T08:50:01Z</time>
      </trkpt>
      <trkpt lat="48.44076" lon="2.47356">
        <ele>65.03</ele>
        <time>2015-03-04T08:50:12Z</time>
      </trkpt>
      <trkpt lat="48.44077" lon="2.47356">
        <ele>65.51</ele>
        <time>2015-03-04T08:50:36Z</time>
      </trkpt>
      <trkpt lat="48.44073" lon="2.47367">
        <ele>65.99</ele>
        <time>2015-03-04T08:50:49Z</time>
      </trkpt>
      <trkpt lat="48.44064" lon="2.47381">
        <ele>66.95</ele>
        <time>2015-03-04T08:51:05Z</time>
      </trkpt>
      <trkpt lat="48.44053" lon="2.47396">
        <ele>67.91</ele>
        <time>2015-03-04T08:51:21Z</time>
      </trkpt>
      <trkpt lat="48.44044" lon="2.47414">
        <ele>68.87</ele>
        <time>2015-03-04T08:51:37Z</time>
      </trkpt>
      <trkpt lat="48.4404" lon="2.47418">
        <ele>68.87</ele>
        <time>2015-03-04T08:51:42Z</time>
      </trkpt>
      <trkpt lat="48.44026" lon="2.47409">
        <ele>68.87</ele>
        <time>2015-03-04T08:51:58Z</time>
      </trkpt>
      <trkpt lat="48.44025" lon="2.47407">
        <ele>68.87</ele>
        <time>2015-03-04T08:52:00Z</time>
      </trkpt>
      <trkpt lat="48.44016" lon="2.47402">
        <ele>68.39</ele>
        <time>2015-03-04T08:52:09Z</time>
      </trkpt>
      <trkpt lat="48.43999" lon="2.4739">
        <ele>67.91</ele>
        <time>2015-03-04T08:52:26Z</time>
      </trkpt>
      <trkpt lat="48.43984" lon="2.47386">
        <ele>67.91</ele>
        <time>2015-03-04T08:52:40Z</time>
      </trkpt>
      <trkpt lat="48.43959" lon="2.47382">
        <ele>68.39</ele>
        <time>2015-03-04T08:53:00Z</time>
      </trkpt>
      <trkpt lat="48.43942" lon="2.47372">
        <ele>68.39</ele>
        <time>2015-03-04T08:53:17Z</time>
      </trkpt>
      <trkpt lat="48.43926" lon="2.47355">
        <ele>68.39</ele>
        <time>2015-03-04T08:53:32Z</time>
      </trkpt>
      <trkpt lat="48.43922" lon="2.47353">
        <ele>68.39</ele>
        <time>2015-03-04T08:53:35Z</time>
      </trkpt>
      <trkpt lat="48.43919" lon="2.4735">
        <ele>68.39</ele>
        <time>2015-03-04T08:53:38Z</time>
      </trkpt>
      <trkpt lat="48.43902" lon="2.4733">
        <ele>68.39</ele>
        <time>2015-03-04T08:53:54Z</time>
      </trkpt>
      <trkpt lat="48.43893" lon="2.47307">
        <ele>68.87</ele>
        <time>2015-03-04T08:54:09Z</time>
      </trkpt>
      <trkpt lat="48.4388" lon="2.47275">
        <ele>69.35</ele>
        <time>2015-03-04T08:54:29Z</time>
      </trkpt>
      <trkpt lat="48.4387" lon="2.47249">
        <ele>69.35</ele>
        <time>2015-03-04T08:54:46Z</time>
      </trkpt>
      <trkpt lat="48.43856" lon="2.47226">
        <ele>70.31</ele>
        <time>2015-03-04T08:55:02Z</time>
      </trkpt>
      <trkpt lat="48.43848" lon="2.4721">
        <ele>70.79</ele>
        <time>2015-03-04T08:55:14Z</time>
      </trkpt>
      <trkpt lat="48.43836" lon="2.47184">
        <ele>71.76</ele>
        <time>2015-03-04T08:55:33Z</time>
      </trkpt>
      <trkpt lat="48.43825" lon="2.47162">
        <ele>72.24</ele>
        <time>2015-03-04T08:55:50Z</time>
      </trkpt>
      <trkpt lat="48.43814" lon="2.47138">
        <ele>72.72</ele>
        <time>2015-03-04T08:56:06Z</time>
      </trkpt>
      <trkpt lat="48.43802" lon="2.47118">
        <ele>73.2</ele>
        <time>2015-03-04T08:56:20Z</time>
      </trkpt>
      <trkpt lat="48.4379" lon="2.47093">
        <ele>73.2</ele>
        <time>2015-03-04T08:56:38Z</time>
      </trkpt>
      <trkpt lat="48.43779" lon="2.47075">
        <ele>73.68</ele>
        <time>2015-03-04T08:56:52Z</time>
      </trkpt>
      <trkpt lat="48.43777" lon="2.4707">
        <ele>73.68</ele>
        <time>2015-03-04T08:56:56Z</time>
      </trkpt>
      <trkpt lat="48.43762" lon="2.47077">
        <ele>74.16</ele>
        <time>2015-03-04T08:57:11Z</time>
      </trkpt>
      <trkpt lat="48.43757" lon="2.47085">
        <ele>74.16</ele>
        <time>2015-03-04T08:57:17Z</time>
      </trkpt>
      <trkpt lat="48.43755" lon="2.47095">
        <ele>74.16</ele>
        <time>2015-03-04T08:57:22Z</time>
      </trkpt>
      <trkpt lat="48.43752" lon="2.47118">
        <ele>74.16</ele>
        <time>2015-03-04T08:57:36Z</time>
      </trkpt>
      <trkpt lat="48.4375" lon="2.47125">
        <ele>74.16</ele>
        <time>2015-03-04T08:57:40Z</time>
      </trkpt>
      <trkpt lat="48.43747" lon="2.47154">
        <ele>74.16</ele>
        <time>2015-03-04T08:57:56Z</time>
      </trkpt>
      <trkpt lat="48.43741" lon="2.47179">
        <ele>74.16</ele>
        <time>2015-03-04T08:58:11Z</time>
      </trkpt>
      <trkpt lat="48.43738" lon="2.47189">
        <ele>74.16</ele>
        <time>2015-03-04T08:58:17Z</time>
      </trkpt>
      <trkpt lat="48.43734" lon="2.47193">
        <ele>74.16</ele>
        <time>2015-03-04T08:58:23Z</time>
      </trkpt>
      <trkpt lat="48.43715" lon="2.47181">
        <ele>74.16</ele>
        <time>2015-03-04T08:58:40Z</time>
      </trkpt>
      <trkpt lat="48.43698" lon="2.47168">
        <ele>74.64</ele>
        <time>2015-03-04T08:58:55Z</time>
      </trkpt>
      <trkpt lat="48.4367" lon="2.47155">
        <ele>74.64</ele>
        <time>2015-03-04T08:59:13Z</time>
      </trkpt>
      <trkpt lat="48.43649" lon="2.47142">
        <ele>75.12</ele>
        <time>2015-03-04T08:59:31Z</time>
      </trkpt>
      <trkpt lat="48.4363" lon="2.47125">
        <ele>75.12</ele>
        <time>2015-03-04T08:59:49Z</time>
      </trkpt>
      <trkpt lat="48.4361" lon="2.47111">
        <ele>76.08</ele>
        <time>2015-03-04T09:00:08Z</time>
      </trkpt>
      <trkpt lat="48.43595" lon="2.47098">
        <ele>76.08</ele>
        <time>2015-03-04T09:00:23Z</time>
      </trkpt>
      <trkpt lat="48.43578" lon="2.47085">
        <ele>76.56</ele>
        <time>2015-03-04T09:00:37Z</time>
      </trkpt>
      <trkpt lat="48.43558" lon="2.47067">
        <ele>76.56</ele>
        <time>2015-03-04T09:00:56Z</time>
      </trkpt>
      <trkpt lat="48.43536" lon="2.47052">
        <ele>76.56</ele>
        <time>2015-03-04T09:01:15Z</time>
      </trkpt>
      <trkpt lat="48.43516" lon="2.47036">
        <ele>76.56</ele>
        <time>2015-03-04T09:01:33Z</time>
      </trkpt>
      <trkpt lat="48.43498" lon="2.4702">
        <ele>77.04</ele>
        <time>2015-03-04T09:01:50Z</time>
      </trkpt>
      <trkpt lat="48.4348" lon="2.47007">
        <ele>77.04</ele>
        <time>2015-03-04T09:02:06Z</time>
      </trkpt>
      <trkpt lat="48.43461" lon="2.46992">
        <ele>77.52</ele>
        <time>2015-03-04T09:02:23Z</time>
      </trkpt>
      <trkpt lat="48.43444" lon="2.46979">
        <ele>77.52</ele>
        <time>2015-03-04T09:02:39Z</time>
      </trkpt>
      <trkpt lat="48.43427" lon="2.46964">
        <ele>78</ele>
        <time>2015-03-04T09:02:55Z</time>
      </trkpt>
      <trkpt lat="48.43414" lon="2.46953">
        <ele>78.48</ele>
        <time>2015-03-04T09:03:08Z</time>
      </trkpt>
      <trkpt lat="48.43411" lon="2.4695">
        <ele>78.48</ele>
        <time>2015-03-04T09:03:12Z</time>
      </trkpt>
      <trkpt lat="48.43396" lon="2.46938">
        <ele>78.97</ele>
        <time>2015-03-04T09:03:27Z</time>
      </trkpt>
      <trkpt lat="48.43382" lon="2.46926">
        <ele>78.97</ele>
        <time>2015-03-04T09:03:40Z</time>
      </trkpt>
      <trkpt lat="48.4338" lon="2.46926">
        <ele>78.97</ele>
        <time>2015-03-04T09:03:42Z</time>
      </trkpt>
      <trkpt lat="48.43369" lon="2.46916">
        <ele>78.97</ele>
        <time>2015-03-04T09:03:55Z</time>
      </trkpt>
      <trkpt lat="48.43353" lon="2.46905">
        <ele>79.45</ele>
        <time>2015-03-04T09:04:11Z</time>
      </trkpt>
      <trkpt lat="48.43338" lon="2.46891">
        <ele>79.45</ele>
        <time>2015-03-04T09:04:26Z</time>
      </trkpt>
      <trkpt lat="48.43317" lon="2.46877">
        <ele>79.45</ele>
        <time>2015-03-04T09:04:42Z</time>
      </trkpt>
      <trkpt lat="48.43309" lon="2.46868">
        <ele>79.45</ele>
        <time>2015-03-04T09:04:56Z</time>
      </trkpt>
      <trkpt lat="48.43311" lon="2.46869">
        <ele>79.45</ele>
        <time>2015-03-04T09:05:09Z</time>
      </trkpt>
      <trkpt lat="48.43314" lon="2.46871">
        <ele>79.93</ele>
        <time>2015-03-04T09:05:24Z</time>
      </trkpt>
      <trkpt lat="48.43316" lon="2.46869">
        <ele>80.41</ele>
        <time>2015-03-04T09:05:43Z</time>
      </trkpt>
      <trkpt lat="48.43297" lon="2.46878">
        <ele>80.89</ele>
        <time>2015-03-04T09:06:06Z</time>
      </trkpt>
      <trkpt lat="48.43298" lon="2.4688">
        <ele>80.89</ele>
        <time>2015-03-04T09:06:38Z</time>
      </trkpt>
      <trkpt lat="48.43297" lon="2.46882">
        <ele>80.89</ele>
        <time>2015-03-04T09:07:00Z</time>
      </trkpt>
      <trkpt lat="48.43296" lon="2.46881">
        <ele>80.89</ele>
        <time>2015-03-04T09:07:27Z</time>
      </trkpt>
      <trkpt lat="48.43296" lon="2.46881">
        <ele>81.37</ele>
        <time>2015-03-04T09:07:52Z</time>
      </trkpt>
      <trkpt lat="48.43296" lon="2.46881">
        <ele>81.37</ele>
        <time>2015-03-04T09:08:06Z</time>
      </trkpt>
      <trkpt lat="48.43295" lon="2.46878">
        <ele>81.37</ele>
        <time>2015-03-04T09:08:21Z</time>
      </trkpt>
      <trkpt lat="48.43288" lon="2.46869">
        <ele>80.89</ele>
        <time>2015-03-04T09:08:37Z</time>
      </trkpt>
      <trkpt lat="48.43282" lon="2.4686">
        <ele>80.89</ele>
        <time>2015-03-04T09:08:49Z</time>
      </trkpt>
      <trkpt lat="48.43269" lon="2.4685">
        <ele>80.89</ele>
        <time>2015-03-04T09:09:03Z</time>
      </trkpt>
      <trkpt lat="48.43265" lon="2.46833">
        <ele>80.89</ele>
        <time>2015-03-04T09:09:19Z</time>
      </trkpt>
      <trkpt lat="48.43271" lon="2.46825">
        <ele>81.37</ele>
        <time>2015-03-04T09:09:32Z</time>
      </trkpt>
      <trkpt lat="48.43273" lon="2.46812">
        <ele>81.85</ele>
        <time>2015-03-04T09:09:46Z</time>
      </trkpt>
      <trkpt lat="48.43274" lon="2.46797">
        <ele>82.81</ele>
        <time>2015-03-04T09:09:59Z</time>
      </trkpt>
      <trkpt lat="48.43276" lon="2.46775">
        <ele>83.29</ele>
        <time>2015-03-04T09:10:13Z</time>
      </trkpt>
      <trkpt lat="48.43277" lon="2.46755">
        <ele>83.29</ele>
        <time>2015-03-04T09:10:27Z</time>
      </trkpt>
      <trkpt lat="48.43279" lon="2.46737">
        <ele>83.29</ele>
        <time>2015-03-04T09:10:40Z</time>
      </trkpt>
      <trkpt lat="48.4328" lon="2.46724">
        <ele>82.81</ele>
        <time>2015-03-04T09:10:50Z</time>
      </trkpt>
      <trkpt lat="48.43282" lon="2.46703">
        <ele>83.29</ele>
        <time>2015-03-04T09:11:03Z</time>
      </trkpt>
      <trkpt lat="48.43282" lon="2.46689">
        <ele>82.81</ele>
        <time>2015-03-04T09:11:13Z</time>
      </trkpt>
      <trkpt lat="48.43282" lon="2.46683">
        <ele>82.33</ele>
        <time>2015-03-04T09:11:16Z</time>
      </trkpt>
      <trkpt lat="48.43287" lon="2.46657">
        <ele>82.81</ele>
        <time>2015-03-04T09:11:31Z</time>
      </trkpt>
      <trkpt lat="48.43293" lon="2.46629">
        <ele>82.81</ele>
        <time>2015-03-04T09:11:47Z</time>
      </trkpt>
      <trkpt lat="48.43295" lon="2.46607">
        <ele>82.33</ele>
        <time>2015-03-04T09:12:04Z</time>
      </trkpt>
      <trkpt lat="48.43298" lon="2.46584">
        <ele>82.33</ele>
        <time>2015-03-04T09:12:22Z</time>
      </trkpt>
      <trkpt lat="48.43301" lon="2.46563">
        <ele>82.81</ele>
        <time>2015-03-04T09:12:38Z</time>
      </trkpt>
      <trkpt lat="48.43304" lon="2.46541">
        <ele>82.33</ele>
        <time>2015-03-04T09:12:52Z</time>
      </trkpt>
      <trkpt lat="48.43306" lon="2.46517">
        <ele>81.85</ele>
        <time>2015-03-04T09:13:06Z</time>
      </trkpt>
      <trkpt lat="48.43309" lon="2.465">
        <ele>81.37</ele>
        <time>2015-03-04T09:13:20Z</time>
      </trkpt>
      <trkpt lat="48.43312" lon="2.46484">
        <ele>80.89</ele>
        <time>2015-03-04T09:13:34Z</time>
      </trkpt>
      <trkpt lat="48.43313" lon="2.46468">
        <ele>79.45</ele>
        <time>2015-03-04T09:13:46Z</time>
      </trkpt>
      <trkpt lat="48.43313" lon="2.46456">
        <ele>78.48</ele>
        <time>2015-03-04T09:13:56Z</time>
      </trkpt>
      <trkpt lat="48.43311" lon="2.46451">
        <ele>78</ele>
        <time>2015-03-04T09:13:59Z</time>
      </trkpt>
      <trkpt lat="48.43319" lon="2.46414">
        <ele>77.04</ele>
        <time>2015-03-04T09:14:18Z</time>
      </trkpt>
      <trkpt lat="48.43322" lon="2.46387">
        <ele>76.08</ele>
        <time>2015-03-04T09:14:33Z</time>
      </trkpt>
      <trkpt lat="48.43323" lon="2.46357">
        <ele>75.6</ele>
        <time>2015-03-04T09:14:49Z</time>
      </trkpt>
      <trkpt lat="48.43327" lon="2.46328">
        <ele>74.16</ele>
        <time>2015-03-04T09:15:05Z</time>
      </trkpt>
      <trkpt lat="48.43329" lon="2.46304">
        <ele>73.68</ele>
        <time>2015-03-04T09:15:19Z</time>
      </trkpt>
      <trkpt lat="48.43332" lon="2.46274">
        <ele>72.72</ele>
        <time>2015-03-04T09:15:35Z</time>
      </trkpt>
      <trkpt lat="48.43334" lon="2.46261">
        <ele>72.24</ele>
        <time>2015-03-04T09:15:42Z</time>
      </trkpt>
      <trkpt lat="48.43337" lon="2.4623">
        <ele>71.27</ele>
        <time>2015-03-04T09:15:59Z</time>
      </trkpt>
      <trkpt lat="48.4334" lon="2.46201">
        <ele>70.31</ele>
        <time>2015-03-04T09:16:16Z</time>
      </trkpt>
      <trkpt lat="48.43344" lon="2.4618">
        <ele>69.83</ele>
        <time>2015-03-04T09:16:32Z</time>
      </trkpt>
      <trkpt lat="48.43344" lon="2.46173">
        <ele>69.83</ele>
        <time>2015-03-04T09:16:36Z</time>
      </trkpt>
      <trkpt lat="48.43347" lon="2.46155">
        <ele>69.35</ele>
        <time>2015-03-04T09:16:50Z</time>
      </trkpt>
      <trkpt lat="48.4335" lon="2.46135">
        <ele>68.87</ele>
        <time>2015-03-04T09:17:04Z</time>
      </trkpt>
      <trkpt lat="48.43354" lon="2.46099">
        <ele>68.39</ele>
        <time>2015-03-04T09:17:23Z</time>
      </trkpt>
      <trkpt lat="48.43357" lon="2.46058">
        <ele>68.87</ele>
        <time>2015-03-04T09:17:39Z</time>
      </trkpt>
      <trkpt lat="48.4336" lon="2.46028">
        <ele>69.35</ele>
        <time>2015-03-04T09:17:55Z</time>
      </trkpt>
      <trkpt lat="48.43362" lon="2.46007">
        <ele>69.35</ele>
        <time>2015-03-04T09:18:07Z</time>
      </trkpt>
      <trkpt lat="48.43361" lon="2.46003">
        <ele>68.87</ele>
        <time>2015-03-04T09:18:09Z</time>
      </trkpt>
      <trkpt lat="48.4336" lon="2.45974">
        <ele>69.35</ele>
        <time>2015-03-04T09:18:26Z</time>
      </trkpt>
      <trkpt lat="48.4336" lon="2.45968">
        <ele>69.83</ele>
        <time>2015-03-04T09:18:29Z</time>
      </trkpt>
      <trkpt lat="48.43364" lon="2.45937">
        <ele>69.83</ele>
        <time>2015-03-04T09:18:44Z</time>
      </trkpt>
      <trkpt lat="48.43364" lon="2.45928">
        <ele>69.83</ele>
        <time>2015-03-04T09:18:49Z</time>
      </trkpt>
      <trkpt lat="48.43365" lon="2.45907">
        <ele>70.79</ele>
        <time>2015-03-04T09:19:02Z</time>
      </trkpt>
      <trkpt lat="48.43372" lon="2.45874">
        <ele>71.27</ele>
        <time>2015-03-04T09:19:18Z</time>
      </trkpt>
      <trkpt lat="48.43382" lon="2.45864">
        <ele>71.27</ele>
        <time>2015-03-04T09:19:35Z</time>
      </trkpt>
      <trkpt lat="48.43387" lon="2.45866">
        <ele>71.76</ele>
        <time>2015-03-04T09:19:49Z</time>
      </trkpt>
      <trkpt lat="48.43389" lon="2.45866">
        <ele>71.76</ele>
        <time>2015-03-04T09:20:03Z</time>
      </trkpt>
      <trkpt lat="48.43399" lon="2.45871">
        <ele>71.27</ele>
        <time>2015-03-04T09:20:18Z</time>
      </trkpt>
      <trkpt lat="48.43408" lon="2.45876">
        <ele>71.27</ele>
        <time>2015-03-04T09:20:29Z</time>
      </trkpt>
      <trkpt lat="48.43407" lon="2.45877">
        <ele>71.27</ele>
        <time>2015-03-04T09:20:47Z</time>
      </trkpt>
      <trkpt lat="48.4341" lon="2.4588">
        <ele>71.27</ele>
        <time>2015-03-04T09:20:50Z</time>
      </trkpt>
      <trkpt lat="48.43419" lon="2.45897">
        <ele>70.79</ele>
        <time>2015-03-04T09:21:04Z</time>
      </trkpt>
      <trkpt lat="48.43428" lon="2.45911">
        <ele>70.79</ele>
        <time>2015-03-04T09:21:17Z</time>
      </trkpt>
      <trkpt lat="48.43445" lon="2.45918">
        <ele>70.31</ele>
        <time>2015-03-04T09:21:32Z</time>
      </trkpt>
      <trkpt lat="48.43448" lon="2.45919">
        <ele>70.79</ele>
        <time>2015-03-04T09:21:36Z</time>
      </trkpt>
      <trkpt lat="48.43466" lon="2.45924">
        <ele>70.31</ele>
        <time>2015-03-04T09:21:50Z</time>
      </trkpt>
      <trkpt lat="48.43485" lon="2.4593">
        <ele>70.31</ele>
        <time>2015-03-04T09:22:08Z</time>
      </trkpt>
      <trkpt lat="48.43507" lon="2.45941">
        <ele>70.31</ele>
        <time>2015-03-04T09:22:25Z</time>
      </trkpt>
      <trkpt lat="48.43524" lon="2.45953">
        <ele>70.31</ele>
        <time>2015-03-04T09:22:39Z</time>
      </trkpt>
      <trkpt lat="48.43537" lon="2.45963">
        <ele>69.83</ele>
        <time>2015-03-04T09:22:50Z</time>
      </trkpt>
      <trkpt lat="48.43556" lon="2.45973">
        <ele>70.31</ele>
        <time>2015-03-04T09:23:04Z</time>
      </trkpt>
      <trkpt lat="48.4356" lon="2.45973">
        <ele>70.31</ele>
        <time>2015-03-04T09:23:07Z</time>
      </trkpt>
      <trkpt lat="48.43561" lon="2.45971">
        <ele>70.31</ele>
        <time>2015-03-04T09:23:09Z</time>
      </trkpt>
      <trkpt lat="48.43565" lon="2.45948">
        <ele>70.79</ele>
        <time>2015-03-04T09:23:24Z</time>
      </trkpt>
      <trkpt lat="48.43567" lon="2.45915">
        <ele>71.27</ele>
        <time>2015-03-04T09:23:40Z</time>
      </trkpt>
      <trkpt lat="48.43571" lon="2.4588">
        <ele>71.76</ele>
        <time>2015-03-04T09:23:58Z</time>
      </trkpt>
      <trkpt lat="48.4358" lon="2.45854">
        <ele>71.76</ele>
        <time>2015-03-04T09:24:14Z</time>
      </trkpt>
      <trkpt lat="48.43585" lon="2.45846">
        <ele>72.24</ele>
        <time>2015-03-04T09:24:20Z</time>
      </trkpt>
      <trkpt lat="48.43593" lon="2.45813">
        <ele>72.72</ele>
        <time>2015-03-04T09:24:38Z</time>
      </trkpt>
      <trkpt lat="48.43596" lon="2.45777">
        <ele>73.2</ele>
        <time>2015-03-04T09:24:57Z</time>
      </trkpt>
      <trkpt lat="48.43598" lon="2.45751">
        <ele>73.68</ele>
        <time>2015-03-04T09:25:13Z</time>
      </trkpt>
      <trkpt lat="48.43599" lon="2.45716">
        <ele>73.68</ele>
        <time>2015-03-04T09:25:31Z</time>
      </trkpt>
      <trkpt lat="48.436" lon="2.45706">
        <ele>74.16</ele>
        <time>2015-03-04T09:25:38Z</time>
      </trkpt>
      <trkpt lat="48.43602" lon="2.45704">
        <ele>74.64</ele>
        <time>2015-03-04T09:25:42Z</time>
      </trkpt>
      <trkpt lat="48.43616" lon="2.45704">
        <ele>75.12</ele>
        <time>2015-03-04T09:25:54Z</time>
      </trkpt>
      <trkpt lat="48.4362" lon="2.45698">
        <ele>74.64</ele>
        <time>2015-03-04T09:25:59Z</time>
      </trkpt>
      <trkpt lat="48.43629" lon="2.45668">
        <ele>75.6</ele>
        <time>2015-03-04T09:26:16Z</time>
      </trkpt>
      <trkpt lat="48.43634" lon="2.45638">
        <ele>76.56</ele>
        <time>2015-03-04T09:26:34Z</time>
      </trkpt>
      <trkpt lat="48.43641" lon="2.45601">
        <ele>77.04</ele>
        <time>2015-03-04T09:26:54Z</time>
      </trkpt>
      <trkpt lat="48.43647" lon="2.45571">
        <ele>77.52</ele>
        <time>2015-03-04T09:27:11Z</time>
      </trkpt>
      <trkpt lat="48.43653" lon="2.45537">
        <ele>77.52</ele>
        <time>2015-03-04T09:27:29Z</time>
      </trkpt>
      <trkpt lat="48.43649" lon="2.455">
        <ele>77.52</ele>
        <time>2015-03-04T09:27:48Z</time>
      </trkpt>
      <trkpt lat="48.43648" lon="2.45463">
        <ele>78</ele>
        <time>2015-03-04T09:28:05Z</time>
      </trkpt>
      <trkpt lat="48.43638" lon="2.45435">
        <ele>78</ele>
        <time>2015-03-04T09:28:20Z</time>
      </trkpt>
      <trkpt lat="48.43629" lon="2.45413">
        <ele>78</ele>
        <time>2015-03-04T09:28:34Z</time>
      </trkpt>
      <trkpt lat="48.43619" lon="2.45386">
        <ele>78</ele>
        <time>2015-03-04T09:28:52Z</time>
      </trkpt>
      <trkpt lat="48.43613" lon="2.45359">
        <ele>78</ele>
        <time>2015-03-04T09:29:07Z</time>
      </trkpt>
      <trkpt lat="48.4362" lon="2.45336">
        <ele>78.48</ele>
        <time>2015-03-04T09:29:22Z</time>
      </trkpt>
      <trkpt lat="48.43636" lon="2.45315">
        <ele>78.48</ele>
        <time>2015-03-04T09:29:40Z</time>
      </trkpt>
      <trkpt lat="48.43655" lon="2.45292">
        <ele>78.97</ele>
        <time>2015-03-04T09:29:59Z</time>
      </trkpt>
      <trkpt lat="48.43669" lon="2.4526">
        <ele>79.45</ele>
        <time>2015-03-04T09:30:19Z</time>
      </trkpt>
      <trkpt lat="48.43678" lon="2.45239">
        <ele>79.45</ele>
        <time>2015-03-04T09:30:31Z</time>
      </trkpt>
      <trkpt lat="48.43682" lon="2.45226">
        <ele>79.93</ele>
        <time>2015-03-04T09:30:43Z</time>
      </trkpt>
      <trkpt lat="48.43692" lon="2.45202">
        <ele>79.93</ele>
        <time>2015-03-04T09:30:58Z</time>
      </trkpt>
      <trkpt lat="48.43702" lon="2.45169">
        <ele>80.41</ele>
        <time>2015-03-04T09:31:17Z</time>
      </trkpt>
      <trkpt lat="48.43711" lon="2.45139">
        <ele>80.41</ele>
        <time>2015-03-04T09:31:34Z</time>
      </trkpt>
      <trkpt lat="48.43718" lon="2.4511">
        <ele>80.89</ele>
        <time>2015-03-04T09:31:49Z</time>
      </trkpt>
      <trkpt lat="48.43727" lon="2.4508">
        <ele>80.89</ele>
        <time>2015-03-04T09:32:06Z</time>
      </trkpt>
      <trkpt lat="48.43736" lon="2.45046">
        <ele>81.85</ele>
        <time>2015-03-04T09:32:25Z</time>
      </trkpt>
      <trkpt lat="48.43747" lon="2.45019">
        <ele>82.33</ele>
        <time>2015-03-04T09:32:42Z</time>
      </trkpt>
      <trkpt lat="48.43759" lon="2.44996">
        <ele>82.81</ele>
        <time>2015-03-04T09:32:58Z</time>
      </trkpt>
      <trkpt lat="48.43772" lon="2.44969">
        <ele>83.29</ele>
        <time>2015-03-04T09:33:16Z</time>
      </trkpt>
      <trkpt lat="48.43785" lon="2.44936">
        <ele>83.77</ele>
        <time>2015-03-04T09:33:37Z</time>
      </trkpt>
      <trkpt lat="48.43797" lon="2.44907">
        <ele>83.77</ele>
        <time>2015-03-04T09:33:56Z</time>
      </trkpt>
      <trkpt lat="48.43798" lon="2.44904">
        <ele>83.77</ele>
        <time>2015-03-04T09:33:58Z</time>
      </trkpt>
      <trkpt lat="48.43812" lon="2.44869">
        <ele>83.77</ele>
        <time>2015-03-04T09:34:20Z</time>
      </trkpt>
      <trkpt lat="48.43824" lon="2.44835">
        <ele>84.25</ele>
        <time>2015-03-04T09:34:41Z</time>
      </trkpt>
      <trkpt lat="48.43836" lon="2.44809">
        <ele>83.29</ele>
        <time>2015-03-04T09:34:58Z</time>
      </trkpt>
      <trkpt lat="48.43848" lon="2.44786">
        <ele>83.29</ele>
        <time>2015-03-04T09:35:13Z</time>
      </trkpt>
      <trkpt lat="48.43861" lon="2.44759">
        <ele>83.77</ele>
        <time>2015-03-04T09:35:30Z</time>
      </trkpt>
      <trkpt lat="48.43873" lon="2.44736">
        <ele>84.25</ele>
        <time>2015-03-04T09:35:45Z</time>
      </trkpt>
      <trkpt lat="48.43885" lon="2.44712">
        <ele>84.73</ele>
        <time>2015-03-04T09:36:01Z</time>
      </trkpt>
      <trkpt lat="48.43899" lon="2.44685">
        <ele>84.25</ele>
        <time>2015-03-04T09:36:19Z</time>
      </trkpt>
      <trkpt lat="48.43905" lon="2.44677">
        <ele>83.77</ele>
        <time>2015-03-04T09:36:31Z</time>
      </trkpt>
      <trkpt lat="48.43906" lon="2.44675">
        <ele>83.77</ele>
        <time>2015-03-04T09:36:44Z</time>
      </trkpt>
      <trkpt lat="48.43911" lon="2.44665">
        <ele>83.77</ele>
        <time>2015-03-04T09:36:57Z</time>
      </trkpt>
      <trkpt lat="48.43916" lon="2.44654">
        <ele>83.77</ele>
        <time>2015-03-04T09:37:11Z</time>
      </trkpt>
      <trkpt lat="48.43922" lon="2.44644">
        <ele>83.77</ele>
        <time>2015-03-04T09:37:24Z</time>
      </trkpt>
      <trkpt lat="48.4393" lon="2.44627">
        <ele>83.77</ele>
        <time>2015-03-04T09:37:40Z</time>
      </trkpt>
      <trkpt lat="48.43939" lon="2.44609">
        <ele>83.29</ele>
        <time>2015-03-04T09:37:55Z</time>
      </trkpt>
      <trkpt lat="48.43949" lon="2.4459">
        <ele>83.29</ele>
        <time>2015-03-04T09:38:11Z</time>
      </trkpt>
      <trkpt lat="48.43957" lon="2.44575">
        <ele>83.29</ele>
        <time>2015-03-04T09:38:25Z</time>
      </trkpt>
      <trkpt lat="48.43964" lon="2.44567">
        <ele>83.77</ele>
        <time>2015-03-04T09:38:39Z</time>
      </trkpt>
      <trkpt lat="48.43966" lon="2.44567">
        <ele>84.25</ele>
        <time>2015-03-04T09:38:41Z</time>
      </trkpt>
      <trkpt lat="48.43979" lon="2.44583">
        <ele>83.77</ele>
        <time>2015-03-04T09:38:58Z</time>
      </trkpt>
      <trkpt lat="48.43994" lon="2.44602">
        <ele>83.77</ele>
        <time>2015-03-04T09:39:15Z</time>
      </trkpt>
      <trkpt lat="48.4401" lon="2.44625">
        <ele>83.77</ele>
        <time>2015-03-04T09:39:33Z</time>
      </trkpt>
      <trkpt lat="48.44026" lon="2.4465">
        <ele>83.77</ele>
        <time>2015-03-04T09:39:52Z</time>
      </trkpt>
      <trkpt lat="48.44043" lon="2.44671">
        <ele>83.77</ele>
        <time>2015-03-04T09:40:10Z</time>
      </trkpt>
      <trkpt lat="48.4406" lon="2.44696">
        <ele>83.77</ele>
        <time>2015-03-04T09:40:29Z</time>
      </trkpt>
      <trkpt lat="48.44079" lon="2.4472">
        <ele>83.77</ele>
        <time>2015-03-04T09:40:49Z</time>
      </trkpt>
      <trkpt lat="48.44097" lon="2.44744">
        <ele>83.29</ele>
        <time>2015-03-04T09:41:08Z</time>
      </trkpt>
      <trkpt lat="48.44115" lon="2.44768">
        <ele>83.29</ele>
        <time>2015-03-04T09:41:27Z</time>
      </trkpt>
      <trkpt lat="48.44131" lon="2.44788">
        <ele>83.77</ele>
        <time>2015-03-04T09:41:44Z</time>
      </trkpt>
      <trkpt lat="48.44149" lon="2.44813">
        <ele>83.77</ele>
        <time>2015-03-04T09:42:03Z</time>
      </trkpt>
      <trkpt lat="48.4417" lon="2.44837">
        <ele>83.77</ele>
        <time>2015-03-04T09:42:23Z</time>
      </trkpt>
      <trkpt lat="48.44189" lon="2.4486">
        <ele>83.77</ele>
        <time>2015-03-04T09:42:41Z</time>
      </trkpt>
      <trkpt lat="48.44204" lon="2.4488">
        <ele>83.29</ele>
        <time>2015-03-04T09:42:58Z</time>
      </trkpt>
      <trkpt lat="48.44222" lon="2.44904">
        <ele>83.77</ele>
        <time>2015-03-04T09:43:17Z</time>
      </trkpt>
      <trkpt lat="48.44242" lon="2.44927">
        <ele>83.77</ele>
        <time>2015-03-04T09:43:37Z</time>
      </trkpt>
      <trkpt lat="48.4426" lon="2.4495">
        <ele>83.77</ele>
        <time>2015-03-04T09:43:56Z</time>
      </trkpt>
      <trkpt lat="48.44277" lon="2.44972">
        <ele>83.77</ele>
        <time>2015-03-04T09:44:15Z</time>
      </trkpt>
      <trkpt lat="48.44288" lon="2.44984">
        <ele>83.77</ele>
        <time>2015-03-04T09:44:26Z</time>
      </trkpt>
      <trkpt lat="48.44291" lon="2.44989">
        <ele>83.77</ele>
        <time>2015-03-04T09:44:30Z</time>
      </trkpt>
      <trkpt lat="48.44304" lon="2.44992">
        <ele>84.73</ele>
        <time>2015-03-04T09:44:45Z</time>
      </trkpt>
      <trkpt lat="48.4431" lon="2.44986">
        <ele>84.73</ele>
        <time>2015-03-04T09:44:53Z</time>
      </trkpt>
      <trkpt lat="48.44327" lon="2.44969">
        <ele>84.73</ele>
        <time>2015-03-04T09:45:11Z</time>
      </trkpt>
      <trkpt lat="48.44343" lon="2.44957">
        <ele>85.21</ele>
        <time>2015-03-04T09:45:27Z</time>
      </trkpt>
      <trkpt lat="48.44356" lon="2.44944">
        <ele>85.21</ele>
        <time>2015-03-04T09:45:41Z</time>
      </trkpt>
      <trkpt lat="48.44372" lon="2.4493">
        <ele>85.69</ele>
        <time>2015-03-04T09:45:56Z</time>
      </trkpt>
      <trkpt lat="48.44387" lon="2.44915">
        <ele>85.21</ele>
        <time>2015-03-04T09:46:11Z</time>
      </trkpt>
      <trkpt lat="48.44407" lon="2.44896">
        <ele>85.69</ele>
        <time>2015-03-04T09:46:30Z</time>
      </trkpt>
      <trkpt lat="48.44427" lon="2.44877">
        <ele>85.21</ele>
        <time>2015-03-04T09:46:49Z</time>
      </trkpt>
      <trkpt lat="48.44445" lon="2.4486">
        <ele>85.69</ele>
        <time>2015-03-04T09:47:06Z</time>
      </trkpt>
      <trkpt lat="48.44461" lon="2.44847">
        <ele>85.69</ele>
        <time>2015-03-04T09:47:21Z</time>
      </trkpt>
      <trkpt lat="48.44476" lon="2.44827">
        <ele>85.21</ele>
        <time>2015-03-04T09:47:37Z</time>
      </trkpt>
      <trkpt lat="48.44491" lon="2.44809">
        <ele>85.69</ele>
        <time>2015-03-04T09:47:53Z</time>
      </trkpt>
      <trkpt lat="48.44505" lon="2.4479">
        <ele>86.18</ele>
        <time>2015-03-04T09:48:09Z</time>
      </trkpt>
      <trkpt lat="48.44521" lon="2.4477">
        <ele>86.18</ele>
        <time>2015-03-04T09:48:26Z</time>
      </trkpt>
      <trkpt lat="48.44535" lon="2.44753">
        <ele>86.18</ele>
        <time>2015-03-04T09:48:41Z</time>
      </trkpt>
      <trkpt lat="48.4455" lon="2.44736">
        <ele>86.18</ele>
        <time>2015-03-04T09:48:57Z</time>
      </trkpt>
      <trkpt lat="48.44566" lon="2.44717">
        <ele>86.66</ele>
        <time>2015-03-04T09:49:14Z</time>
      </trkpt>
      <trkpt lat="48.4458" lon="2.44699">
        <ele>86.66</ele>
        <time>2015-03-04T09:49:29Z</time>
      </trkpt>
      <trkpt lat="48.44595" lon="2.44681">
        <ele>86.66</ele>
        <time>2015-03-04T09:49:45Z</time>
      </trkpt>
      <trkpt lat="48.44609" lon="2.44662">
        <ele>86.66</ele>
        <time>2015-03-04T09:50:00Z</time>
      </trkpt>
      <trkpt lat="48.44624" lon="2.44646">
        <ele>86.66</ele>
        <time>2015-03-04T09:50:15Z</time>
      </trkpt>
      <trkpt lat="48.44637" lon="2.4463">
        <ele>86.66</ele>
        <time>2015-03-04T09:50:29Z</time>
      </trkpt>
      <trkpt lat="48.44652" lon="2.4461">
        <ele>87.14</ele>
        <time>2015-03-04T09:50:45Z</time>
      </trkpt>
      <trkpt lat="48.44665" lon="2.44594">
        <ele>87.14</ele>
        <time>2015-03-04T09:50:59Z</time>
      </trkpt>
      <trkpt lat="48.4468" lon="2.44574">
        <ele>87.14</ele>
        <time>2015-03-04T09:51:15Z</time>
      </trkpt>
      <trkpt lat="48.44691" lon="2.44557">
        <ele>87.14</ele>
        <time>2015-03-04T09:51:28Z</time>
      </trkpt>
      <trkpt lat="48.44708" lon="2.44537">
        <ele>87.62</ele>
        <time>2015-03-04T09:51:44Z</time>
      </trkpt>
      <trkpt lat="48.44723" lon="2.44519">
        <ele>88.1</ele>
        <time>2015-03-04T09:51:59Z</time>
      </trkpt>
      <trkpt lat="48.44738" lon="2.44499">
        <ele>88.1</ele>
        <time>2015-03-04T09:52:15Z</time>
      </trkpt>
      <trkpt lat="48.44752" lon="2.44479">
        <ele>88.58</ele>
        <time>2015-03-04T09:52:30Z</time>
      </trkpt>
      <trkpt lat="48.44767" lon="2.4446">
        <ele>89.54</ele>
        <time>2015-03-04T09:52:46Z</time>
      </trkpt>
      <trkpt lat="48.44787" lon="2.44431">
        <ele>89.06</ele>
        <time>2015-03-04T09:53:07Z</time>
      </trkpt>
      <trkpt lat="48.44805" lon="2.44407">
        <ele>89.06</ele>
        <time>2015-03-04T09:53:26Z</time>
      </trkpt>
      <trkpt lat="48.44819" lon="2.4439">
        <ele>89.06</ele>
        <time>2015-03-04T09:53:41Z</time>
      </trkpt>
      <trkpt lat="48.44836" lon="2.44368">
        <ele>90.02</ele>
        <time>2015-03-04T09:53:58Z</time>
      </trkpt>
      <trkpt lat="48.44853" lon="2.44346">
        <ele>90.02</ele>
        <time>2015-03-04T09:54:16Z</time>
      </trkpt>
      <trkpt lat="48.4487" lon="2.44324">
        <ele>90.5</ele>
        <time>2015-03-04T09:54:34Z</time>
      </trkpt>
      <trkpt lat="48.44884" lon="2.44307">
        <ele>92.9</ele>
        <time>2015-03-04T09:54:50Z</time>
      </trkpt>
      <trkpt lat="48.44901" lon="2.44287">
        <ele>91.94</ele>
        <time>2015-03-04T09:55:07Z</time>
      </trkpt>
      <trkpt lat="48.44917" lon="2.44265">
        <ele>92.9</ele>
        <time>2015-03-04T09:55:24Z</time>
      </trkpt>
      <trkpt lat="48.44932" lon="2.44246">
        <ele>93.39</ele>
        <time>2015-03-04T09:55:40Z</time>
      </trkpt>
      <trkpt lat="48.44949" lon="2.44225">
        <ele>93.39</ele>
        <time>2015-03-04T09:55:58Z</time>
      </trkpt>
      <trkpt lat="48.44963" lon="2.44206">
        <ele>93.39</ele>
        <time>2015-03-04T09:56:13Z</time>
      </trkpt>
      <trkpt lat="48.44976" lon="2.44188">
        <ele>93.87</ele>
        <time>2015-03-04T09:56:28Z</time>
      </trkpt>
      <trkpt lat="48.44991" lon="2.44167">
        <ele>94.35</ele>
        <time>2015-03-04T09:56:44Z</time>
      </trkpt>
      <trkpt lat="48.44993" lon="2.44162">
        <ele>93.87</ele>
        <time>2015-03-04T09:56:54Z</time>
      </trkpt>
      <trkpt lat="48.44994" lon="2.44162">
        <ele>93.87</ele>
        <time>2015-03-04T09:57:20Z</time>
      </trkpt>
      <trkpt lat="48.44996" lon="2.44159">
        <ele>93.87</ele>
        <time>2015-03-04T09:57:37Z</time>
      </trkpt>
      <trkpt lat="48.45006" lon="2.44148">
        <ele>93.87</ele>
        <time>2015-03-04T09:57:49Z</time>
      </trkpt>
      <trkpt lat="48.45018" lon="2.44131">
        <ele>94.83</ele>
        <time>2015-03-04T09:58:04Z</time>
      </trkpt>
      <trkpt lat="48.45031" lon="2.44112">
        <ele>94.83</ele>
        <time>2015-03-04T09:58:20Z</time>
      </trkpt>
      <trkpt lat="48.45045" lon="2.44092">
        <ele>95.79</ele>
        <time>2015-03-04T09:58:36Z</time>
      </trkpt>
      <trkpt lat="48.45054" lon="2.44079">
        <ele>95.79</ele>
        <time>2015-03-04T09:58:48Z</time>
      </trkpt>
      <trkpt lat="48.45066" lon="2.44062">
        <ele>96.27</ele>
        <time>2015-03-04T09:59:04Z</time>
      </trkpt>
      <trkpt lat="48.45075" lon="2.4405">
        <ele>97.23</ele>
        <time>2015-03-04T09:59:18Z</time>
      </trkpt>
      <trkpt lat="48.45085" lon="2.44037">
        <ele>98.19</ele>
        <time>2015-03-04T09:59:31Z</time>
      </trkpt>
      <trkpt lat="48.45088" lon="2.44032">
        <ele>98.67</ele>
        <time>2015-03-04T09:59:36Z</time>
      </trkpt>
      <trkpt lat="48.45098" lon="2.44015">
        <ele>99.15</ele>
        <time>2015-03-04T09:59:51Z</time>
      </trkpt>
      <trkpt lat="48.45104" lon="2.43994">
        <ele>99.63</ele>
        <time>2015-03-04T10:00:08Z</time>
      </trkpt>
      <trkpt lat="48.45107" lon="2.43981">
        <ele>100.11</ele>
        <time>2015-03-04T10:00:17Z</time>
      </trkpt>
      <trkpt lat="48.45105" lon="2.43974">
        <ele>97.71</ele>
        <time>2015-03-04T10:00:28Z</time>
      </trkpt>
      <trkpt lat="48.45106" lon="2.43968">
        <ele>99.63</ele>
        <time>2015-03-04T10:00:58Z</time>
      </trkpt>
      <trkpt lat="48.45106" lon="2.43971">
        <ele>99.63</ele>
        <time>2015-03-04T10:01:25Z</time>
      </trkpt>
      <trkpt lat="48.45104" lon="2.43972">
        <ele>99.63</ele>
        <time>2015-03-04T10:01:37Z</time>
      </trkpt>
      <trkpt lat="48.45103" lon="2.43973">
        <ele>99.15</ele>
        <time>2015-03-04T10:02:14Z</time>
      </trkpt>
      <trkpt lat="48.45105" lon="2.43971">
        <ele>98.67</ele>
        <time>2015-03-04T10:03:00Z</time>
      </trkpt>
      <trkpt lat="48.45104" lon="2.43974">
        <ele>98.67</ele>
        <time>2015-03-04T10:03:40Z</time>
      </trkpt>
      <trkpt lat="48.45106" lon="2.43974">
        <ele>98.19</ele>
        <time>2015-03-04T10:04:14Z</time>
      </trkpt>
      <trkpt lat="48.45106" lon="2.43969">
        <ele>99.15</ele>
        <time>2015-03-04T10:04:46Z</time>
      </trkpt>
      <trkpt lat="48.45109" lon="2.43975">
        <ele>98.67</ele>
        <time>2015-03-04T10:04:59Z</time>
      </trkpt>
      <trkpt lat="48.45108" lon="2.43974">
        <ele>98.67</ele>
        <time>2015-03-04T10:05:18Z</time>
      </trkpt>
      <trkpt lat="48.45105" lon="2.43969">
        <ele>97.71</ele>
        <time>2015-03-04T10:05:31Z</time>
      </trkpt>
      <trkpt lat="48.45105" lon="2.43969">
        <ele>97.71</ele>
        <time>2015-03-04T10:05:50Z</time>
      </trkpt>
      <trkpt lat="48.45103" lon="2.4397">
        <ele>98.19</ele>
        <time>2015-03-04T10:06:11Z</time>
      </trkpt>
      <trkpt lat="48.45103" lon="2.4397">
        <ele>98.19</ele>
        <time>2015-03-04T10:06:33Z</time>
      </trkpt>
      <trkpt lat="48.45105" lon="2.43968">
        <ele>98.19</ele>
        <time>2015-03-04T10:07:02Z</time>
      </trkpt>
      <trkpt lat="48.45104" lon="2.43969">
        <ele>98.19</ele>
        <time>2015-03-04T10:07:45Z</time>
      </trkpt>
      <trkpt lat="48.45103" lon="2.43966">
        <ele>97.71</ele>
        <time>2015-03-04T10:08:24Z</time>
      </trkpt>
      <trkpt lat="48.45104" lon="2.43969">
        <ele>98.19</ele>
        <time>2015-03-04T10:09:04Z</time>
      </trkpt>
      <trkpt lat="48.45105" lon="2.43968">
        <ele>98.19</ele>
        <time>2015-03-04T10:09:44Z</time>
      </trkpt>
      <trkpt lat="48.45105" lon="2.4397">
        <ele>98.19</ele>
        <time>2015-03-04T10:10:18Z</time>
      </trkpt>
      <trkpt lat="48.45105" lon="2.43967">
        <ele>98.19</ele>
        <time>2015-03-04T10:10:44Z</time>
      </trkpt>
      <trkpt lat="48.45103" lon="2.4397">
        <ele>98.67</ele>
        <time>2015-03-04T10:11:10Z</time>
      </trkpt>
      <trkpt lat="48.45103" lon="2.4397">
        <ele>99.15</ele>
        <time>2015-03-04T10:11:53Z</time>
      </trkpt>
      <trkpt lat="48.45103" lon="2.43968">
        <ele>98.67</ele>
        <time>2015-03-04T10:12:33Z</time>
      </trkpt>
      <trkpt lat="48.45101" lon="2.43966">
        <ele>99.63</ele>
        <time>2015-03-04T10:13:09Z</time>
      </trkpt>
      <trkpt lat="48.45104" lon="2.43964">
        <ele>99.63</ele>
        <time>2015-03-04T10:13:45Z</time>
      </trkpt>
      <trkpt lat="48.45104" lon="2.43968">
        <ele>99.63</ele>
        <time>2015-03-04T10:14:11Z</time>
      </trkpt>
      <trkpt lat="48.45103" lon="2.4397">
        <ele>99.63</ele>
        <time>2015-03-04T10:14:35Z</time>
      </trkpt>
      <trkpt lat="48.45101" lon="2.43969">
        <ele>99.15</ele>
        <time>2015-03-04T10:15:16Z</time>
      </trkpt>
      <trkpt lat="48.45106" lon="2.43976">
        <ele>101.08</ele>
        <time>2015-03-04T10:15:28Z</time>
      </trkpt>
      <trkpt lat="48.45108" lon="2.43978">
        <ele>100.6</ele>
        <time>2015-03-04T10:15:37Z</time>
      </trkpt>
      <trkpt lat="48.45111" lon="2.43977">
        <ele>100.6</ele>
        <time>2015-03-04T10:15:40Z</time>
      </trkpt>
      <trkpt lat="48.45118" lon="2.4398">
        <ele>100.11</ele>
        <time>2015-03-04T10:15:54Z</time>
      </trkpt>
      <trkpt lat="48.45118" lon="2.43979">
        <ele>101.08</ele>
        <time>2015-03-04T10:16:18Z</time>
      </trkpt>
      <trkpt lat="48.45115" lon="2.43965">
        <ele>101.08</ele>
        <time>2015-03-04T10:16:31Z</time>
      </trkpt>
      <trkpt lat="48.45115" lon="2.43963">
        <ele>101.08</ele>
        <time>2015-03-04T10:16:55Z</time>
      </trkpt>
      <trkpt lat="48.45115" lon="2.43951">
        <ele>101.08</ele>
        <time>2015-03-04T10:17:13Z</time>
      </trkpt>
      <trkpt lat="48.45114" lon="2.43931">
        <ele>102.04</ele>
        <time>2015-03-04T10:17:31Z</time>
      </trkpt>
      <trkpt lat="48.45119" lon="2.43912">
        <ele>103</ele>
        <time>2015-03-04T10:17:51Z</time>
      </trkpt>
      <trkpt lat="48.45124" lon="2.43887">
        <ele>104.44</ele>
        <time>2015-03-04T10:18:07Z</time>
      </trkpt>
      <trkpt lat="48.45128" lon="2.43862">
        <ele>105.4</ele>
        <time>2015-03-04T10:18:23Z</time>
      </trkpt>
      <trkpt lat="48.45129" lon="2.43857">
        <ele>105.88</ele>
        <time>2015-03-04T10:18:26Z</time>
      </trkpt>
      <trkpt lat="48.45127" lon="2.43831">
        <ele>107.32</ele>
        <time>2015-03-04T10:18:43Z</time>
      </trkpt>
      <trkpt lat="48.45119" lon="2.4381">
        <ele>107.81</ele>
        <time>2015-03-04T10:18:59Z</time>
      </trkpt>
      <trkpt lat="48.45112" lon="2.43787">
        <ele>108.77</ele>
        <time>2015-03-04T10:19:17Z</time>
      </trkpt>
      <trkpt lat="48.45111" lon="2.43766">
        <ele>110.21</ele>
        <time>2015-03-04T10:19:33Z</time>
      </trkpt>
      <trkpt lat="48.45112" lon="2.43744">
        <ele>110.69</ele>
        <time>2015-03-04T10:19:47Z</time>
      </trkpt>
      <trkpt lat="48.45113" lon="2.43719">
        <ele>112.61</ele>
        <time>2015-03-04T10:20:05Z</time>
      </trkpt>
      <trkpt lat="48.45115" lon="2.43697">
        <ele>114.05</ele>
        <time>2015-03-04T10:20:20Z</time>
      </trkpt>
      <trkpt lat="48.45116" lon="2.43676">
        <ele>115.5</ele>
        <time>2015-03-04T10:20:38Z</time>
      </trkpt>
      <trkpt lat="48.45118" lon="2.43655">
        <ele>117.9</ele>
        <time>2015-03-04T10:20:56Z</time>
      </trkpt>
      <trkpt lat="48.45125" lon="2.43621">
        <ele>119.34</ele>
        <time>2015-03-04T10:21:14Z</time>
      </trkpt>
      <trkpt lat="48.45124" lon="2.43605">
        <ele>121.74</ele>
        <time>2015-03-04T10:21:33Z</time>
      </trkpt>
      <trkpt lat="48.45125" lon="2.43588">
        <ele>123.67</ele>
        <time>2015-03-04T10:21:50Z</time>
      </trkpt>
      <trkpt lat="48.45128" lon="2.43576">
        <ele>125.11</ele>
        <time>2015-03-04T10:22:06Z</time>
      </trkpt>
      <trkpt lat="48.4513" lon="2.43561">
        <ele>127.99</ele>
        <time>2015-03-04T10:22:22Z</time>
      </trkpt>
      <trkpt lat="48.45134" lon="2.43545">
        <ele>129.92</ele>
        <time>2015-03-04T10:22:38Z</time>
      </trkpt>
      <trkpt lat="48.45136" lon="2.43528">
        <ele>131.36</ele>
        <time>2015-03-04T10:22:54Z</time>
      </trkpt>
      <trkpt lat="48.45139" lon="2.43521">
        <ele>133.28</ele>
        <time>2015-03-04T10:23:07Z</time>
      </trkpt>
      <trkpt lat="48.45145" lon="2.43516">
        <ele>134.24</ele>
        <time>2015-03-04T10:23:22Z</time>
      </trkpt>
      <trkpt lat="48.45151" lon="2.4351">
        <ele>135.2</ele>
        <time>2015-03-04T10:23:35Z</time>
      </trkpt>
      <trkpt lat="48.45161" lon="2.43498">
        <ele>137.13</ele>
        <time>2015-03-04T10:23:51Z</time>
      </trkpt>
      <trkpt lat="48.45169" lon="2.43484">
        <ele>138.57</ele>
        <time>2015-03-04T10:24:07Z</time>
      </trkpt>
      <trkpt lat="48.45169" lon="2.43464">
        <ele>140.01</ele>
        <time>2015-03-04T10:24:22Z</time>
      </trkpt>
      <trkpt lat="48.45172" lon="2.43444">
        <ele>140.97</ele>
        <time>2015-03-04T10:24:36Z</time>
      </trkpt>
      <trkpt lat="48.45178" lon="2.4342">
        <ele>140.97</ele>
        <time>2015-03-04T10:24:52Z</time>
      </trkpt>
      <trkpt lat="48.45185" lon="2.43403">
        <ele>141.45</ele>
        <time>2015-03-04T10:25:06Z</time>
      </trkpt>
      <trkpt lat="48.45189" lon="2.43389">
        <ele>142.41</ele>
        <time>2015-03-04T10:25:19Z</time>
      </trkpt>
      <trkpt lat="48.45198" lon="2.43371">
        <ele>142.41</ele>
        <time>2015-03-04T10:25:33Z</time>
      </trkpt>
      <trkpt lat="48.45209" lon="2.43349">
        <ele>142.41</ele>
        <time>2015-03-04T10:25:50Z</time>
      </trkpt>
      <trkpt lat="48.45215" lon="2.43327">
        <ele>142.89</ele>
        <time>2015-03-04T10:26:06Z</time>
      </trkpt>
      <trkpt lat="48.45224" lon="2.43301">
        <ele>142.89</ele>
        <time>2015-03-04T10:26:22Z</time>
      </trkpt>
      <trkpt lat="48.45225" lon="2.43282">
        <ele>143.37</ele>
        <time>2015-03-04T10:26:36Z</time>
      </trkpt>
      <trkpt lat="48.45232" lon="2.43265">
        <ele>143.37</ele>
        <time>2015-03-04T10:26:49Z</time>
      </trkpt>
      <trkpt lat="48.45232" lon="2.43265">
        <ele>143.37</ele>
        <time>2015-03-04T10:26:50Z</time>
      </trkpt>
      <trkpt lat="48.45239" lon="2.43244">
        <ele>143.37</ele>
        <time>2015-03-04T10:27:06Z</time>
      </trkpt>
      <trkpt lat="48.45247" lon="2.43227">
        <ele>143.37</ele>
        <time>2015-03-04T10:27:20Z</time>
      </trkpt>
      <trkpt lat="48.45254" lon="2.43209">
        <ele>143.37</ele>
        <time>2015-03-04T10:27:34Z</time>
      </trkpt>
      <trkpt lat="48.45261" lon="2.43197">
        <ele>143.37</ele>
        <time>2015-03-04T10:27:49Z</time>
      </trkpt>
      <trkpt lat="48.45263" lon="2.43192">
        <ele>143.37</ele>
        <time>2015-03-04T10:27:53Z</time>
      </trkpt>
      <trkpt lat="48.45276" lon="2.43163">
        <ele>143.37</ele>
        <time>2015-03-04T10:28:08Z</time>
      </trkpt>
      <trkpt lat="48.45288" lon="2.43134">
        <ele>143.37</ele>
        <time>2015-03-04T10:28:26Z</time>
      </trkpt>
      <trkpt lat="48.45302" lon="2.43108">
        <ele>143.37</ele>
        <time>2015-03-04T10:28:46Z</time>
      </trkpt>
      <trkpt lat="48.45304" lon="2.43103">
        <ele>143.37</ele>
        <time>2015-03-04T10:28:50Z</time>
      </trkpt>
      <trkpt lat="48.45316" lon="2.4308">
        <ele>143.85</ele>
        <time>2015-03-04T10:29:06Z</time>
      </trkpt>
      <trkpt lat="48.45326" lon="2.43054">
        <ele>142.89</ele>
        <time>2015-03-04T10:29:23Z</time>
      </trkpt>
      <trkpt lat="48.45342" lon="2.43036">
        <ele>143.37</ele>
        <time>2015-03-04T10:29:40Z</time>
      </trkpt>
      <trkpt lat="48.45356" lon="2.43012">
        <ele>143.37</ele>
        <time>2015-03-04T10:29:57Z</time>
      </trkpt>
      <trkpt lat="48.45373" lon="2.42985">
        <ele>143.85</ele>
        <time>2015-03-04T10:30:17Z</time>
      </trkpt>
      <trkpt lat="48.45389" lon="2.42957">
        <ele>143.85</ele>
        <time>2015-03-04T10:30:37Z</time>
      </trkpt>
      <trkpt lat="48.45401" lon="2.42937">
        <ele>144.82</ele>
        <time>2015-03-04T10:30:53Z</time>
      </trkpt>
      <trkpt lat="48.45407" lon="2.42928">
        <ele>144.34</ele>
        <time>2015-03-04T10:31:06Z</time>
      </trkpt>
      <trkpt lat="48.45414" lon="2.42917">
        <ele>144.82</ele>
        <time>2015-03-04T10:31:19Z</time>
      </trkpt>
      <trkpt lat="48.4542" lon="2.42908">
        <ele>145.3</ele>
        <time>2015-03-04T10:31:32Z</time>
      </trkpt>
      <trkpt lat="48.45427" lon="2.42895">
        <ele>145.3</ele>
        <time>2015-03-04T10:31:46Z</time>
      </trkpt>
      <trkpt lat="48.45429" lon="2.42891">
        <ele>145.3</ele>
        <time>2015-03-04T10:31:49Z</time>
      </trkpt>
      <trkpt lat="48.45439" lon="2.42876">
        <ele>145.78</ele>
        <time>2015-03-04T10:32:03Z</time>
      </trkpt>
      <trkpt lat="48.45447" lon="2.42862">
        <ele>145.3</ele>
        <time>2015-03-04T10:32:16Z</time>
      </trkpt>
      <trkpt lat="48.45456" lon="2.42848">
        <ele>145.3</ele>
        <time>2015-03-04T10:32:29Z</time>
      </trkpt>
      <trkpt lat="48.45466" lon="2.42831">
        <ele>145.78</ele>
        <time>2015-03-04T10:32:45Z</time>
      </trkpt>
      <trkpt lat="48.45475" lon="2.42817">
        <ele>145.78</ele>
        <time>2015-03-04T10:32:59Z</time>
      </trkpt>
      <trkpt lat="48.45477" lon="2.42813">
        <ele>145.78</ele>
        <time>2015-03-04T10:33:03Z</time>
      </trkpt>
      <trkpt lat="48.45481" lon="2.42806">
        <ele>145.78</ele>
        <time>2015-03-04T10:33:10Z</time>
      </trkpt>
      <trkpt lat="48.45492" lon="2.42788">
        <ele>146.74</ele>
        <time>2015-03-04T10:33:27Z</time>
      </trkpt>
      <trkpt lat="48.45501" lon="2.42774">
        <ele>145.78</ele>
        <time>2015-03-04T10:33:40Z</time>
      </trkpt>
      <trkpt lat="48.4551" lon="2.42759">
        <ele>146.74</ele>
        <time>2015-03-04T10:33:54Z</time>
      </trkpt>
      <trkpt lat="48.45518" lon="2.42746">
        <ele>146.74</ele>
        <time>2015-03-04T10:34:07Z</time>
      </trkpt>
      <trkpt lat="48.45527" lon="2.42732">
        <ele>146.74</ele>
        <time>2015-03-04T10:34:21Z</time>
      </trkpt>
      <trkpt lat="48.45536" lon="2.42716">
        <ele>146.74</ele>
        <time>2015-03-04T10:34:34Z</time>
      </trkpt>
      <trkpt lat="48.4554" lon="2.4271">
        <ele>146.74</ele>
        <time>2015-03-04T10:34:39Z</time>
      </trkpt>
      <trkpt lat="48.4555" lon="2.42694">
        <ele>146.26</ele>
        <time>2015-03-04T10:34:54Z</time>
      </trkpt>
      <trkpt lat="48.45559" lon="2.42678">
        <ele>145.78</ele>
        <time>2015-03-04T10:35:08Z</time>
      </trkpt>
      <trkpt lat="48.45568" lon="2.42663">
        <ele>146.26</ele>
        <time>2015-03-04T10:35:22Z</time>
      </trkpt>
      <trkpt lat="48.45578" lon="2.42647">
        <ele>145.78</ele>
        <time>2015-03-04T10:35:35Z</time>
      </trkpt>
      <trkpt lat="48.45588" lon="2.42631">
        <ele>145.78</ele>
        <time>2015-03-04T10:35:49Z</time>
      </trkpt>
      <trkpt lat="48.45591" lon="2.42626">
        <ele>145.78</ele>
        <time>2015-03-04T10:35:54Z</time>
      </trkpt>
      <trkpt lat="48.45594" lon="2.42623">
        <ele>145.78</ele>
        <time>2015-03-04T10:35:58Z</time>
      </trkpt>
      <trkpt lat="48.45604" lon="2.42606">
        <ele>145.78</ele>
        <time>2015-03-04T10:36:14Z</time>
      </trkpt>
      <trkpt lat="48.45612" lon="2.4259">
        <ele>146.26</ele>
        <time>2015-03-04T10:36:27Z</time>
      </trkpt>
      <trkpt lat="48.45622" lon="2.42575">
        <ele>146.74</ele>
        <time>2015-03-04T10:36:41Z</time>
      </trkpt>
      <trkpt lat="48.45632" lon="2.4256">
        <ele>146.26</ele>
        <time>2015-03-04T10:36:55Z</time>
      </trkpt>
      <trkpt lat="48.45641" lon="2.42544">
        <ele>146.74</ele>
        <time>2015-03-04T10:37:10Z</time>
      </trkpt>
      <trkpt lat="48.45652" lon="2.42528">
        <ele>146.26</ele>
        <time>2015-03-04T10:37:26Z</time>
      </trkpt>
      <trkpt lat="48.45658" lon="2.42514">
        <ele>146.74</ele>
        <time>2015-03-04T10:37:38Z</time>
      </trkpt>
      <trkpt lat="48.45659" lon="2.42506">
        <ele>146.26</ele>
        <time>2015-03-04T10:37:49Z</time>
      </trkpt>
      <trkpt lat="48.45661" lon="2.42508">
        <ele>146.26</ele>
        <time>2015-03-04T10:38:00Z</time>
      </trkpt>
      <trkpt lat="48.45665" lon="2.42514">
        <ele>146.26</ele>
        <time>2015-03-04T10:38:13Z</time>
      </trkpt>
      <trkpt lat="48.45668" lon="2.42516">
        <ele>146.26</ele>
        <time>2015-03-04T10:38:31Z</time>
      </trkpt>
      <trkpt lat="48.45668" lon="2.42516">
        <ele>146.26</ele>
        <time>2015-03-04T10:38:35Z</time>
      </trkpt>
      <trkpt lat="48.45677" lon="2.42538">
        <ele>146.26</ele>
        <time>2015-03-04T10:38:52Z</time>
      </trkpt>
      <trkpt lat="48.45679" lon="2.4254">
        <ele>146.26</ele>
        <time>2015-03-04T10:39:06Z</time>
      </trkpt>
      <trkpt lat="48.45687" lon="2.42558">
        <ele>146.26</ele>
        <time>2015-03-04T10:39:19Z</time>
      </trkpt>
      <trkpt lat="48.45701" lon="2.42587">
        <ele>146.26</ele>
        <time>2015-03-04T10:39:38Z</time>
      </trkpt>
      <trkpt lat="48.45718" lon="2.42618">
        <ele>146.26</ele>
        <time>2015-03-04T10:39:59Z</time>
      </trkpt>
      <trkpt lat="48.45734" lon="2.42646">
        <ele>145.78</ele>
        <time>2015-03-04T10:40:18Z</time>
      </trkpt>
      <trkpt lat="48.45749" lon="2.42676">
        <ele>145.3</ele>
        <time>2015-03-04T10:40:38Z</time>
      </trkpt>
      <trkpt lat="48.45764" lon="2.42706">
        <ele>145.3</ele>
        <time>2015-03-04T10:40:58Z</time>
      </trkpt>
      <trkpt lat="48.45778" lon="2.42735">
        <ele>144.34</ele>
        <time>2015-03-04T10:41:16Z</time>
      </trkpt>
      <trkpt lat="48.4579" lon="2.42767">
        <ele>143.85</ele>
        <time>2015-03-04T10:41:36Z</time>
      </trkpt>
      <trkpt lat="48.45803" lon="2.42804">
        <ele>143.85</ele>
        <time>2015-03-04T10:41:57Z</time>
      </trkpt>
      <trkpt lat="48.45815" lon="2.42841">
        <ele>142.89</ele>
        <time>2015-03-04T10:42:18Z</time>
      </trkpt>
      <trkpt lat="48.45827" lon="2.42878">
        <ele>141.93</ele>
        <time>2015-03-04T10:42:40Z</time>
      </trkpt>
      <trkpt lat="48.45836" lon="2.42912">
        <ele>140.49</ele>
        <time>2015-03-04T10:42:59Z</time>
      </trkpt>
      <trkpt lat="48.45845" lon="2.42937">
        <ele>139.53</ele>
        <time>2015-03-04T10:43:15Z</time>
      </trkpt>
      <trkpt lat="48.45854" lon="2.42965">
        <ele>137.61</ele>
        <time>2015-03-04T10:43:31Z</time>
      </trkpt>
      <trkpt lat="48.45864" lon="2.42996">
        <ele>136.16</ele>
        <time>2015-03-04T10:43:49Z</time>
      </trkpt>
      <trkpt lat="48.45872" lon="2.43019">
        <ele>134.72</ele>
        <time>2015-03-04T10:44:03Z</time>
      </trkpt>
      <trkpt lat="48.45884" lon="2.43046">
        <ele>132.32</ele>
        <time>2015-03-04T10:44:20Z</time>
      </trkpt>
      <trkpt lat="48.45899" lon="2.4307">
        <ele>130.88</ele>
        <time>2015-03-04T10:44:39Z</time>
      </trkpt>
      <trkpt lat="48.45915" lon="2.43088">
        <ele>130.88</ele>
        <time>2015-03-04T10:44:55Z</time>
      </trkpt>
      <trkpt lat="48.45924" lon="2.43099">
        <ele>129.92</ele>
        <time>2015-03-04T10:45:05Z</time>
      </trkpt>
      <trkpt lat="48.45932" lon="2.43108">
        <ele>129.92</ele>
        <time>2015-03-04T10:45:13Z</time>
      </trkpt>
      <trkpt lat="48.45946" lon="2.43126">
        <ele>128.47</ele>
        <time>2015-03-04T10:45:29Z</time>
      </trkpt>
      <trkpt lat="48.45947" lon="2.43128">
        <ele>128.47</ele>
        <time>2015-03-04T10:45:30Z</time>
      </trkpt>
      <trkpt lat="48.45962" lon="2.43143">
        <ele>126.55</ele>
        <time>2015-03-04T10:45:45Z</time>
      </trkpt>
      <trkpt lat="48.45967" lon="2.4315">
        <ele>126.07</ele>
        <time>2015-03-04T10:45:51Z</time>
      </trkpt>
      <trkpt lat="48.45982" lon="2.43169">
        <ele>124.63</ele>
        <time>2015-03-04T10:46:08Z</time>
      </trkpt>
      <trkpt lat="48.45998" lon="2.43186">
        <ele>122.71</ele>
        <time>2015-03-04T10:46:25Z</time>
      </trkpt>
      <trkpt lat="48.46013" lon="2.43204">
        <ele>120.78</ele>
        <time>2015-03-04T10:46:43Z</time>
      </trkpt>
      <trkpt lat="48.46028" lon="2.43223">
        <ele>118.86</ele>
        <time>2015-03-04T10:47:01Z</time>
      </trkpt>
      <trkpt lat="48.46041" lon="2.43241">
        <ele>116.94</ele>
        <time>2015-03-04T10:47:16Z</time>
      </trkpt>
      <trkpt lat="48.46053" lon="2.43256">
        <ele>115.5</ele>
        <time>2015-03-04T10:47:30Z</time>
      </trkpt>
      <trkpt lat="48.46066" lon="2.43272">
        <ele>113.57</ele>
        <time>2015-03-04T10:47:44Z</time>
      </trkpt>
      <trkpt lat="48.46073" lon="2.43281">
        <ele>112.61</ele>
        <time>2015-03-04T10:47:53Z</time>
      </trkpt>
      <trkpt lat="48.46076" lon="2.43293">
        <ele>111.65</ele>
        <time>2015-03-04T10:48:00Z</time>
      </trkpt>
      <trkpt lat="48.46093" lon="2.43313">
        <ele>110.21</ele>
        <time>2015-03-04T10:48:17Z</time>
      </trkpt>
      <trkpt lat="48.46097" lon="2.4332">
        <ele>109.73</ele>
        <time>2015-03-04T10:48:22Z</time>
      </trkpt>
      <trkpt lat="48.46116" lon="2.43332">
        <ele>108.29</ele>
        <time>2015-03-04T10:48:39Z</time>
      </trkpt>
      <trkpt lat="48.46125" lon="2.43334">
        <ele>107.32</ele>
        <time>2015-03-04T10:48:47Z</time>
      </trkpt>
      <trkpt lat="48.46145" lon="2.43332">
        <ele>105.4</ele>
        <time>2015-03-04T10:49:04Z</time>
      </trkpt>
      <trkpt lat="48.46162" lon="2.43334">
        <ele>103.96</ele>
        <time>2015-03-04T10:49:20Z</time>
      </trkpt>
      <trkpt lat="48.46176" lon="2.43339">
        <ele>102.04</ele>
        <time>2015-03-04T10:49:35Z</time>
      </trkpt>
      <trkpt lat="48.46193" lon="2.43346">
        <ele>100.6</ele>
        <time>2015-03-04T10:49:51Z</time>
      </trkpt>
      <trkpt lat="48.46213" lon="2.43359">
        <ele>98.67</ele>
        <time>2015-03-04T10:50:10Z</time>
      </trkpt>
      <trkpt lat="48.46234" lon="2.43372">
        <ele>97.23</ele>
        <time>2015-03-04T10:50:27Z</time>
      </trkpt>
      <trkpt lat="48.46251" lon="2.43384">
        <ele>95.79</ele>
        <time>2015-03-04T10:50:44Z</time>
      </trkpt>
      <trkpt lat="48.46267" lon="2.43402">
        <ele>94.83</ele>
        <time>2015-03-04T10:51:02Z</time>
      </trkpt>
      <trkpt lat="48.46284" lon="2.43419">
        <ele>93.39</ele>
        <time>2015-03-04T10:51:19Z</time>
      </trkpt>
      <trkpt lat="48.46299" lon="2.43434">
        <ele>92.9</ele>
        <time>2015-03-04T10:51:36Z</time>
      </trkpt>
      <trkpt lat="48.46316" lon="2.43454">
        <ele>91.94</ele>
        <time>2015-03-04T10:51:52Z</time>
      </trkpt>
      <trkpt lat="48.46334" lon="2.43473">
        <ele>90.98</ele>
        <time>2015-03-04T10:52:10Z</time>
      </trkpt>
      <trkpt lat="48.46351" lon="2.43493">
        <ele>90.5</ele>
        <time>2015-03-04T10:52:28Z</time>
      </trkpt>
      <trkpt lat="48.46366" lon="2.4351">
        <ele>90.02</ele>
        <time>2015-03-04T10:52:43Z</time>
      </trkpt>
      <trkpt lat="48.46385" lon="2.43524">
        <ele>89.06</ele>
        <time>2015-03-04T10:53:00Z</time>
      </trkpt>
      <trkpt lat="48.46403" lon="2.43536">
        <ele>88.58</ele>
        <time>2015-03-04T10:53:17Z</time>
      </trkpt>
      <trkpt lat="48.46409" lon="2.43557">
        <ele>88.58</ele>
        <time>2015-03-04T10:53:34Z</time>
      </trkpt>
      <trkpt lat="48.46408" lon="2.4358">
        <ele>88.58</ele>
        <time>2015-03-04T10:53:51Z</time>
      </trkpt>
      <trkpt lat="48.46408" lon="2.43607">
        <ele>88.58</ele>
        <time>2015-03-04T10:54:08Z</time>
      </trkpt>
      <trkpt lat="48.46409" lon="2.43631">
        <ele>88.58</ele>
        <time>2015-03-04T10:54:24Z</time>
      </trkpt>
      <trkpt lat="48.46409" lon="2.43634">
        <ele>88.58</ele>
        <time>2015-03-04T10:54:26Z</time>
      </trkpt>
      <trkpt lat="48.46406" lon="2.43661">
        <ele>88.58</ele>
        <time>2015-03-04T10:54:44Z</time>
      </trkpt>
      <trkpt lat="48.46407" lon="2.43687">
        <ele>89.06</ele>
        <time>2015-03-04T10:54:59Z</time>
      </trkpt>
      <trkpt lat="48.46413" lon="2.43689">
        <ele>89.06</ele>
        <time>2015-03-04T10:55:10Z</time>
      </trkpt>
      <trkpt lat="48.46418" lon="2.43693">
        <ele>88.58</ele>
        <time>2015-03-04T10:55:15Z</time>
      </trkpt>
      <trkpt lat="48.46436" lon="2.437">
        <ele>87.62</ele>
        <time>2015-03-04T10:55:31Z</time>
      </trkpt>
      <trkpt lat="48.46454" lon="2.43706">
        <ele>87.14</ele>
        <time>2015-03-04T10:55:47Z</time>
      </trkpt>
      <trkpt lat="48.4647" lon="2.43714">
        <ele>87.14</ele>
        <time>2015-03-04T10:56:02Z</time>
      </trkpt>
      <trkpt lat="48.46483" lon="2.43719">
        <ele>87.14</ele>
        <time>2015-03-04T10:56:14Z</time>
      </trkpt>
      <trkpt lat="48.46491" lon="2.43723">
        <ele>87.14</ele>
        <time>2015-03-04T10:56:22Z</time>
      </trkpt>
      <trkpt lat="48.46506" lon="2.43729">
        <ele>87.14</ele>
        <time>2015-03-04T10:56:38Z</time>
      </trkpt>
      <trkpt lat="48.46517" lon="2.43732">
        <ele>86.66</ele>
        <time>2015-03-04T10:56:51Z</time>
      </trkpt>
      <trkpt lat="48.46524" lon="2.43735">
        <ele>86.66</ele>
        <time>2015-03-04T10:56:58Z</time>
      </trkpt>
      <trkpt lat="48.46526" lon="2.43737">
        <ele>87.14</ele>
        <time>2015-03-04T10:57:00Z</time>
      </trkpt>
      <trkpt lat="48.46541" lon="2.43746">
        <ele>87.14</ele>
        <time>2015-03-04T10:57:16Z</time>
      </trkpt>
      <trkpt lat="48.46552" lon="2.43749">
        <ele>87.62</ele>
        <time>2015-03-04T10:57:31Z</time>
      </trkpt>
      <trkpt lat="48.46554" lon="2.43749">
        <ele>87.62</ele>
        <time>2015-03-04T10:57:35Z</time>
      </trkpt>
      <trkpt lat="48.46556" lon="2.43749">
        <ele>87.62</ele>
        <time>2015-03-04T10:57:37Z</time>
      </trkpt>
      <trkpt lat="48.46558" lon="2.4375">
        <ele>88.1</ele>
        <time>2015-03-04T10:57:39Z</time>
      </trkpt>
      <trkpt lat="48.46561" lon="2.43751">
        <ele>88.1</ele>
        <time>2015-03-04T10:57:43Z</time>
      </trkpt>
      <trkpt lat="48.46569" lon="2.43754">
        <ele>88.58</ele>
        <time>2015-03-04T10:57:51Z</time>
      </trkpt>
      <trkpt lat="48.46576" lon="2.43757">
        <ele>88.58</ele>
        <time>2015-03-04T10:57:58Z</time>
      </trkpt>
      <trkpt lat="48.46594" lon="2.43761">
        <ele>89.06</ele>
        <time>2015-03-04T10:58:15Z</time>
      </trkpt>
      <trkpt lat="48.46607" lon="2.43767">
        <ele>90.02</ele>
        <time>2015-03-04T10:58:30Z</time>
      </trkpt>
      <trkpt lat="48.46622" lon="2.43775">
        <ele>90.02</ele>
        <time>2015-03-04T10:58:46Z</time>
      </trkpt>
      <trkpt lat="48.46626" lon="2.43776">
        <ele>90.5</ele>
        <time>2015-03-04T10:58:50Z</time>
      </trkpt>
      <trkpt lat="48.46628" lon="2.43775">
        <ele>90.5</ele>
        <time>2015-03-04T10:58:56Z</time>
      </trkpt>
      <trkpt lat="48.46645" lon="2.43782">
        <ele>89.54</ele>
        <time>2015-03-04T10:59:12Z</time>
      </trkpt>
      <trkpt lat="48.46647" lon="2.43783">
        <ele>89.54</ele>
        <time>2015-03-04T10:59:13Z</time>
      </trkpt>
      <trkpt lat="48.4665" lon="2.43785">
        <ele>89.54</ele>
        <time>2015-03-04T10:59:17Z</time>
      </trkpt>
      <trkpt lat="48.46665" lon="2.43791">
        <ele>88.58</ele>
        <time>2015-03-04T10:59:32Z</time>
      </trkpt>
      <trkpt lat="48.4667" lon="2.43793">
        <ele>89.06</ele>
        <time>2015-03-04T10:59:36Z</time>
      </trkpt>
      <trkpt lat="48.46687" lon="2.43795">
        <ele>88.1</ele>
        <time>2015-03-04T10:59:52Z</time>
      </trkpt>
      <trkpt lat="48.4669" lon="2.43798">
        <ele>88.1</ele>
        <time>2015-03-04T10:59:56Z</time>
      </trkpt>
      <trkpt lat="48.467" lon="2.43807">
        <ele>88.1</ele>
        <time>2015-03-04T11:00:10Z</time>
      </trkpt>
      <trkpt lat="48.46699" lon="2.43816">
        <ele>88.1</ele>
        <time>2015-03-04T11:00:16Z</time>
      </trkpt>
      <trkpt lat="48.46695" lon="2.43831">
        <ele>88.58</ele>
        <time>2015-03-04T11:00:27Z</time>
      </trkpt>
      <trkpt lat="48.46705" lon="2.43843">
        <ele>89.06</ele>
        <time>2015-03-04T11:00:40Z</time>
      </trkpt>
      <trkpt lat="48.4672" lon="2.4385">
        <ele>90.5</ele>
        <time>2015-03-04T11:00:56Z</time>
      </trkpt>
      <trkpt lat="48.46735" lon="2.43862">
        <ele>91.94</ele>
        <time>2015-03-04T11:01:12Z</time>
      </trkpt>
      <trkpt lat="48.46745" lon="2.43874">
        <ele>94.35</ele>
        <time>2015-03-04T11:01:27Z</time>
      </trkpt>
      <trkpt lat="48.46754" lon="2.43887">
        <ele>96.27</ele>
        <time>2015-03-04T11:01:43Z</time>
      </trkpt>
      <trkpt lat="48.46763" lon="2.43898">
        <ele>98.19</ele>
        <time>2015-03-04T11:02:00Z</time>
      </trkpt>
      <trkpt lat="48.46767" lon="2.43903">
        <ele>99.15</ele>
        <time>2015-03-04T11:02:16Z</time>
      </trkpt>
      <trkpt lat="48.46776" lon="2.43912">
        <ele>100.6</ele>
        <time>2015-03-04T11:02:31Z</time>
      </trkpt>
      <trkpt lat="48.46784" lon="2.43921">
        <ele>102.04</ele>
        <time>2015-03-04T11:02:44Z</time>
      </trkpt>
      <trkpt lat="48.46791" lon="2.43932">
        <ele>104.44</ele>
        <time>2015-03-04T11:03:01Z</time>
      </trkpt>
      <trkpt lat="48.46802" lon="2.43942">
        <ele>106.36</ele>
        <time>2015-03-04T11:03:16Z</time>
      </trkpt>
      <trkpt lat="48.46812" lon="2.43951">
        <ele>108.77</ele>
        <time>2015-03-04T11:03:32Z</time>
      </trkpt>
      <trkpt lat="48.46824" lon="2.43958">
        <ele>110.69</ele>
        <time>2015-03-04T11:03:47Z</time>
      </trkpt>
      <trkpt lat="48.46832" lon="2.43955">
        <ele>112.13</ele>
        <time>2015-03-04T11:04:02Z</time>
      </trkpt>
      <trkpt lat="48.46837" lon="2.43955">
        <ele>114.05</ele>
        <time>2015-03-04T11:04:16Z</time>
      </trkpt>
      <trkpt lat="48.46846" lon="2.43956">
        <ele>115.98</ele>
        <time>2015-03-04T11:04:29Z</time>
      </trkpt>
      <trkpt lat="48.46855" lon="2.4396">
        <ele>117.42</ele>
        <time>2015-03-04T11:04:44Z</time>
      </trkpt>
      <trkpt lat="48.46862" lon="2.43964">
        <ele>119.34</ele>
        <time>2015-03-04T11:04:58Z</time>
      </trkpt>
      <trkpt lat="48.46868" lon="2.43977">
        <ele>121.74</ele>
        <time>2015-03-04T11:05:13Z</time>
      </trkpt>
      <trkpt lat="48.46871" lon="2.43987">
        <ele>124.15</ele>
        <time>2015-03-04T11:05:30Z</time>
      </trkpt>
      <trkpt lat="48.46869" lon="2.43995">
        <ele>126.07</ele>
        <time>2015-03-04T11:05:43Z</time>
      </trkpt>
      <trkpt lat="48.46868" lon="2.44008">
        <ele>128.47</ele>
        <time>2015-03-04T11:05:58Z</time>
      </trkpt>
      <trkpt lat="48.46875" lon="2.44019">
        <ele>130.4</ele>
        <time>2015-03-04T11:06:13Z</time>
      </trkpt>
      <trkpt lat="48.46878" lon="2.44034">
        <ele>131.36</ele>
        <time>2015-03-04T11:06:28Z</time>
      </trkpt>
      <trkpt lat="48.46877" lon="2.44036">
        <ele>131.84</ele>
        <time>2015-03-04T11:06:32Z</time>
      </trkpt>
      <trkpt lat="48.46874" lon="2.44047">
        <ele>133.76</ele>
        <time>2015-03-04T11:06:45Z</time>
      </trkpt>
      <trkpt lat="48.46873" lon="2.44057">
        <ele>135.2</ele>
        <time>2015-03-04T11:06:58Z</time>
      </trkpt>
      <trkpt lat="48.46885" lon="2.44069">
        <ele>136.16</ele>
        <time>2015-03-04T11:07:14Z</time>
      </trkpt>
      <trkpt lat="48.46891" lon="2.44073">
        <ele>135.68</ele>
        <time>2015-03-04T11:07:29Z</time>
      </trkpt>
      <trkpt lat="48.46888" lon="2.44068">
        <ele>135.68</ele>
        <time>2015-03-04T11:08:00Z</time>
      </trkpt>
      <trkpt lat="48.4689" lon="2.44066">
        <ele>135.68</ele>
        <time>2015-03-04T11:08:19Z</time>
      </trkpt>
      <trkpt lat="48.46891" lon="2.44069">
        <ele>137.13</ele>
        <time>2015-03-04T11:08:38Z</time>
      </trkpt>
      <trkpt lat="48.46896" lon="2.44073">
        <ele>137.13</ele>
        <time>2015-03-04T11:08:58Z</time>
      </trkpt>
      <trkpt lat="48.46898" lon="2.44072">
        <ele>137.13</ele>
        <time>2015-03-04T11:09:17Z</time>
      </trkpt>
      <trkpt lat="48.46902" lon="2.44068">
        <ele>137.61</ele>
        <time>2015-03-04T11:09:23Z</time>
      </trkpt>
      <trkpt lat="48.46912" lon="2.44068">
        <ele>138.09</ele>
        <time>2015-03-04T11:09:41Z</time>
      </trkpt>
      <trkpt lat="48.46917" lon="2.44077">
        <ele>138.09</ele>
        <time>2015-03-04T11:09:56Z</time>
      </trkpt>
      <trkpt lat="48.46922" lon="2.44083">
        <ele>138.09</ele>
        <time>2015-03-04T11:10:10Z</time>
      </trkpt>
      <trkpt lat="48.4692" lon="2.44084">
        <ele>138.57</ele>
        <time>2015-03-04T11:10:22Z</time>
      </trkpt>
      <trkpt lat="48.46916" lon="2.44091">
        <ele>138.09</ele>
        <time>2015-03-04T11:10:37Z</time>
      </trkpt>
      <trkpt lat="48.46915" lon="2.44104">
        <ele>138.09</ele>
        <time>2015-03-04T11:10:53Z</time>
      </trkpt>
      <trkpt lat="48.46914" lon="2.44115">
        <ele>138.09</ele>
        <time>2015-03-04T11:11:08Z</time>
      </trkpt>
      <trkpt lat="48.46912" lon="2.44128">
        <ele>138.09</ele>
        <time>2015-03-04T11:11:21Z</time>
      </trkpt>
      <trkpt lat="48.46914" lon="2.44148">
        <ele>138.09</ele>
        <time>2015-03-04T11:11:36Z</time>
      </trkpt>
      <trkpt lat="48.46921" lon="2.44165">
        <ele>138.09</ele>
        <time>2015-03-04T11:11:52Z</time>
      </trkpt>
      <trkpt lat="48.46927" lon="2.44172">
        <ele>138.09</ele>
        <time>2015-03-04T11:12:05Z</time>
      </trkpt>
      <trkpt lat="48.46941" lon="2.44187">
        <ele>138.57</ele>
        <time>2015-03-04T11:12:18Z</time>
      </trkpt>
      <trkpt lat="48.46956" lon="2.44189">
        <ele>138.57</ele>
        <time>2015-03-04T11:12:32Z</time>
      </trkpt>
      <trkpt lat="48.46959" lon="2.44192">
        <ele>138.57</ele>
        <time>2015-03-04T11:12:37Z</time>
      </trkpt>
      <trkpt lat="48.4697" lon="2.44207">
        <ele>138.09</ele>
        <time>2015-03-04T11:12:55Z</time>
      </trkpt>
      <trkpt lat="48.4698" lon="2.44216">
        <ele>138.57</ele>
        <time>2015-03-04T11:13:10Z</time>
      </trkpt>
      <trkpt lat="48.46985" lon="2.4422">
        <ele>138.57</ele>
        <time>2015-03-04T11:13:21Z</time>
      </trkpt>
      <trkpt lat="48.46998" lon="2.44237">
        <ele>139.05</ele>
        <time>2015-03-04T11:13:36Z</time>
      </trkpt>
      <trkpt lat="48.47005" lon="2.44248">
        <ele>139.53</ele>
        <time>2015-03-04T11:13:49Z</time>
      </trkpt>
      <trkpt lat="48.47009" lon="2.44251">
        <ele>139.53</ele>
        <time>2015-03-04T11:13:53Z</time>
      </trkpt>
      <trkpt lat="48.47021" lon="2.44254">
        <ele>139.05</ele>
        <time>2015-03-04T11:14:09Z</time>
      </trkpt>
      <trkpt lat="48.47027" lon="2.44239">
        <ele>139.53</ele>
        <time>2015-03-04T11:14:24Z</time>
      </trkpt>
      <trkpt lat="48.47043" lon="2.44229">
        <ele>139.53</ele>
        <time>2015-03-04T11:14:40Z</time>
      </trkpt>
      <trkpt lat="48.47061" lon="2.44232">
        <ele>140.01</ele>
        <time>2015-03-04T11:14:55Z</time>
      </trkpt>
      <trkpt lat="48.47078" lon="2.44237">
        <ele>139.53</ele>
        <time>2015-03-04T11:15:11Z</time>
      </trkpt>
      <trkpt lat="48.47095" lon="2.44246">
        <ele>139.53</ele>
        <time>2015-03-04T11:15:25Z</time>
      </trkpt>
      <trkpt lat="48.47112" lon="2.44253">
        <ele>139.05</ele>
        <time>2015-03-04T11:15:40Z</time>
      </trkpt>
      <trkpt lat="48.47128" lon="2.44261">
        <ele>138.57</ele>
        <time>2015-03-04T11:15:56Z</time>
      </trkpt>
      <trkpt lat="48.47142" lon="2.44267">
        <ele>138.09</ele>
        <time>2015-03-04T11:16:12Z</time>
      </trkpt>
      <trkpt lat="48.47156" lon="2.44271">
        <ele>137.61</ele>
        <time>2015-03-04T11:16:26Z</time>
      </trkpt>
      <trkpt lat="48.47169" lon="2.44276">
        <ele>137.61</ele>
        <time>2015-03-04T11:16:38Z</time>
      </trkpt>
      <trkpt lat="48.47189" lon="2.44286">
        <ele>137.61</ele>
        <time>2015-03-04T11:16:55Z</time>
      </trkpt>
      <trkpt lat="48.47209" lon="2.44293">
        <ele>137.61</ele>
        <time>2015-03-04T11:17:11Z</time>
      </trkpt>
      <trkpt lat="48.4721" lon="2.44294">
        <ele>137.61</ele>
        <time>2015-03-04T11:17:12Z</time>
      </trkpt>
      <trkpt lat="48.47227" lon="2.44301">
        <ele>138.57</ele>
        <time>2015-03-04T11:17:28Z</time>
      </trkpt>
      <trkpt lat="48.47244" lon="2.44315">
        <ele>138.09</ele>
        <time>2015-03-04T11:17:41Z</time>
      </trkpt>
      <trkpt lat="48.4726" lon="2.44329">
        <ele>139.05</ele>
        <time>2015-03-04T11:17:57Z</time>
      </trkpt>
      <trkpt lat="48.47277" lon="2.4434">
        <ele>139.53</ele>
        <time>2015-03-04T11:18:13Z</time>
      </trkpt>
      <trkpt lat="48.47293" lon="2.44352">
        <ele>140.01</ele>
        <time>2015-03-04T11:18:29Z</time>
      </trkpt>
      <trkpt lat="48.47312" lon="2.44364">
        <ele>140.01</ele>
        <time>2015-03-04T11:18:47Z</time>
      </trkpt>
      <trkpt lat="48.4733" lon="2.44377">
        <ele>140.49</ele>
        <time>2015-03-04T11:19:05Z</time>
      </trkpt>
      <trkpt lat="48.47347" lon="2.44389">
        <ele>141.45</ele>
        <time>2015-03-04T11:19:21Z</time>
      </trkpt>
      <trkpt lat="48.47364" lon="2.44401">
        <ele>141.45</ele>
        <time>2015-03-04T11:19:38Z</time>
      </trkpt>
      <trkpt lat="48.47382" lon="2.44414">
        <ele>141.93</ele>
        <time>2015-03-04T11:19:55Z</time>
      </trkpt>
      <trkpt lat="48.47399" lon="2.44426">
        <ele>142.41</ele>
        <time>2015-03-04T11:20:12Z</time>
      </trkpt>
      <trkpt lat="48.47415" lon="2.44438">
        <ele>142.89</ele>
        <time>2015-03-04T11:20:28Z</time>
      </trkpt>
      <trkpt lat="48.47418" lon="2.4444">
        <ele>142.89</ele>
        <time>2015-03-04T11:20:30Z</time>
      </trkpt>
      <trkpt lat="48.47434" lon="2.44451">
        <ele>143.37</ele>
        <time>2015-03-04T11:20:45Z</time>
      </trkpt>
      <trkpt lat="48.47452" lon="2.44464">
        <ele>143.37</ele>
        <time>2015-03-04T11:21:03Z</time>
      </trkpt>
      <trkpt lat="48.47454" lon="2.44465">
        <ele>143.37</ele>
        <time>2015-03-04T11:21:05Z</time>
      </trkpt>
      <trkpt lat="48.47467" lon="2.44474">
        <ele>143.85</ele>
        <time>2015-03-04T11:21:19Z</time>
      </trkpt>
      <trkpt lat="48.47483" lon="2.44479">
        <ele>143.85</ele>
        <time>2015-03-04T11:21:34Z</time>
      </trkpt>
      <trkpt lat="48.475" lon="2.4448">
        <ele>144.34</ele>
        <time>2015-03-04T11:21:49Z</time>
      </trkpt>
      <trkpt lat="48.47517" lon="2.44477">
        <ele>144.82</ele>
        <time>2015-03-04T11:22:04Z</time>
      </trkpt>
      <trkpt lat="48.47529" lon="2.44477">
        <ele>144.82</ele>
        <time>2015-03-04T11:22:19Z</time>
      </trkpt>
      <trkpt lat="48.47536" lon="2.44476">
        <ele>145.3</ele>
        <time>2015-03-04T11:22:32Z</time>
      </trkpt>
      <trkpt lat="48.47537" lon="2.44476">
        <ele>145.3</ele>
        <time>2015-03-04T11:22:36Z</time>
      </trkpt>
      <trkpt lat="48.47538" lon="2.44479">
        <ele>145.3</ele>
        <time>2015-03-04T11:22:38Z</time>
      </trkpt>
      <trkpt lat="48.47541" lon="2.44485">
        <ele>145.3</ele>
        <time>2015-03-04T11:22:44Z</time>
      </trkpt>
      <trkpt lat="48.47542" lon="2.44516">
        <ele>144.82</ele>
        <time>2015-03-04T11:23:03Z</time>
      </trkpt>
      <trkpt lat="48.47542" lon="2.44542">
        <ele>144.34</ele>
        <time>2015-03-04T11:23:18Z</time>
      </trkpt>
      <trkpt lat="48.47545" lon="2.44572">
        <ele>144.34</ele>
        <time>2015-03-04T11:23:36Z</time>
      </trkpt>
      <trkpt lat="48.47548" lon="2.44599">
        <ele>143.85</ele>
        <time>2015-03-04T11:23:54Z</time>
      </trkpt>
      <trkpt lat="48.47548" lon="2.44599">
        <ele>143.85</ele>
        <time>2015-03-04T11:23:58Z</time>
      </trkpt>
      <trkpt lat="48.47556" lon="2.44608">
        <ele>144.34</ele>
        <time>2015-03-04T11:24:06Z</time>
      </trkpt>
      <trkpt lat="48.47578" lon="2.44613">
        <ele>144.34</ele>
        <time>2015-03-04T11:24:25Z</time>
      </trkpt>
      <trkpt lat="48.47596" lon="2.44614">
        <ele>144.34</ele>
        <time>2015-03-04T11:24:40Z</time>
      </trkpt>
      <trkpt lat="48.47614" lon="2.44616">
        <ele>144.34</ele>
        <time>2015-03-04T11:24:56Z</time>
      </trkpt>
      <trkpt lat="48.4763" lon="2.44616">
        <ele>145.3</ele>
        <time>2015-03-04T11:25:10Z</time>
      </trkpt>
      <trkpt lat="48.47635" lon="2.44617">
        <ele>145.3</ele>
        <time>2015-03-04T11:25:14Z</time>
      </trkpt>
      <trkpt lat="48.47656" lon="2.44619">
        <ele>144.82</ele>
        <time>2015-03-04T11:25:32Z</time>
      </trkpt>
      <trkpt lat="48.47675" lon="2.44619">
        <ele>145.3</ele>
        <time>2015-03-04T11:25:48Z</time>
      </trkpt>
      <trkpt lat="48.47679" lon="2.44621">
        <ele>145.3</ele>
        <time>2015-03-04T11:25:51Z</time>
      </trkpt>
      <trkpt lat="48.47687" lon="2.44619">
        <ele>144.82</ele>
        <time>2015-03-04T11:25:58Z</time>
      </trkpt>
      <trkpt lat="48.47702" lon="2.4462">
        <ele>145.3</ele>
        <time>2015-03-04T11:26:11Z</time>
      </trkpt>
      <trkpt lat="48.47708" lon="2.4462">
        <ele>144.82</ele>
        <time>2015-03-04T11:26:16Z</time>
      </trkpt>
      <trkpt lat="48.47711" lon="2.4462">
        <ele>144.82</ele>
        <time>2015-03-04T11:26:19Z</time>
      </trkpt>
      <trkpt lat="48.4773" lon="2.44621">
        <ele>144.34</ele>
        <time>2015-03-04T11:26:35Z</time>
      </trkpt>
      <trkpt lat="48.47748" lon="2.44622">
        <ele>144.82</ele>
        <time>2015-03-04T11:26:50Z</time>
      </trkpt>
      <trkpt lat="48.47765" lon="2.44625">
        <ele>143.85</ele>
        <time>2015-03-04T11:27:05Z</time>
      </trkpt>
      <trkpt lat="48.47784" lon="2.44629">
        <ele>143.37</ele>
        <time>2015-03-04T11:27:21Z</time>
      </trkpt>
      <trkpt lat="48.47801" lon="2.44635">
        <ele>142.89</ele>
        <time>2015-03-04T11:27:38Z</time>
      </trkpt>
      <trkpt lat="48.47819" lon="2.44637">
        <ele>142.89</ele>
        <time>2015-03-04T11:27:52Z</time>
      </trkpt>
      <trkpt lat="48.47828" lon="2.4464">
        <ele>142.89</ele>
        <time>2015-03-04T11:28:00Z</time>
      </trkpt>
      <trkpt lat="48.47847" lon="2.44645">
        <ele>143.85</ele>
        <time>2015-03-04T11:28:17Z</time>
      </trkpt>
      <trkpt lat="48.47867" lon="2.4465">
        <ele>143.37</ele>
        <time>2015-03-04T11:28:34Z</time>
      </trkpt>
      <trkpt lat="48.47883" lon="2.44653">
        <ele>143.85</ele>
        <time>2015-03-04T11:28:48Z</time>
      </trkpt>
      <trkpt lat="48.479" lon="2.44657">
        <ele>143.85</ele>
        <time>2015-03-04T11:29:04Z</time>
      </trkpt>
      <trkpt lat="48.47916" lon="2.4466">
        <ele>143.85</ele>
        <time>2015-03-04T11:29:19Z</time>
      </trkpt>
      <trkpt lat="48.47935" lon="2.44667">
        <ele>144.34</ele>
        <time>2015-03-04T11:29:36Z</time>
      </trkpt>
      <trkpt lat="48.47954" lon="2.44672">
        <ele>145.3</ele>
        <time>2015-03-04T11:29:53Z</time>
      </trkpt>
      <trkpt lat="48.47973" lon="2.44676">
        <ele>145.3</ele>
        <time>2015-03-04T11:30:09Z</time>
      </trkpt>
      <trkpt lat="48.47992" lon="2.44682">
        <ele>146.26</ele>
        <time>2015-03-04T11:30:26Z</time>
      </trkpt>
      <trkpt lat="48.48008" lon="2.44686">
        <ele>146.26</ele>
        <time>2015-03-04T11:30:41Z</time>
      </trkpt>
      <trkpt lat="48.48022" lon="2.4469">
        <ele>146.74</ele>
        <time>2015-03-04T11:30:55Z</time>
      </trkpt>
      <trkpt lat="48.48032" lon="2.44695">
        <ele>147.7</ele>
        <time>2015-03-04T11:31:06Z</time>
      </trkpt>
      <trkpt lat="48.4805" lon="2.44707">
        <ele>147.7</ele>
        <time>2015-03-04T11:31:24Z</time>
      </trkpt>
      <trkpt lat="48.48067" lon="2.4472">
        <ele>148.18</ele>
        <time>2015-03-04T11:31:41Z</time>
      </trkpt>
      <trkpt lat="48.48085" lon="2.44734">
        <ele>148.18</ele>
        <time>2015-03-04T11:31:58Z</time>
      </trkpt>
      <trkpt lat="48.481" lon="2.44746">
        <ele>148.66</ele>
        <time>2015-03-04T11:32:13Z</time>
      </trkpt>
      <trkpt lat="48.48106" lon="2.4475">
        <ele>149.14</ele>
        <time>2015-03-04T11:32:18Z</time>
      </trkpt>
      <trkpt lat="48.4811" lon="2.44753">
        <ele>149.14</ele>
        <time>2015-03-04T11:32:22Z</time>
      </trkpt>
      <trkpt lat="48.4813" lon="2.44767">
        <ele>150.1</ele>
        <time>2015-03-04T11:32:41Z</time>
      </trkpt>
      <trkpt lat="48.48146" lon="2.44779">
        <ele>150.58</ele>
        <time>2015-03-04T11:32:56Z</time>
      </trkpt>
      <trkpt lat="48.48165" lon="2.44794">
        <ele>150.1</ele>
        <time>2015-03-04T11:33:15Z</time>
      </trkpt>
      <trkpt lat="48.48182" lon="2.44808">
        <ele>150.1</ele>
        <time>2015-03-04T11:33:32Z</time>
      </trkpt>
      <trkpt lat="48.48201" lon="2.44821">
        <ele>150.58</ele>
        <time>2015-03-04T11:33:49Z</time>
      </trkpt>
      <trkpt lat="48.48221" lon="2.44836">
        <ele>150.1</ele>
        <time>2015-03-04T11:34:08Z</time>
      </trkpt>
      <trkpt lat="48.48243" lon="2.44851">
        <ele>150.1</ele>
        <time>2015-03-04T11:34:28Z</time>
      </trkpt>
      <trkpt lat="48.48264" lon="2.44866">
        <ele>149.14</ele>
        <time>2015-03-04T11:34:47Z</time>
      </trkpt>
      <trkpt lat="48.48282" lon="2.44878">
        <ele>148.66</ele>
        <time>2015-03-04T11:35:03Z</time>
      </trkpt>
      <trkpt lat="48.48301" lon="2.44888">
        <ele>148.18</ele>
        <time>2015-03-04T11:35:21Z</time>
      </trkpt>
      <trkpt lat="48.48302" lon="2.44887">
        <ele>148.18</ele>
        <time>2015-03-04T11:35:22Z</time>
      </trkpt>
      <trkpt lat="48.48309" lon="2.44865">
        <ele>147.7</ele>
        <time>2015-03-04T11:35:39Z</time>
      </trkpt>
      <trkpt lat="48.48313" lon="2.4484">
        <ele>147.22</ele>
        <time>2015-03-04T11:35:56Z</time>
      </trkpt>
      <trkpt lat="48.48317" lon="2.44814">
        <ele>147.22</ele>
        <time>2015-03-04T11:36:13Z</time>
      </trkpt>
      <trkpt lat="48.4832" lon="2.4479">
        <ele>147.22</ele>
        <time>2015-03-04T11:36:29Z</time>
      </trkpt>
      <trkpt lat="48.48323" lon="2.44759">
        <ele>148.18</ele>
        <time>2015-03-04T11:36:48Z</time>
      </trkpt>
      <trkpt lat="48.48326" lon="2.44731">
        <ele>147.22</ele>
        <time>2015-03-04T11:37:05Z</time>
      </trkpt>
      <trkpt lat="48.48332" lon="2.44704">
        <ele>146.74</ele>
        <time>2015-03-04T11:37:21Z</time>
      </trkpt>
      <trkpt lat="48.48337" lon="2.44676">
        <ele>146.74</ele>
        <time>2015-03-04T11:37:39Z</time>
      </trkpt>
      <trkpt lat="48.4834" lon="2.44658">
        <ele>146.74</ele>
        <time>2015-03-04T11:37:51Z</time>
      </trkpt>
      <trkpt lat="48.48359" lon="2.44645">
        <ele>145.78</ele>
        <time>2015-03-04T11:38:09Z</time>
      </trkpt>
      <trkpt lat="48.48372" lon="2.44639">
        <ele>144.82</ele>
        <time>2015-03-04T11:38:24Z</time>
      </trkpt>
      <trkpt lat="48.48377" lon="2.44632">
        <ele>145.3</ele>
        <time>2015-03-04T11:38:37Z</time>
      </trkpt>
      <trkpt lat="48.48376" lon="2.44623">
        <ele>145.78</ele>
        <time>2015-03-04T11:38:54Z</time>
      </trkpt>
      <trkpt lat="48.48379" lon="2.44626">
        <ele>144.82</ele>
        <time>2015-03-04T11:39:14Z</time>
      </trkpt>
      <trkpt lat="48.48392" lon="2.44614">
        <ele>142.89</ele>
        <time>2015-03-04T11:39:30Z</time>
      </trkpt>
      <trkpt lat="48.48393" lon="2.44611">
        <ele>142.41</ele>
        <time>2015-03-04T11:39:51Z</time>
      </trkpt>
      <trkpt lat="48.48392" lon="2.44609">
        <ele>142.89</ele>
        <time>2015-03-04T11:40:11Z</time>
      </trkpt>
      <trkpt lat="48.48389" lon="2.4461">
        <ele>143.85</ele>
        <time>2015-03-04T11:40:26Z</time>
      </trkpt>
      <trkpt lat="48.4839" lon="2.44608">
        <ele>143.85</ele>
        <time>2015-03-04T11:40:43Z</time>
      </trkpt>
      <trkpt lat="48.48392" lon="2.44609">
        <ele>143.85</ele>
        <time>2015-03-04T11:41:05Z</time>
      </trkpt>
      <trkpt lat="48.48394" lon="2.44608">
        <ele>143.37</ele>
        <time>2015-03-04T11:41:23Z</time>
      </trkpt>
      <trkpt lat="48.48393" lon="2.44606">
        <ele>143.37</ele>
        <time>2015-03-04T11:41:43Z</time>
      </trkpt>
      <trkpt lat="48.48393" lon="2.44612">
        <ele>143.37</ele>
        <time>2015-03-04T11:42:06Z</time>
      </trkpt>
      <trkpt lat="48.48394" lon="2.44608">
        <ele>143.37</ele>
        <time>2015-03-04T11:42:35Z</time>
      </trkpt>
      <trkpt lat="48.48395" lon="2.44605">
        <ele>143.37</ele>
        <time>2015-03-04T11:42:59Z</time>
      </trkpt>
      <trkpt lat="48.48398" lon="2.44608">
        <ele>142.89</ele>
        <time>2015-03-04T11:43:23Z</time>
      </trkpt>
      <trkpt lat="48.48405" lon="2.44609">
        <ele>142.89</ele>
        <time>2015-03-04T11:43:38Z</time>
      </trkpt>
      <trkpt lat="48.48405" lon="2.4461">
        <ele>142.89</ele>
        <time>2015-03-04T11:43:39Z</time>
      </trkpt>
      <trkpt lat="48.48407" lon="2.44615">
        <ele>142.41</ele>
        <time>2015-03-04T11:43:43Z</time>
      </trkpt>
      <trkpt lat="48.48409" lon="2.44622">
        <ele>142.89</ele>
        <time>2015-03-04T11:43:48Z</time>
      </trkpt>
      <trkpt lat="48.48421" lon="2.44637">
        <ele>142.41</ele>
        <time>2015-03-04T11:44:03Z</time>
      </trkpt>
      <trkpt lat="48.48435" lon="2.44651">
        <ele>141.93</ele>
        <time>2015-03-04T11:44:19Z</time>
      </trkpt>
      <trkpt lat="48.48447" lon="2.44662">
        <ele>141.45</ele>
        <time>2015-03-04T11:44:32Z</time>
      </trkpt>
      <trkpt lat="48.48462" lon="2.44671">
        <ele>140.97</ele>
        <time>2015-03-04T11:44:46Z</time>
      </trkpt>
      <trkpt lat="48.48476" lon="2.4468">
        <ele>140.01</ele>
        <time>2015-03-04T11:44:59Z</time>
      </trkpt>
      <trkpt lat="48.48477" lon="2.447">
        <ele>140.01</ele>
        <time>2015-03-04T11:45:15Z</time>
      </trkpt>
      <trkpt lat="48.48473" lon="2.44719">
        <ele>140.01</ele>
        <time>2015-03-04T11:45:29Z</time>
      </trkpt>
      <trkpt lat="48.48473" lon="2.44723">
        <ele>140.01</ele>
        <time>2015-03-04T11:45:32Z</time>
      </trkpt>
      <trkpt lat="48.48469" lon="2.44737">
        <ele>139.05</ele>
        <time>2015-03-04T11:45:43Z</time>
      </trkpt>
      <trkpt lat="48.48462" lon="2.44764">
        <ele>140.01</ele>
        <time>2015-03-04T11:46:00Z</time>
      </trkpt>
      <trkpt lat="48.48456" lon="2.44791">
        <ele>140.49</ele>
        <time>2015-03-04T11:46:16Z</time>
      </trkpt>
      <trkpt lat="48.48451" lon="2.44813">
        <ele>140.49</ele>
        <time>2015-03-04T11:46:32Z</time>
      </trkpt>
      <trkpt lat="48.48442" lon="2.44839">
        <ele>140.01</ele>
        <time>2015-03-04T11:46:49Z</time>
      </trkpt>
      <trkpt lat="48.48435" lon="2.44867">
        <ele>140.49</ele>
        <time>2015-03-04T11:47:06Z</time>
      </trkpt>
      <trkpt lat="48.48426" lon="2.44894">
        <ele>140.97</ele>
        <time>2015-03-04T11:47:21Z</time>
      </trkpt>
      <trkpt lat="48.48421" lon="2.4492">
        <ele>141.93</ele>
        <time>2015-03-04T11:47:36Z</time>
      </trkpt>
      <trkpt lat="48.48422" lon="2.44943">
        <ele>141.93</ele>
        <time>2015-03-04T11:47:51Z</time>
      </trkpt>
      <trkpt lat="48.48418" lon="2.44971">
        <ele>141.45</ele>
        <time>2015-03-04T11:48:07Z</time>
      </trkpt>
      <trkpt lat="48.48417" lon="2.45006">
        <ele>141.45</ele>
        <time>2015-03-04T11:48:25Z</time>
      </trkpt>
      <trkpt lat="48.48424" lon="2.45039">
        <ele>140.49</ele>
        <time>2015-03-04T11:48:44Z</time>
      </trkpt>
      <trkpt lat="48.4843" lon="2.45058">
        <ele>140.49</ele>
        <time>2015-03-04T11:49:00Z</time>
      </trkpt>
      <trkpt lat="48.4843" lon="2.45064">
        <ele>140.49</ele>
        <time>2015-03-04T11:49:08Z</time>
      </trkpt>
      <trkpt lat="48.4844" lon="2.45087">
        <ele>140.49</ele>
        <time>2015-03-04T11:49:25Z</time>
      </trkpt>
      <trkpt lat="48.48456" lon="2.45106">
        <ele>139.53</ele>
        <time>2015-03-04T11:49:40Z</time>
      </trkpt>
      <trkpt lat="48.48468" lon="2.45119">
        <ele>140.01</ele>
        <time>2015-03-04T11:49:55Z</time>
      </trkpt>
      <trkpt lat="48.48477" lon="2.45138">
        <ele>139.53</ele>
        <time>2015-03-04T11:50:10Z</time>
      </trkpt>
      <trkpt lat="48.48485" lon="2.45162">
        <ele>140.01</ele>
        <time>2015-03-04T11:50:27Z</time>
      </trkpt>
      <trkpt lat="48.48488" lon="2.45176">
        <ele>140.01</ele>
        <time>2015-03-04T11:50:36Z</time>
      </trkpt>
      <trkpt lat="48.48485" lon="2.452">
        <ele>140.49</ele>
        <time>2015-03-04T11:50:53Z</time>
      </trkpt>
      <trkpt lat="48.48483" lon="2.45227">
        <ele>140.49</ele>
        <time>2015-03-04T11:51:09Z</time>
      </trkpt>
      <trkpt lat="48.4848" lon="2.45251">
        <ele>140.97</ele>
        <time>2015-03-04T11:51:24Z</time>
      </trkpt>
      <trkpt lat="48.48483" lon="2.45276">
        <ele>141.45</ele>
        <time>2015-03-04T11:51:41Z</time>
      </trkpt>
      <trkpt lat="48.48485" lon="2.45301">
        <ele>142.89</ele>
        <time>2015-03-04T11:51:56Z</time>
      </trkpt>
      <trkpt lat="48.48486" lon="2.45307">
        <ele>143.37</ele>
        <time>2015-03-04T11:52:09Z</time>
      </trkpt>
      <trkpt lat="48.48488" lon="2.45304">
        <ele>143.37</ele>
        <time>2015-03-04T11:52:22Z</time>
      </trkpt>
      <trkpt lat="48.48488" lon="2.45322">
        <ele>144.34</ele>
        <time>2015-03-04T11:52:44Z</time>
      </trkpt>
      <trkpt lat="48.48485" lon="2.45351">
        <ele>144.82</ele>
        <time>2015-03-04T11:53:00Z</time>
      </trkpt>
      <trkpt lat="48.48484" lon="2.45361">
        <ele>145.3</ele>
        <time>2015-03-04T11:53:07Z</time>
      </trkpt>
      <trkpt lat="48.48477" lon="2.45389">
        <ele>145.78</ele>
        <time>2015-03-04T11:53:24Z</time>
      </trkpt>
      <trkpt lat="48.48473" lon="2.45413">
        <ele>145.78</ele>
        <time>2015-03-04T11:53:39Z</time>
      </trkpt>
      <trkpt lat="48.48465" lon="2.45425">
        <ele>146.26</ele>
        <time>2015-03-04T11:53:53Z</time>
      </trkpt>
      <trkpt lat="48.48457" lon="2.45438">
        <ele>146.74</ele>
        <time>2015-03-04T11:54:09Z</time>
      </trkpt>
      <trkpt lat="48.48445" lon="2.45472">
        <ele>146.74</ele>
        <time>2015-03-04T11:54:25Z</time>
      </trkpt>
      <trkpt lat="48.48443" lon="2.45482">
        <ele>146.74</ele>
        <time>2015-03-04T11:54:40Z</time>
      </trkpt>
      <trkpt lat="48.48442" lon="2.45495">
        <ele>147.22</ele>
        <time>2015-03-04T11:54:55Z</time>
      </trkpt>
      <trkpt lat="48.48442" lon="2.45497">
        <ele>147.7</ele>
        <time>2015-03-04T11:55:18Z</time>
      </trkpt>
      <trkpt lat="48.48444" lon="2.45522">
        <ele>148.18</ele>
        <time>2015-03-04T11:55:35Z</time>
      </trkpt>
      <trkpt lat="48.4845" lon="2.45532">
        <ele>147.7</ele>
        <time>2015-03-04T11:55:50Z</time>
      </trkpt>
      <trkpt lat="48.48464" lon="2.45538">
        <ele>147.7</ele>
        <time>2015-03-04T11:56:06Z</time>
      </trkpt>
      <trkpt lat="48.4846" lon="2.45539">
        <ele>147.7</ele>
        <time>2015-03-04T11:56:23Z</time>
      </trkpt>
      <trkpt lat="48.48465" lon="2.45542">
        <ele>147.7</ele>
        <time>2015-03-04T11:56:41Z</time>
      </trkpt>
      <trkpt lat="48.48465" lon="2.45549">
        <ele>147.7</ele>
        <time>2015-03-04T11:57:07Z</time>
      </trkpt>
      <trkpt lat="48.48465" lon="2.45539">
        <ele>147.22</ele>
        <time>2015-03-04T11:57:29Z</time>
      </trkpt>
      <trkpt lat="48.48466" lon="2.4554">
        <ele>147.22</ele>
        <time>2015-03-04T11:58:06Z</time>
      </trkpt>
      <trkpt lat="48.48468" lon="2.45546">
        <ele>147.7</ele>
        <time>2015-03-04T11:58:36Z</time>
      </trkpt>
      <trkpt lat="48.48469" lon="2.45549">
        <ele>148.18</ele>
        <time>2015-03-04T11:59:09Z</time>
      </trkpt>
      <trkpt lat="48.48464" lon="2.45554">
        <ele>147.22</ele>
        <time>2015-03-04T11:59:40Z</time>
      </trkpt>
      <trkpt lat="48.48466" lon="2.4556">
        <ele>147.7</ele>
        <time>2015-03-04T12:00:14Z</time>
      </trkpt>
      <trkpt lat="48.48468" lon="2.45553">
        <ele>147.7</ele>
        <time>2015-03-04T12:00:48Z</time>
      </trkpt>
      <trkpt lat="48.48461" lon="2.45555">
        <ele>147.7</ele>
        <time>2015-03-04T12:01:31Z</time>
      </trkpt>
      <trkpt lat="48.48463" lon="2.45551">
        <ele>148.18</ele>
        <time>2015-03-04T12:02:08Z</time>
      </trkpt>
      <trkpt lat="48.48465" lon="2.45551">
        <ele>148.18</ele>
        <time>2015-03-04T12:02:38Z</time>
      </trkpt>
      <trkpt lat="48.48466" lon="2.45551">
        <ele>148.18</ele>
        <time>2015-03-04T12:03:14Z</time>
      </trkpt>
      <trkpt lat="48.48468" lon="2.45552">
        <ele>148.18</ele>
        <time>2015-03-04T12:03:47Z</time>
      </trkpt>
      <trkpt lat="48.48465" lon="2.45553">
        <ele>148.18</ele>
        <time>2015-03-04T12:04:27Z</time>
      </trkpt>
      <trkpt lat="48.48461" lon="2.45549">
        <ele>148.66</ele>
        <time>2015-03-04T12:05:00Z</time>
      </trkpt>
      <trkpt lat="48.4846" lon="2.45549">
        <ele>148.66</ele>
        <time>2015-03-04T12:05:38Z</time>
      </trkpt>
      <trkpt lat="48.4846" lon="2.45547">
        <ele>149.14</ele>
        <time>2015-03-04T12:06:17Z</time>
      </trkpt>
      <trkpt lat="48.48455" lon="2.45542">
        <ele>149.62</ele>
        <time>2015-03-04T12:06:47Z</time>
      </trkpt>
      <trkpt lat="48.48457" lon="2.45541">
        <ele>150.1</ele>
        <time>2015-03-04T12:07:12Z</time>
      </trkpt>
      <trkpt lat="48.48466" lon="2.4555">
        <ele>150.1</ele>
        <time>2015-03-04T12:07:47Z</time>
      </trkpt>
      <trkpt lat="48.48471" lon="2.45552">
        <ele>150.58</ele>
        <time>2015-03-04T12:08:22Z</time>
      </trkpt>
      <trkpt lat="48.48466" lon="2.45549">
        <ele>151.06</ele>
        <time>2015-03-04T12:09:01Z</time>
      </trkpt>
      <trkpt lat="48.48461" lon="2.45547">
        <ele>151.06</ele>
        <time>2015-03-04T12:09:37Z</time>
      </trkpt>
      <trkpt lat="48.48464" lon="2.45551">
        <ele>151.06</ele>
        <time>2015-03-04T12:10:17Z</time>
      </trkpt>
      <trkpt lat="48.48465" lon="2.45545">
        <ele>150.58</ele>
        <time>2015-03-04T12:10:57Z</time>
      </trkpt>
      <trkpt lat="48.48466" lon="2.45543">
        <ele>151.06</ele>
        <time>2015-03-04T12:11:34Z</time>
      </trkpt>
      <trkpt lat="48.48465" lon="2.45545">
        <ele>151.06</ele>
        <time>2015-03-04T12:12:05Z</time>
      </trkpt>
      <trkpt lat="48.48462" lon="2.45549">
        <ele>151.06</ele>
        <time>2015-03-04T12:12:41Z</time>
      </trkpt>
      <trkpt lat="48.48462" lon="2.45551">
        <ele>151.54</ele>
        <time>2015-03-04T12:13:15Z</time>
      </trkpt>
      <trkpt lat="48.4846" lon="2.45557">
        <ele>151.54</ele>
        <time>2015-03-04T12:13:53Z</time>
      </trkpt>
      <trkpt lat="48.4846" lon="2.45555">
        <ele>151.54</ele>
        <time>2015-03-04T12:14:33Z</time>
      </trkpt>
      <trkpt lat="48.48468" lon="2.4555">
        <ele>152.03</ele>
        <time>2015-03-04T12:15:08Z</time>
      </trkpt>
      <trkpt lat="48.48457" lon="2.45545">
        <ele>152.03</ele>
        <time>2015-03-04T12:15:49Z</time>
      </trkpt>
      <trkpt lat="48.48458" lon="2.45538">
        <ele>152.51</ele>
        <time>2015-03-04T12:16:21Z</time>
      </trkpt>
      <trkpt lat="48.4846" lon="2.45544">
        <ele>152.51</ele>
        <time>2015-03-04T12:16:55Z</time>
      </trkpt>
      <trkpt lat="48.48467" lon="2.45547">
        <ele>152.51</ele>
        <time>2015-03-04T12:17:40Z</time>
      </trkpt>
      <trkpt lat="48.4846" lon="2.45552">
        <ele>152.51</ele>
        <time>2015-03-04T12:18:22Z</time>
      </trkpt>
      <trkpt lat="48.48458" lon="2.45552">
        <ele>152.99</ele>
        <time>2015-03-04T12:18:54Z</time>
      </trkpt>
      <trkpt lat="48.48462" lon="2.45544">
        <ele>152.99</ele>
        <time>2015-03-04T12:19:23Z</time>
      </trkpt>
      <trkpt lat="48.48463" lon="2.45544">
        <ele>152.99</ele>
        <time>2015-03-04T12:19:53Z</time>
      </trkpt>
      <trkpt lat="48.4846" lon="2.45543">
        <ele>153.47</ele>
        <time>2015-03-04T12:20:27Z</time>
      </trkpt>
      <trkpt lat="48.48462" lon="2.45553">
        <ele>153.47</ele>
        <time>2015-03-04T12:21:03Z</time>
      </trkpt>
      <trkpt lat="48.48466" lon="2.45558">
        <ele>153.47</ele>
        <time>2015-03-04T12:21:39Z</time>
      </trkpt>
      <trkpt lat="48.4846" lon="2.45552">
        <ele>153.95</ele>
        <time>2015-03-04T12:22:21Z</time>
      </trkpt>
      <trkpt lat="48.48456" lon="2.45549">
        <ele>153.95</ele>
        <time>2015-03-04T12:22:48Z</time>
      </trkpt>
      <trkpt lat="48.48453" lon="2.45541">
        <ele>154.43</ele>
        <time>2015-03-04T12:23:21Z</time>
      </trkpt>
      <trkpt lat="48.48455" lon="2.45541">
        <ele>154.91</ele>
        <time>2015-03-04T12:24:01Z</time>
      </trkpt>
      <trkpt lat="48.4846" lon="2.4554">
        <ele>154.91</ele>
        <time>2015-03-04T12:24:30Z</time>
      </trkpt>
      <trkpt lat="48.48463" lon="2.45551">
        <ele>154.91</ele>
        <time>2015-03-04T12:25:04Z</time>
      </trkpt>
      <trkpt lat="48.48466" lon="2.45554">
        <ele>155.39</ele>
        <time>2015-03-04T12:25:36Z</time>
      </trkpt>
      <trkpt lat="48.48467" lon="2.45549">
        <ele>155.39</ele>
        <time>2015-03-04T12:26:06Z</time>
      </trkpt>
      <trkpt lat="48.48468" lon="2.45549">
        <ele>155.87</ele>
        <time>2015-03-04T12:26:34Z</time>
      </trkpt>
      <trkpt lat="48.48463" lon="2.45548">
        <ele>155.87</ele>
        <time>2015-03-04T12:27:00Z</time>
      </trkpt>
      <trkpt lat="48.48457" lon="2.45539">
        <ele>156.35</ele>
        <time>2015-03-04T12:27:31Z</time>
      </trkpt>
      <trkpt lat="48.48453" lon="2.45543">
        <ele>156.83</ele>
        <time>2015-03-04T12:28:00Z</time>
      </trkpt>
      <trkpt lat="48.48465" lon="2.4555">
        <ele>157.31</ele>
        <time>2015-03-04T12:28:23Z</time>
      </trkpt>
      <trkpt lat="48.48465" lon="2.45546">
        <ele>157.31</ele>
        <time>2015-03-04T12:28:53Z</time>
      </trkpt>
      <trkpt lat="48.48462" lon="2.45538">
        <ele>158.75</ele>
        <time>2015-03-04T12:29:20Z</time>
      </trkpt>
      <trkpt lat="48.48464" lon="2.45537">
        <ele>158.75</ele>
        <time>2015-03-04T12:29:48Z</time>
      </trkpt>
      <trkpt lat="48.48465" lon="2.45536">
        <ele>158.75</ele>
        <time>2015-03-04T12:30:10Z</time>
      </trkpt>
      <trkpt lat="48.48465" lon="2.45534">
        <ele>158.75</ele>
        <time>2015-03-04T12:30:37Z</time>
      </trkpt>
      <trkpt lat="48.48465" lon="2.45534">
        <ele>158.75</ele>
        <time>2015-03-04T12:31:06Z</time>
      </trkpt>
      <trkpt lat="48.48467" lon="2.4554">
        <ele>159.24</ele>
        <time>2015-03-04T12:31:29Z</time>
      </trkpt>
      <trkpt lat="48.48469" lon="2.45537">
        <ele>158.75</ele>
        <time>2015-03-04T12:31:58Z</time>
      </trkpt>
      <trkpt lat="48.48471" lon="2.45542">
        <ele>158.75</ele>
        <time>2015-03-04T12:32:14Z</time>
      </trkpt>
      <trkpt lat="48.48467" lon="2.45548">
        <ele>158.75</ele>
        <time>2015-03-04T12:32:34Z</time>
      </trkpt>
      <trkpt lat="48.48464" lon="2.4555">
        <ele>158.75</ele>
        <time>2015-03-04T12:32:59Z</time>
      </trkpt>
      <trkpt lat="48.48462" lon="2.45544">
        <ele>158.75</ele>
        <time>2015-03-04T12:33:22Z</time>
      </trkpt>
      <trkpt lat="48.48462" lon="2.45546">
        <ele>159.24</ele>
        <time>2015-03-04T12:33:41Z</time>
      </trkpt>
      <trkpt lat="48.48464" lon="2.45541">
        <ele>159.24</ele>
        <time>2015-03-04T12:33:55Z</time>
      </trkpt>
      <trkpt lat="48.4847" lon="2.45541">
        <ele>159.24</ele>
        <time>2015-03-04T12:34:10Z</time>
      </trkpt>
      <trkpt lat="48.48472" lon="2.45537">
        <ele>159.24</ele>
        <time>2015-03-04T12:34:23Z</time>
      </trkpt>
      <trkpt lat="48.48472" lon="2.45536">
        <ele>159.24</ele>
        <time>2015-03-04T12:34:37Z</time>
      </trkpt>
      <trkpt lat="48.48471" lon="2.45536">
        <ele>158.75</ele>
        <time>2015-03-04T12:34:49Z</time>
      </trkpt>
      <trkpt lat="48.48471" lon="2.45534">
        <ele>159.24</ele>
        <time>2015-03-04T12:35:00Z</time>
      </trkpt>
      <trkpt lat="48.48472" lon="2.45533">
        <ele>159.24</ele>
        <time>2015-03-04T12:35:13Z</time>
      </trkpt>
      <trkpt lat="48.48471" lon="2.45531">
        <ele>159.24</ele>
        <time>2015-03-04T12:35:28Z</time>
      </trkpt>
      <trkpt lat="48.48473" lon="2.45536">
        <ele>159.24</ele>
        <time>2015-03-04T12:35:42Z</time>
      </trkpt>
      <trkpt lat="48.4847" lon="2.45537">
        <ele>159.24</ele>
        <time>2015-03-04T12:35:54Z</time>
      </trkpt>
      <trkpt lat="48.48464" lon="2.45538">
        <ele>159.24</ele>
        <time>2015-03-04T12:36:06Z</time>
      </trkpt>
      <trkpt lat="48.48459" lon="2.45539">
        <ele>159.72</ele>
        <time>2015-03-04T12:36:19Z</time>
      </trkpt>
      <trkpt lat="48.48457" lon="2.45542">
        <ele>159.72</ele>
        <time>2015-03-04T12:36:31Z</time>
      </trkpt>
      <trkpt lat="48.48456" lon="2.45542">
        <ele>160.2</ele>
        <time>2015-03-04T12:36:46Z</time>
      </trkpt>
      <trkpt lat="48.48455" lon="2.45544">
        <ele>159.72</ele>
        <time>2015-03-04T12:37:09Z</time>
      </trkpt>
      <trkpt lat="48.48453" lon="2.4555">
        <ele>160.2</ele>
        <time>2015-03-04T12:37:33Z</time>
      </trkpt>
      <trkpt lat="48.48452" lon="2.45565">
        <ele>160.2</ele>
        <time>2015-03-04T12:37:50Z</time>
      </trkpt>
      <trkpt lat="48.48452" lon="2.45577">
        <ele>160.2</ele>
        <time>2015-03-04T12:38:02Z</time>
      </trkpt>
      <trkpt lat="48.48452" lon="2.45594">
        <ele>160.2</ele>
        <time>2015-03-04T12:38:17Z</time>
      </trkpt>
      <trkpt lat="48.48449" lon="2.45612">
        <ele>160.68</ele>
        <time>2015-03-04T12:38:31Z</time>
      </trkpt>
      <trkpt lat="48.48449" lon="2.45634">
        <ele>160.68</ele>
        <time>2015-03-04T12:38:47Z</time>
      </trkpt>
      <trkpt lat="48.48447" lon="2.45652">
        <ele>160.68</ele>
        <time>2015-03-04T12:39:02Z</time>
      </trkpt>
      <trkpt lat="48.48448" lon="2.45673">
        <ele>160.68</ele>
        <time>2015-03-04T12:39:18Z</time>
      </trkpt>
      <trkpt lat="48.48448" lon="2.45695">
        <ele>160.68</ele>
        <time>2015-03-04T12:39:34Z</time>
      </trkpt>
      <trkpt lat="48.48451" lon="2.45716">
        <ele>160.68</ele>
        <time>2015-03-04T12:39:49Z</time>
      </trkpt>
      <trkpt lat="48.48451" lon="2.45718">
        <ele>160.68</ele>
        <time>2015-03-04T12:39:51Z</time>
      </trkpt>
      <trkpt lat="48.4845" lon="2.4573">
        <ele>160.68</ele>
        <time>2015-03-04T12:39:58Z</time>
      </trkpt>
      <trkpt lat="48.48449" lon="2.45758">
        <ele>161.16</ele>
        <time>2015-03-04T12:40:13Z</time>
      </trkpt>
      <trkpt lat="48.48445" lon="2.4578">
        <ele>161.16</ele>
        <time>2015-03-04T12:40:28Z</time>
      </trkpt>
      <trkpt lat="48.48441" lon="2.458">
        <ele>161.16</ele>
        <time>2015-03-04T12:40:41Z</time>
      </trkpt>
      <trkpt lat="48.48435" lon="2.45825">
        <ele>161.16</ele>
        <time>2015-03-04T12:40:55Z</time>
      </trkpt>
      <trkpt lat="48.48434" lon="2.4584">
        <ele>161.16</ele>
        <time>2015-03-04T12:41:07Z</time>
      </trkpt>
      <trkpt lat="48.48433" lon="2.45843">
        <ele>161.16</ele>
        <time>2015-03-04T12:41:10Z</time>
      </trkpt>
      <trkpt lat="48.48432" lon="2.45848">
        <ele>161.16</ele>
        <time>2015-03-04T12:41:13Z</time>
      </trkpt>
      <trkpt lat="48.48431" lon="2.45852">
        <ele>161.16</ele>
        <time>2015-03-04T12:41:15Z</time>
      </trkpt>
      <trkpt lat="48.4843" lon="2.45864">
        <ele>161.16</ele>
        <time>2015-03-04T12:41:21Z</time>
      </trkpt>
      <trkpt lat="48.4843" lon="2.45879">
        <ele>161.16</ele>
        <time>2015-03-04T12:41:29Z</time>
      </trkpt>
      <trkpt lat="48.48429" lon="2.45889">
        <ele>160.68</ele>
        <time>2015-03-04T12:41:34Z</time>
      </trkpt>
      <trkpt lat="48.48427" lon="2.45908">
        <ele>160.68</ele>
        <time>2015-03-04T12:41:43Z</time>
      </trkpt>
      <trkpt lat="48.4842" lon="2.45936">
        <ele>160.2</ele>
        <time>2015-03-04T12:41:58Z</time>
      </trkpt>
      <trkpt lat="48.48418" lon="2.45958">
        <ele>160.2</ele>
        <time>2015-03-04T12:42:12Z</time>
      </trkpt>
      <trkpt lat="48.48416" lon="2.45979">
        <ele>159.72</ele>
        <time>2015-03-04T12:42:24Z</time>
      </trkpt>
      <trkpt lat="48.48413" lon="2.46004">
        <ele>160.2</ele>
        <time>2015-03-04T12:42:39Z</time>
      </trkpt>
      <trkpt lat="48.48411" lon="2.4601">
        <ele>160.2</ele>
        <time>2015-03-04T12:42:43Z</time>
      </trkpt>
      <trkpt lat="48.48409" lon="2.46039">
        <ele>159.72</ele>
        <time>2015-03-04T12:42:59Z</time>
      </trkpt>
      <trkpt lat="48.484" lon="2.46069">
        <ele>159.72</ele>
        <time>2015-03-04T12:43:16Z</time>
      </trkpt>
      <trkpt lat="48.484" lon="2.46071">
        <ele>159.72</ele>
        <time>2015-03-04T12:43:17Z</time>
      </trkpt>
      <trkpt lat="48.48399" lon="2.46077">
        <ele>159.72</ele>
        <time>2015-03-04T12:43:20Z</time>
      </trkpt>
      <trkpt lat="48.48397" lon="2.461">
        <ele>159.24</ele>
        <time>2015-03-04T12:43:34Z</time>
      </trkpt>
      <trkpt lat="48.48396" lon="2.46101">
        <ele>159.24</ele>
        <time>2015-03-04T12:43:35Z</time>
      </trkpt>
      <trkpt lat="48.48398" lon="2.46129">
        <ele>159.24</ele>
        <time>2015-03-04T12:43:51Z</time>
      </trkpt>
      <trkpt lat="48.48396" lon="2.46151">
        <ele>158.75</ele>
        <time>2015-03-04T12:44:05Z</time>
      </trkpt>
      <trkpt lat="48.48397" lon="2.46185">
        <ele>158.75</ele>
        <time>2015-03-04T12:44:23Z</time>
      </trkpt>
      <trkpt lat="48.48396" lon="2.46195">
        <ele>158.75</ele>
        <time>2015-03-04T12:44:29Z</time>
      </trkpt>
      <trkpt lat="48.48399" lon="2.46209">
        <ele>158.75</ele>
        <time>2015-03-04T12:44:37Z</time>
      </trkpt>
      <trkpt lat="48.48399" lon="2.46218">
        <ele>158.75</ele>
        <time>2015-03-04T12:44:42Z</time>
      </trkpt>
      <trkpt lat="48.48399" lon="2.46223">
        <ele>158.75</ele>
        <time>2015-03-04T12:44:44Z</time>
      </trkpt>
      <trkpt lat="48.48397" lon="2.46242">
        <ele>158.27</ele>
        <time>2015-03-04T12:44:56Z</time>
      </trkpt>
      <trkpt lat="48.48394" lon="2.4627">
        <ele>157.79</ele>
        <time>2015-03-04T12:45:11Z</time>
      </trkpt>
      <trkpt lat="48.48393" lon="2.46275">
        <ele>158.27</ele>
        <time>2015-03-04T12:45:14Z</time>
      </trkpt>
      <trkpt lat="48.48393" lon="2.46278">
        <ele>157.79</ele>
        <time>2015-03-04T12:45:16Z</time>
      </trkpt>
      <trkpt lat="48.48393" lon="2.46306">
        <ele>157.31</ele>
        <time>2015-03-04T12:45:34Z</time>
      </trkpt>
      <trkpt lat="48.48388" lon="2.46317">
        <ele>157.79</ele>
        <time>2015-03-04T12:45:48Z</time>
      </trkpt>
      <trkpt lat="48.48375" lon="2.46317">
        <ele>158.75</ele>
        <time>2015-03-04T12:46:03Z</time>
      </trkpt>
      <trkpt lat="48.48372" lon="2.46315">
        <ele>159.24</ele>
        <time>2015-03-04T12:46:06Z</time>
      </trkpt>
      <trkpt lat="48.48356" lon="2.46319">
        <ele>159.72</ele>
        <time>2015-03-04T12:46:23Z</time>
      </trkpt>
      <trkpt lat="48.48344" lon="2.46321">
        <ele>160.2</ele>
        <time>2015-03-04T12:46:36Z</time>
      </trkpt>
      <trkpt lat="48.48331" lon="2.46322">
        <ele>160.2</ele>
        <time>2015-03-04T12:46:48Z</time>
      </trkpt>
      <trkpt lat="48.48322" lon="2.4632">
        <ele>160.68</ele>
        <time>2015-03-04T12:47:01Z</time>
      </trkpt>
      <trkpt lat="48.48314" lon="2.46327">
        <ele>160.68</ele>
        <time>2015-03-04T12:47:14Z</time>
      </trkpt>
      <trkpt lat="48.48304" lon="2.46329">
        <ele>160.68</ele>
        <time>2015-03-04T12:47:26Z</time>
      </trkpt>
      <trkpt lat="48.48291" lon="2.46331">
        <ele>160.68</ele>
        <time>2015-03-04T12:47:40Z</time>
      </trkpt>
      <trkpt lat="48.48278" lon="2.4633">
        <ele>160.68</ele>
        <time>2015-03-04T12:47:54Z</time>
      </trkpt>
      <trkpt lat="48.48274" lon="2.4633">
        <ele>160.68</ele>
        <time>2015-03-04T12:47:59Z</time>
      </trkpt>
      <trkpt lat="48.48262" lon="2.46334">
        <ele>160.2</ele>
        <time>2015-03-04T12:48:13Z</time>
      </trkpt>
      <trkpt lat="48.48252" lon="2.46336">
        <ele>159.24</ele>
        <time>2015-03-04T12:48:27Z</time>
      </trkpt>
      <trkpt lat="48.48243" lon="2.46338">
        <ele>158.75</ele>
        <time>2015-03-04T12:48:37Z</time>
      </trkpt>
      <trkpt lat="48.48232" lon="2.46336">
        <ele>159.24</ele>
        <time>2015-03-04T12:48:50Z</time>
      </trkpt>
      <trkpt lat="48.48221" lon="2.46336">
        <ele>159.24</ele>
        <time>2015-03-04T12:49:02Z</time>
      </trkpt>
      <trkpt lat="48.4821" lon="2.46345">
        <ele>159.24</ele>
        <time>2015-03-04T12:49:17Z</time>
      </trkpt>
      <trkpt lat="48.48201" lon="2.4635">
        <ele>160.2</ele>
        <time>2015-03-04T12:49:31Z</time>
      </trkpt>
      <trkpt lat="48.48191" lon="2.4635">
        <ele>160.68</ele>
        <time>2015-03-04T12:49:38Z</time>
      </trkpt>
      <trkpt lat="48.48181" lon="2.46343">
        <ele>159.72</ele>
        <time>2015-03-04T12:49:48Z</time>
      </trkpt>
      <trkpt lat="48.48178" lon="2.46342">
        <ele>159.24</ele>
        <time>2015-03-04T12:49:51Z</time>
      </trkpt>
      <trkpt lat="48.48167" lon="2.46345">
        <ele>159.24</ele>
        <time>2015-03-04T12:50:04Z</time>
      </trkpt>
      <trkpt lat="48.48154" lon="2.46345">
        <ele>157.31</ele>
        <time>2015-03-04T12:50:20Z</time>
      </trkpt>
      <trkpt lat="48.4814" lon="2.46346">
        <ele>157.31</ele>
        <time>2015-03-04T12:50:35Z</time>
      </trkpt>
      <trkpt lat="48.48129" lon="2.46352">
        <ele>158.27</ele>
        <time>2015-03-04T12:50:50Z</time>
      </trkpt>
      <trkpt lat="48.48113" lon="2.46351">
        <ele>158.75</ele>
        <time>2015-03-04T12:51:03Z</time>
      </trkpt>
      <trkpt lat="48.48103" lon="2.4634">
        <ele>159.24</ele>
        <time>2015-03-04T12:51:16Z</time>
      </trkpt>
      <trkpt lat="48.48101" lon="2.46338">
        <ele>159.24</ele>
        <time>2015-03-04T12:51:18Z</time>
      </trkpt>
      <trkpt lat="48.48093" lon="2.46333">
        <ele>158.27</ele>
        <time>2015-03-04T12:51:27Z</time>
      </trkpt>
      <trkpt lat="48.48082" lon="2.46333">
        <ele>157.31</ele>
        <time>2015-03-04T12:51:43Z</time>
      </trkpt>
      <trkpt lat="48.48071" lon="2.46333">
        <ele>156.83</ele>
        <time>2015-03-04T12:51:57Z</time>
      </trkpt>
      <trkpt lat="48.48055" lon="2.46331">
        <ele>155.87</ele>
        <time>2015-03-04T12:52:13Z</time>
      </trkpt>
      <trkpt lat="48.48053" lon="2.46331">
        <ele>156.35</ele>
        <time>2015-03-04T12:52:15Z</time>
      </trkpt>
      <trkpt lat="48.48042" lon="2.46338">
        <ele>157.79</ele>
        <time>2015-03-04T12:52:30Z</time>
      </trkpt>
      <trkpt lat="48.48026" lon="2.46339">
        <ele>158.27</ele>
        <time>2015-03-04T12:52:42Z</time>
      </trkpt>
      <trkpt lat="48.48016" lon="2.46335">
        <ele>157.31</ele>
        <time>2015-03-04T12:52:54Z</time>
      </trkpt>
      <trkpt lat="48.48004" lon="2.46332">
        <ele>155.87</ele>
        <time>2015-03-04T12:53:09Z</time>
      </trkpt>
      <trkpt lat="48.48001" lon="2.46335">
        <ele>154.91</ele>
        <time>2015-03-04T12:53:22Z</time>
      </trkpt>
      <trkpt lat="48.47998" lon="2.46339">
        <ele>153.95</ele>
        <time>2015-03-04T12:53:35Z</time>
      </trkpt>
      <trkpt lat="48.47995" lon="2.46343">
        <ele>152.51</ele>
        <time>2015-03-04T12:53:47Z</time>
      </trkpt>
      <trkpt lat="48.4799" lon="2.4634">
        <ele>151.06</ele>
        <time>2015-03-04T12:53:59Z</time>
      </trkpt>
      <trkpt lat="48.47987" lon="2.46338">
        <ele>149.14</ele>
        <time>2015-03-04T12:54:11Z</time>
      </trkpt>
      <trkpt lat="48.47981" lon="2.46336">
        <ele>146.74</ele>
        <time>2015-03-04T12:54:26Z</time>
      </trkpt>
      <trkpt lat="48.47979" lon="2.46343">
        <ele>144.82</ele>
        <time>2015-03-04T12:54:38Z</time>
      </trkpt>
      <trkpt lat="48.47971" lon="2.46348">
        <ele>141.93</ele>
        <time>2015-03-04T12:54:53Z</time>
      </trkpt>
      <trkpt lat="48.47962" lon="2.46351">
        <ele>139.53</ele>
        <time>2015-03-04T12:55:08Z</time>
      </trkpt>
      <trkpt lat="48.47953" lon="2.46354">
        <ele>136.16</ele>
        <time>2015-03-04T12:55:25Z</time>
      </trkpt>
      <trkpt lat="48.47945" lon="2.46356">
        <ele>133.76</ele>
        <time>2015-03-04T12:55:40Z</time>
      </trkpt>
      <trkpt lat="48.47938" lon="2.46352">
        <ele>132.32</ele>
        <time>2015-03-04T12:55:54Z</time>
      </trkpt>
      <trkpt lat="48.47931" lon="2.46346">
        <ele>129.92</ele>
        <time>2015-03-04T12:56:07Z</time>
      </trkpt>
      <trkpt lat="48.47922" lon="2.4635">
        <ele>126.55</ele>
        <time>2015-03-04T12:56:23Z</time>
      </trkpt>
      <trkpt lat="48.4792" lon="2.46356">
        <ele>124.15</ele>
        <time>2015-03-04T12:56:35Z</time>
      </trkpt>
      <trkpt lat="48.47916" lon="2.46356">
        <ele>122.71</ele>
        <time>2015-03-04T12:56:40Z</time>
      </trkpt>
      <trkpt lat="48.47904" lon="2.46351">
        <ele>118.86</ele>
        <time>2015-03-04T12:56:54Z</time>
      </trkpt>
      <trkpt lat="48.47896" lon="2.46353">
        <ele>116.94</ele>
        <time>2015-03-04T12:57:08Z</time>
      </trkpt>
      <trkpt lat="48.47892" lon="2.46355">
        <ele>116.94</ele>
        <time>2015-03-04T12:57:12Z</time>
      </trkpt>
      <trkpt lat="48.47882" lon="2.46361">
        <ele>115.98</ele>
        <time>2015-03-04T12:57:19Z</time>
      </trkpt>
      <trkpt lat="48.47861" lon="2.46368">
        <ele>115.5</ele>
        <time>2015-03-04T12:57:36Z</time>
      </trkpt>
      <trkpt lat="48.4786" lon="2.4637">
        <ele>115.01</ele>
        <time>2015-03-04T12:57:38Z</time>
      </trkpt>
      <trkpt lat="48.47853" lon="2.4638">
        <ele>113.57</ele>
        <time>2015-03-04T12:57:48Z</time>
      </trkpt>
      <trkpt lat="48.47841" lon="2.46382">
        <ele>113.57</ele>
        <time>2015-03-04T12:58:04Z</time>
      </trkpt>
      <trkpt lat="48.4784" lon="2.46379">
        <ele>113.09</ele>
        <time>2015-03-04T12:58:24Z</time>
      </trkpt>
      <trkpt lat="48.4784" lon="2.46377">
        <ele>112.61</ele>
        <time>2015-03-04T12:58:40Z</time>
      </trkpt>
      <trkpt lat="48.4784" lon="2.46378">
        <ele>112.61</ele>
        <time>2015-03-04T12:58:58Z</time>
      </trkpt>
      <trkpt lat="48.47839" lon="2.46379">
        <ele>112.61</ele>
        <time>2015-03-04T12:59:26Z</time>
      </trkpt>
      <trkpt lat="48.47837" lon="2.4638">
        <ele>112.61</ele>
        <time>2015-03-04T12:59:40Z</time>
      </trkpt>
      <trkpt lat="48.47832" lon="2.46382">
        <ele>112.13</ele>
        <time>2015-03-04T12:59:55Z</time>
      </trkpt>
      <trkpt lat="48.47827" lon="2.46385">
        <ele>111.65</ele>
        <time>2015-03-04T13:00:02Z</time>
      </trkpt>
      <trkpt lat="48.47825" lon="2.46386">
        <ele>111.65</ele>
        <time>2015-03-04T13:00:05Z</time>
      </trkpt>
      <trkpt lat="48.47815" lon="2.46387">
        <ele>111.65</ele>
        <time>2015-03-04T13:00:15Z</time>
      </trkpt>
      <trkpt lat="48.47799" lon="2.46389">
        <ele>111.17</ele>
        <time>2015-03-04T13:00:31Z</time>
      </trkpt>
      <trkpt lat="48.47782" lon="2.46386">
        <ele>110.21</ele>
        <time>2015-03-04T13:00:47Z</time>
      </trkpt>
      <trkpt lat="48.47778" lon="2.46383">
        <ele>110.69</ele>
        <time>2015-03-04T13:00:52Z</time>
      </trkpt>
      <trkpt lat="48.47776" lon="2.46381">
        <ele>110.21</ele>
        <time>2015-03-04T13:00:54Z</time>
      </trkpt>
      <trkpt lat="48.4776" lon="2.46363">
        <ele>110.21</ele>
        <time>2015-03-04T13:01:12Z</time>
      </trkpt>
      <trkpt lat="48.47758" lon="2.46361">
        <ele>110.21</ele>
        <time>2015-03-04T13:01:14Z</time>
      </trkpt>
      <trkpt lat="48.47755" lon="2.46354">
        <ele>110.21</ele>
        <time>2015-03-04T13:01:19Z</time>
      </trkpt>
      <trkpt lat="48.47743" lon="2.46336">
        <ele>110.69</ele>
        <time>2015-03-04T13:01:34Z</time>
      </trkpt>
      <trkpt lat="48.47735" lon="2.46328">
        <ele>110.21</ele>
        <time>2015-03-04T13:01:48Z</time>
      </trkpt>
      <trkpt lat="48.47721" lon="2.46305">
        <ele>110.69</ele>
        <time>2015-03-04T13:02:06Z</time>
      </trkpt>
      <trkpt lat="48.47714" lon="2.46291">
        <ele>110.69</ele>
        <time>2015-03-04T13:02:21Z</time>
      </trkpt>
      <trkpt lat="48.47713" lon="2.46288">
        <ele>110.69</ele>
        <time>2015-03-04T13:02:26Z</time>
      </trkpt>
      <trkpt lat="48.47709" lon="2.46288">
        <ele>110.69</ele>
        <time>2015-03-04T13:02:35Z</time>
      </trkpt>
      <trkpt lat="48.47704" lon="2.46281">
        <ele>111.17</ele>
        <time>2015-03-04T13:02:45Z</time>
      </trkpt>
      <trkpt lat="48.47694" lon="2.46265">
        <ele>111.17</ele>
        <time>2015-03-04T13:02:59Z</time>
      </trkpt>
      <trkpt lat="48.47685" lon="2.46252">
        <ele>111.17</ele>
        <time>2015-03-04T13:03:13Z</time>
      </trkpt>
      <trkpt lat="48.47671" lon="2.46232">
        <ele>112.13</ele>
        <time>2015-03-04T13:03:29Z</time>
      </trkpt>
      <trkpt lat="48.47669" lon="2.46229">
        <ele>112.13</ele>
        <time>2015-03-04T13:03:32Z</time>
      </trkpt>
      <trkpt lat="48.47667" lon="2.46228">
        <ele>112.13</ele>
        <time>2015-03-04T13:03:34Z</time>
      </trkpt>
      <trkpt lat="48.47655" lon="2.46209">
        <ele>112.13</ele>
        <time>2015-03-04T13:03:51Z</time>
      </trkpt>
      <trkpt lat="48.47639" lon="2.46188">
        <ele>112.61</ele>
        <time>2015-03-04T13:04:10Z</time>
      </trkpt>
      <trkpt lat="48.47638" lon="2.46187">
        <ele>112.61</ele>
        <time>2015-03-04T13:04:11Z</time>
      </trkpt>
      <trkpt lat="48.47636" lon="2.46182">
        <ele>113.09</ele>
        <time>2015-03-04T13:04:14Z</time>
      </trkpt>
      <trkpt lat="48.47628" lon="2.46167">
        <ele>112.61</ele>
        <time>2015-03-04T13:04:27Z</time>
      </trkpt>
      <trkpt lat="48.47623" lon="2.46161">
        <ele>113.09</ele>
        <time>2015-03-04T13:04:33Z</time>
      </trkpt>
      <trkpt lat="48.47611" lon="2.46137">
        <ele>113.09</ele>
        <time>2015-03-04T13:04:51Z</time>
      </trkpt>
      <trkpt lat="48.4761" lon="2.46133">
        <ele>112.61</ele>
        <time>2015-03-04T13:04:53Z</time>
      </trkpt>
      <trkpt lat="48.47601" lon="2.46109">
        <ele>112.13</ele>
        <time>2015-03-04T13:05:09Z</time>
      </trkpt>
      <trkpt lat="48.47597" lon="2.46097">
        <ele>111.65</ele>
        <time>2015-03-04T13:05:18Z</time>
      </trkpt>
      <trkpt lat="48.47591" lon="2.46082">
        <ele>111.65</ele>
        <time>2015-03-04T13:05:29Z</time>
      </trkpt>
      <trkpt lat="48.47588" lon="2.46077">
        <ele>111.65</ele>
        <time>2015-03-04T13:05:34Z</time>
      </trkpt>
      <trkpt lat="48.47574" lon="2.4607">
        <ele>111.17</ele>
        <time>2015-03-04T13:05:51Z</time>
      </trkpt>
      <trkpt lat="48.47559" lon="2.46068">
        <ele>111.17</ele>
        <time>2015-03-04T13:06:06Z</time>
      </trkpt>
      <trkpt lat="48.47542" lon="2.46063">
        <ele>111.17</ele>
        <time>2015-03-04T13:06:23Z</time>
      </trkpt>
      <trkpt lat="48.47525" lon="2.46059">
        <ele>109.73</ele>
        <time>2015-03-04T13:06:40Z</time>
      </trkpt>
      <trkpt lat="48.47507" lon="2.46055">
        <ele>110.21</ele>
        <time>2015-03-04T13:06:57Z</time>
      </trkpt>
      <trkpt lat="48.47489" lon="2.46053">
        <ele>109.73</ele>
        <time>2015-03-04T13:07:13Z</time>
      </trkpt>
      <trkpt lat="48.47476" lon="2.46064">
        <ele>108.77</ele>
        <time>2015-03-04T13:07:27Z</time>
      </trkpt>
      <trkpt lat="48.47465" lon="2.46081">
        <ele>109.25</ele>
        <time>2015-03-04T13:07:42Z</time>
      </trkpt>
      <trkpt lat="48.47461" lon="2.46087">
        <ele>109.25</ele>
        <time>2015-03-04T13:07:47Z</time>
      </trkpt>
      <trkpt lat="48.47448" lon="2.46105">
        <ele>108.77</ele>
        <time>2015-03-04T13:08:03Z</time>
      </trkpt>
      <trkpt lat="48.47435" lon="2.46122">
        <ele>109.25</ele>
        <time>2015-03-04T13:08:19Z</time>
      </trkpt>
      <trkpt lat="48.47422" lon="2.46137">
        <ele>109.25</ele>
        <time>2015-03-04T13:08:33Z</time>
      </trkpt>
      <trkpt lat="48.47406" lon="2.46152">
        <ele>108.29</ele>
        <time>2015-03-04T13:08:49Z</time>
      </trkpt>
      <trkpt lat="48.47395" lon="2.46153">
        <ele>108.29</ele>
        <time>2015-03-04T13:09:04Z</time>
      </trkpt>
      <trkpt lat="48.47393" lon="2.46154">
        <ele>107.81</ele>
        <time>2015-03-04T13:09:16Z</time>
      </trkpt>
      <trkpt lat="48.47376" lon="2.46157">
        <ele>107.81</ele>
        <time>2015-03-04T13:09:33Z</time>
      </trkpt>
      <trkpt lat="48.47361" lon="2.46156">
        <ele>107.32</ele>
        <time>2015-03-04T13:09:48Z</time>
      </trkpt>
      <trkpt lat="48.47342" lon="2.46149">
        <ele>106.84</ele>
        <time>2015-03-04T13:10:06Z</time>
      </trkpt>
      <trkpt lat="48.47327" lon="2.46142">
        <ele>106.36</ele>
        <time>2015-03-04T13:10:21Z</time>
      </trkpt>
      <trkpt lat="48.4731" lon="2.46134">
        <ele>106.36</ele>
        <time>2015-03-04T13:10:36Z</time>
      </trkpt>
      <trkpt lat="48.47287" lon="2.46124">
        <ele>105.4</ele>
        <time>2015-03-04T13:10:56Z</time>
      </trkpt>
      <trkpt lat="48.47265" lon="2.46118">
        <ele>104.92</ele>
        <time>2015-03-04T13:11:14Z</time>
      </trkpt>
      <trkpt lat="48.47247" lon="2.46115">
        <ele>104.44</ele>
        <time>2015-03-04T13:11:30Z</time>
      </trkpt>
      <trkpt lat="48.47228" lon="2.46116">
        <ele>104.44</ele>
        <time>2015-03-04T13:11:48Z</time>
      </trkpt>
      <trkpt lat="48.47211" lon="2.46129">
        <ele>104.44</ele>
        <time>2015-03-04T13:12:04Z</time>
      </trkpt>
      <trkpt lat="48.47201" lon="2.46155">
        <ele>104.44</ele>
        <time>2015-03-04T13:12:22Z</time>
      </trkpt>
      <trkpt lat="48.47194" lon="2.46182">
        <ele>104.44</ele>
        <time>2015-03-04T13:12:40Z</time>
      </trkpt>
      <trkpt lat="48.47184" lon="2.46211">
        <ele>104.44</ele>
        <time>2015-03-04T13:12:59Z</time>
      </trkpt>
      <trkpt lat="48.4718" lon="2.46234">
        <ele>103.96</ele>
        <time>2015-03-04T13:13:13Z</time>
      </trkpt>
      <trkpt lat="48.47175" lon="2.4626">
        <ele>103.96</ele>
        <time>2015-03-04T13:13:29Z</time>
      </trkpt>
      <trkpt lat="48.47172" lon="2.46286">
        <ele>103.96</ele>
        <time>2015-03-04T13:13:45Z</time>
      </trkpt>
      <trkpt lat="48.47167" lon="2.46312">
        <ele>103.96</ele>
        <time>2015-03-04T13:14:00Z</time>
      </trkpt>
      <trkpt lat="48.47158" lon="2.46344">
        <ele>103.48</ele>
        <time>2015-03-04T13:14:19Z</time>
      </trkpt>
      <trkpt lat="48.47153" lon="2.46377">
        <ele>103.96</ele>
        <time>2015-03-04T13:14:38Z</time>
      </trkpt>
      <trkpt lat="48.47149" lon="2.46405">
        <ele>103.96</ele>
        <time>2015-03-04T13:14:54Z</time>
      </trkpt>
      <trkpt lat="48.47147" lon="2.46416">
        <ele>103.48</ele>
        <time>2015-03-04T13:15:02Z</time>
      </trkpt>
      <trkpt lat="48.47145" lon="2.46424">
        <ele>103</ele>
        <time>2015-03-04T13:15:07Z</time>
      </trkpt>
      <trkpt lat="48.47133" lon="2.46444">
        <ele>103</ele>
        <time>2015-03-04T13:15:24Z</time>
      </trkpt>
      <trkpt lat="48.47117" lon="2.46467">
        <ele>103</ele>
        <time>2015-03-04T13:15:42Z</time>
      </trkpt>
      <trkpt lat="48.47115" lon="2.46471">
        <ele>103.48</ele>
        <time>2015-03-04T13:15:45Z</time>
      </trkpt>
      <trkpt lat="48.4711" lon="2.46476">
        <ele>103.48</ele>
        <time>2015-03-04T13:15:49Z</time>
      </trkpt>
      <trkpt lat="48.47091" lon="2.46489">
        <ele>103.48</ele>
        <time>2015-03-04T13:16:08Z</time>
      </trkpt>
      <trkpt lat="48.47075" lon="2.46502">
        <ele>103.96</ele>
        <time>2015-03-04T13:16:24Z</time>
      </trkpt>
      <trkpt lat="48.47057" lon="2.46517">
        <ele>103.96</ele>
        <time>2015-03-04T13:16:40Z</time>
      </trkpt>
      <trkpt lat="48.47046" lon="2.46524">
        <ele>103.96</ele>
        <time>2015-03-04T13:16:50Z</time>
      </trkpt>
      <trkpt lat="48.47027" lon="2.46534">
        <ele>103.48</ele>
        <time>2015-03-04T13:17:07Z</time>
      </trkpt>
      <trkpt lat="48.47007" lon="2.46546">
        <ele>102.04</ele>
        <time>2015-03-04T13:17:25Z</time>
      </trkpt>
      <trkpt lat="48.46992" lon="2.46554">
        <ele>103</ele>
        <time>2015-03-04T13:17:39Z</time>
      </trkpt>
      <trkpt lat="48.46971" lon="2.46568">
        <ele>103</ele>
        <time>2015-03-04T13:17:57Z</time>
      </trkpt>
      <trkpt lat="48.46952" lon="2.46579">
        <ele>103</ele>
        <time>2015-03-04T13:18:15Z</time>
      </trkpt>
      <trkpt lat="48.46935" lon="2.46592">
        <ele>102.52</ele>
        <time>2015-03-04T13:18:31Z</time>
      </trkpt>
      <trkpt lat="48.46916" lon="2.46608">
        <ele>102.52</ele>
        <time>2015-03-04T13:18:49Z</time>
      </trkpt>
      <trkpt lat="48.46902" lon="2.46623">
        <ele>102.52</ele>
        <time>2015-03-04T13:19:04Z</time>
      </trkpt>
      <trkpt lat="48.46895" lon="2.46635">
        <ele>102.04</ele>
        <time>2015-03-04T13:19:14Z</time>
      </trkpt>
      <trkpt lat="48.46885" lon="2.46653">
        <ele>102.52</ele>
        <time>2015-03-04T13:19:30Z</time>
      </trkpt>
      <trkpt lat="48.4688" lon="2.46671">
        <ele>102.52</ele>
        <time>2015-03-04T13:19:45Z</time>
      </trkpt>
      <trkpt lat="48.46872" lon="2.46691">
        <ele>103.48</ele>
        <time>2015-03-04T13:20:00Z</time>
      </trkpt>
      <trkpt lat="48.46869" lon="2.4671">
        <ele>104.92</ele>
        <time>2015-03-04T13:20:17Z</time>
      </trkpt>
      <trkpt lat="48.46869" lon="2.46728">
        <ele>106.84</ele>
        <time>2015-03-04T13:20:33Z</time>
      </trkpt>
      <trkpt lat="48.46867" lon="2.46745">
        <ele>109.25</ele>
        <time>2015-03-04T13:20:48Z</time>
      </trkpt>
      <trkpt lat="48.46863" lon="2.46765">
        <ele>111.65</ele>
        <time>2015-03-04T13:21:04Z</time>
      </trkpt>
      <trkpt lat="48.46855" lon="2.46777">
        <ele>112.61</ele>
        <time>2015-03-04T13:21:15Z</time>
      </trkpt>
      <trkpt lat="48.46848" lon="2.46789">
        <ele>113.09</ele>
        <time>2015-03-04T13:21:25Z</time>
      </trkpt>
      <trkpt lat="48.46841" lon="2.46807">
        <ele>112.13</ele>
        <time>2015-03-04T13:21:40Z</time>
      </trkpt>
      <trkpt lat="48.46834" lon="2.46823">
        <ele>110.21</ele>
        <time>2015-03-04T13:21:53Z</time>
      </trkpt>
      <trkpt lat="48.46832" lon="2.46837">
        <ele>108.77</ele>
        <time>2015-03-04T13:22:05Z</time>
      </trkpt>
      <trkpt lat="48.46832" lon="2.46845">
        <ele>107.81</ele>
        <time>2015-03-04T13:22:10Z</time>
      </trkpt>
      <trkpt lat="48.46826" lon="2.46868">
        <ele>106.84</ele>
        <time>2015-03-04T13:22:24Z</time>
      </trkpt>
      <trkpt lat="48.46819" lon="2.46894">
        <ele>106.36</ele>
        <time>2015-03-04T13:22:38Z</time>
      </trkpt>
      <trkpt lat="48.46818" lon="2.46901">
        <ele>106.36</ele>
        <time>2015-03-04T13:22:42Z</time>
      </trkpt>
      <trkpt lat="48.46815" lon="2.46907">
        <ele>105.88</ele>
        <time>2015-03-04T13:22:46Z</time>
      </trkpt>
      <trkpt lat="48.46813" lon="2.46931">
        <ele>104.92</ele>
        <time>2015-03-04T13:23:01Z</time>
      </trkpt>
      <trkpt lat="48.46812" lon="2.46946">
        <ele>104.44</ele>
        <time>2015-03-04T13:23:11Z</time>
      </trkpt>
      <trkpt lat="48.46805" lon="2.46964">
        <ele>104.92</ele>
        <time>2015-03-04T13:23:23Z</time>
      </trkpt>
      <trkpt lat="48.46798" lon="2.46975">
        <ele>104.44</ele>
        <time>2015-03-04T13:23:30Z</time>
      </trkpt>
      <trkpt lat="48.46786" lon="2.47006">
        <ele>103.96</ele>
        <time>2015-03-04T13:23:49Z</time>
      </trkpt>
      <trkpt lat="48.46775" lon="2.4703">
        <ele>103.96</ele>
        <time>2015-03-04T13:24:05Z</time>
      </trkpt>
      <trkpt lat="48.46766" lon="2.47051">
        <ele>103</ele>
        <time>2015-03-04T13:24:21Z</time>
      </trkpt>
      <trkpt lat="48.46756" lon="2.47071">
        <ele>103.48</ele>
        <time>2015-03-04T13:24:37Z</time>
      </trkpt>
      <trkpt lat="48.46745" lon="2.47092">
        <ele>103.48</ele>
        <time>2015-03-04T13:24:51Z</time>
      </trkpt>
      <trkpt lat="48.46739" lon="2.47106">
        <ele>103</ele>
        <time>2015-03-04T13:25:01Z</time>
      </trkpt>
      <trkpt lat="48.46736" lon="2.47111">
        <ele>103</ele>
        <time>2015-03-04T13:25:06Z</time>
      </trkpt>
      <trkpt lat="48.46726" lon="2.4713">
        <ele>104.44</ele>
        <time>2015-03-04T13:25:21Z</time>
      </trkpt>
      <trkpt lat="48.46714" lon="2.47151">
        <ele>105.4</ele>
        <time>2015-03-04T13:25:38Z</time>
      </trkpt>
      <trkpt lat="48.4671" lon="2.47166">
        <ele>104.92</ele>
        <time>2015-03-04T13:25:53Z</time>
      </trkpt>
      <trkpt lat="48.46698" lon="2.47182">
        <ele>103</ele>
        <time>2015-03-04T13:26:07Z</time>
      </trkpt>
      <trkpt lat="48.46694" lon="2.47183">
        <ele>103</ele>
        <time>2015-03-04T13:26:11Z</time>
      </trkpt>
      <trkpt lat="48.46674" lon="2.47185">
        <ele>102.52</ele>
        <time>2015-03-04T13:26:28Z</time>
      </trkpt>
      <trkpt lat="48.46652" lon="2.47182">
        <ele>102.52</ele>
        <time>2015-03-04T13:26:46Z</time>
      </trkpt>
      <trkpt lat="48.46635" lon="2.47183">
        <ele>103</ele>
        <time>2015-03-04T13:27:02Z</time>
      </trkpt>
      <trkpt lat="48.46617" lon="2.47186">
        <ele>103.96</ele>
        <time>2015-03-04T13:27:19Z</time>
      </trkpt>
      <trkpt lat="48.466" lon="2.47195">
        <ele>103.48</ele>
        <time>2015-03-04T13:27:36Z</time>
      </trkpt>
      <trkpt lat="48.46583" lon="2.47203">
        <ele>103</ele>
        <time>2015-03-04T13:27:52Z</time>
      </trkpt>
      <trkpt lat="48.4656" lon="2.47209">
        <ele>102.52</ele>
        <time>2015-03-04T13:28:09Z</time>
      </trkpt>
      <trkpt lat="48.46539" lon="2.47204">
        <ele>102.52</ele>
        <time>2015-03-04T13:28:26Z</time>
      </trkpt>
      <trkpt lat="48.4652" lon="2.47196">
        <ele>102.04</ele>
        <time>2015-03-04T13:28:44Z</time>
      </trkpt>
      <trkpt lat="48.46501" lon="2.47178">
        <ele>103</ele>
        <time>2015-03-04T13:29:01Z</time>
      </trkpt>
      <trkpt lat="48.46491" lon="2.47173">
        <ele>102.52</ele>
        <time>2015-03-04T13:29:15Z</time>
      </trkpt>
      <trkpt lat="48.46485" lon="2.47174">
        <ele>102.52</ele>
        <time>2015-03-04T13:29:25Z</time>
      </trkpt>
      <trkpt lat="48.46469" lon="2.47184">
        <ele>102.52</ele>
        <time>2015-03-04T13:29:42Z</time>
      </trkpt>
      <trkpt lat="48.46463" lon="2.47189">
        <ele>103</ele>
        <time>2015-03-04T13:29:58Z</time>
      </trkpt>
      <trkpt lat="48.46462" lon="2.47187">
        <ele>102.04</ele>
        <time>2015-03-04T13:30:13Z</time>
      </trkpt>
      <trkpt lat="48.4646" lon="2.47185">
        <ele>101.56</ele>
        <time>2015-03-04T13:30:35Z</time>
      </trkpt>
      <trkpt lat="48.46463" lon="2.47182">
        <ele>101.08</ele>
        <time>2015-03-04T13:30:52Z</time>
      </trkpt>
      <trkpt lat="48.46461" lon="2.47177">
        <ele>101.08</ele>
        <time>2015-03-04T13:31:11Z</time>
      </trkpt>
      <trkpt lat="48.46469" lon="2.47177">
        <ele>101.56</ele>
        <time>2015-03-04T13:31:40Z</time>
      </trkpt>
      <trkpt lat="48.46474" lon="2.47174">
        <ele>101.08</ele>
        <time>2015-03-04T13:32:13Z</time>
      </trkpt>
      <trkpt lat="48.46471" lon="2.47177">
        <ele>101.08</ele>
        <time>2015-03-04T13:32:41Z</time>
      </trkpt>
      <trkpt lat="48.46468" lon="2.4718">
        <ele>101.08</ele>
        <time>2015-03-04T13:33:06Z</time>
      </trkpt>
      <trkpt lat="48.46466" lon="2.47178">
        <ele>100.6</ele>
        <time>2015-03-04T13:33:30Z</time>
      </trkpt>
      <trkpt lat="48.46467" lon="2.47183">
        <ele>101.08</ele>
        <time>2015-03-04T13:34:03Z</time>
      </trkpt>
      <trkpt lat="48.46468" lon="2.47184">
        <ele>101.08</ele>
        <time>2015-03-04T13:34:38Z</time>
      </trkpt>
      <trkpt lat="48.46471" lon="2.47184">
        <ele>101.08</ele>
        <time>2015-03-04T13:35:14Z</time>
      </trkpt>
      <trkpt lat="48.46472" lon="2.47184">
        <ele>101.56</ele>
        <time>2015-03-04T13:35:42Z</time>
      </trkpt>
      <trkpt lat="48.46458" lon="2.47193">
        <ele>103</ele>
        <time>2015-03-04T13:35:55Z</time>
      </trkpt>
      <trkpt lat="48.46447" lon="2.47207">
        <ele>102.52</ele>
        <time>2015-03-04T13:36:10Z</time>
      </trkpt>
      <trkpt lat="48.46436" lon="2.47221">
        <ele>102.52</ele>
        <time>2015-03-04T13:36:24Z</time>
      </trkpt>
      <trkpt lat="48.46423" lon="2.47239">
        <ele>102.52</ele>
        <time>2015-03-04T13:36:40Z</time>
      </trkpt>
      <trkpt lat="48.46413" lon="2.47258">
        <ele>102.52</ele>
        <time>2015-03-04T13:36:57Z</time>
      </trkpt>
      <trkpt lat="48.46408" lon="2.47271">
        <ele>102.04</ele>
        <time>2015-03-04T13:37:10Z</time>
      </trkpt>
      <trkpt lat="48.46394" lon="2.47283">
        <ele>101.08</ele>
        <time>2015-03-04T13:37:25Z</time>
      </trkpt>
      <trkpt lat="48.46376" lon="2.47295">
        <ele>99.63</ele>
        <time>2015-03-04T13:37:44Z</time>
      </trkpt>
      <trkpt lat="48.46363" lon="2.47307">
        <ele>98.19</ele>
        <time>2015-03-04T13:38:00Z</time>
      </trkpt>
      <trkpt lat="48.46349" lon="2.4732">
        <ele>97.23</ele>
        <time>2015-03-04T13:38:14Z</time>
      </trkpt>
      <trkpt lat="48.46347" lon="2.47322">
        <ele>97.23</ele>
        <time>2015-03-04T13:38:16Z</time>
      </trkpt>
      <trkpt lat="48.46328" lon="2.47338">
        <ele>96.27</ele>
        <time>2015-03-04T13:38:36Z</time>
      </trkpt>
      <trkpt lat="48.46326" lon="2.47341">
        <ele>96.27</ele>
        <time>2015-03-04T13:38:39Z</time>
      </trkpt>
      <trkpt lat="48.46323" lon="2.47344">
        <ele>96.27</ele>
        <time>2015-03-04T13:38:42Z</time>
      </trkpt>
      <trkpt lat="48.4632" lon="2.47347">
        <ele>96.27</ele>
        <time>2015-03-04T13:38:44Z</time>
      </trkpt>
      <trkpt lat="48.46313" lon="2.47355">
        <ele>95.79</ele>
        <time>2015-03-04T13:38:52Z</time>
      </trkpt>
      <trkpt lat="48.46307" lon="2.4736">
        <ele>95.79</ele>
        <time>2015-03-04T13:38:57Z</time>
      </trkpt>
      <trkpt lat="48.46291" lon="2.47377">
        <ele>94.83</ele>
        <time>2015-03-04T13:39:16Z</time>
      </trkpt>
      <trkpt lat="48.46277" lon="2.47394">
        <ele>93.39</ele>
        <time>2015-03-04T13:39:32Z</time>
      </trkpt>
      <trkpt lat="48.46269" lon="2.47402">
        <ele>92.9</ele>
        <time>2015-03-04T13:39:41Z</time>
      </trkpt>
      <trkpt lat="48.46252" lon="2.47417">
        <ele>92.9</ele>
        <time>2015-03-04T13:39:59Z</time>
      </trkpt>
      <trkpt lat="48.4624" lon="2.47431">
        <ele>92.42</ele>
        <time>2015-03-04T13:40:14Z</time>
      </trkpt>
      <trkpt lat="48.46236" lon="2.47435">
        <ele>92.42</ele>
        <time>2015-03-04T13:40:18Z</time>
      </trkpt>
      <trkpt lat="48.46229" lon="2.47445">
        <ele>91.94</ele>
        <time>2015-03-04T13:40:28Z</time>
      </trkpt>
      <trkpt lat="48.46225" lon="2.47451">
        <ele>91.46</ele>
        <time>2015-03-04T13:40:35Z</time>
      </trkpt>
      <trkpt lat="48.4622" lon="2.4745">
        <ele>91.46</ele>
        <time>2015-03-04T13:40:41Z</time>
      </trkpt>
      <trkpt lat="48.46218" lon="2.47449">
        <ele>91.46</ele>
        <time>2015-03-04T13:40:56Z</time>
      </trkpt>
      <trkpt lat="48.46216" lon="2.47453">
        <ele>91.46</ele>
        <time>2015-03-04T13:41:09Z</time>
      </trkpt>
      <trkpt lat="48.46214" lon="2.47459">
        <ele>91.46</ele>
        <time>2015-03-04T13:41:21Z</time>
      </trkpt>
      <trkpt lat="48.46212" lon="2.47467">
        <ele>91.94</ele>
        <time>2015-03-04T13:41:39Z</time>
      </trkpt>
      <trkpt lat="48.4621" lon="2.47469">
        <ele>91.94</ele>
        <time>2015-03-04T13:41:42Z</time>
      </trkpt>
      <trkpt lat="48.46207" lon="2.47471">
        <ele>91.94</ele>
        <time>2015-03-04T13:41:48Z</time>
      </trkpt>
      <trkpt lat="48.46205" lon="2.47472">
        <ele>92.42</ele>
        <time>2015-03-04T13:41:50Z</time>
      </trkpt>
      <trkpt lat="48.46191" lon="2.47484">
        <ele>91.94</ele>
        <time>2015-03-04T13:42:06Z</time>
      </trkpt>
      <trkpt lat="48.46175" lon="2.47499">
        <ele>91.46</ele>
        <time>2015-03-04T13:42:24Z</time>
      </trkpt>
      <trkpt lat="48.46156" lon="2.4752">
        <ele>90.98</ele>
        <time>2015-03-04T13:42:45Z</time>
      </trkpt>
      <trkpt lat="48.46139" lon="2.47538">
        <ele>90.5</ele>
        <time>2015-03-04T13:43:03Z</time>
      </trkpt>
      <trkpt lat="48.4612" lon="2.47556">
        <ele>89.54</ele>
        <time>2015-03-04T13:43:21Z</time>
      </trkpt>
      <trkpt lat="48.46115" lon="2.4756">
        <ele>89.54</ele>
        <time>2015-03-04T13:43:26Z</time>
      </trkpt>
      <trkpt lat="48.46099" lon="2.47576">
        <ele>88.58</ele>
        <time>2015-03-04T13:43:43Z</time>
      </trkpt>
      <trkpt lat="48.46094" lon="2.47582">
        <ele>89.06</ele>
        <time>2015-03-04T13:43:50Z</time>
      </trkpt>
      <trkpt lat="48.46078" lon="2.47599">
        <ele>88.58</ele>
        <time>2015-03-04T13:44:09Z</time>
      </trkpt>
      <trkpt lat="48.46063" lon="2.47615">
        <ele>88.1</ele>
        <time>2015-03-04T13:44:26Z</time>
      </trkpt>
      <trkpt lat="48.46058" lon="2.4762">
        <ele>88.1</ele>
        <time>2015-03-04T13:44:31Z</time>
      </trkpt>
      <trkpt lat="48.46044" lon="2.47635">
        <ele>87.14</ele>
        <time>2015-03-04T13:44:47Z</time>
      </trkpt>
      <trkpt lat="48.46029" lon="2.4765">
        <ele>86.66</ele>
        <time>2015-03-04T13:45:04Z</time>
      </trkpt>
      <trkpt lat="48.46026" lon="2.47652">
        <ele>86.66</ele>
        <time>2015-03-04T13:45:08Z</time>
      </trkpt>
      <trkpt lat="48.46009" lon="2.47668">
        <ele>84.73</ele>
        <time>2015-03-04T13:45:25Z</time>
      </trkpt>
      <trkpt lat="48.45994" lon="2.47684">
        <ele>83.29</ele>
        <time>2015-03-04T13:45:41Z</time>
      </trkpt>
      <trkpt lat="48.4598" lon="2.47696">
        <ele>82.81</ele>
        <time>2015-03-04T13:45:57Z</time>
      </trkpt>
      <trkpt lat="48.45978" lon="2.47698">
        <ele>82.81</ele>
        <time>2015-03-04T13:45:59Z</time>
      </trkpt>
      <trkpt lat="48.45972" lon="2.47707">
        <ele>81.85</ele>
        <time>2015-03-04T13:46:07Z</time>
      </trkpt>
      <trkpt lat="48.45958" lon="2.47722">
        <ele>80.89</ele>
        <time>2015-03-04T13:46:24Z</time>
      </trkpt>
      <trkpt lat="48.45952" lon="2.4773">
        <ele>80.41</ele>
        <time>2015-03-04T13:46:31Z</time>
      </trkpt>
      <trkpt lat="48.45947" lon="2.47737">
        <ele>79.93</ele>
        <time>2015-03-04T13:46:38Z</time>
      </trkpt>
      <trkpt lat="48.45938" lon="2.47745">
        <ele>78.97</ele>
        <time>2015-03-04T13:46:48Z</time>
      </trkpt>
      <trkpt lat="48.45937" lon="2.47747">
        <ele>78.48</ele>
        <time>2015-03-04T13:46:50Z</time>
      </trkpt>
      <trkpt lat="48.45923" lon="2.47763">
        <ele>78.48</ele>
        <time>2015-03-04T13:47:07Z</time>
      </trkpt>
      <trkpt lat="48.45905" lon="2.4778">
        <ele>76.56</ele>
        <time>2015-03-04T13:47:24Z</time>
      </trkpt>
      <trkpt lat="48.45898" lon="2.47788">
        <ele>75.12</ele>
        <time>2015-03-04T13:47:35Z</time>
      </trkpt>
      <trkpt lat="48.45898" lon="2.47786">
        <ele>75.12</ele>
        <time>2015-03-04T13:47:58Z</time>
      </trkpt>
      <trkpt lat="48.45897" lon="2.47785">
        <ele>76.08</ele>
        <time>2015-03-04T13:48:06Z</time>
      </trkpt>
      <trkpt lat="48.45896" lon="2.47785">
        <ele>76.08</ele>
        <time>2015-03-04T13:48:18Z</time>
      </trkpt>
      <trkpt lat="48.45875" lon="2.4781">
        <ele>74.64</ele>
        <time>2015-03-04T13:48:37Z</time>
      </trkpt>
      <trkpt lat="48.45855" lon="2.47831">
        <ele>73.2</ele>
        <time>2015-03-04T13:48:56Z</time>
      </trkpt>
      <trkpt lat="48.45851" lon="2.47835">
        <ele>73.2</ele>
        <time>2015-03-04T13:49:01Z</time>
      </trkpt>
      <trkpt lat="48.4583" lon="2.47857">
        <ele>71.76</ele>
        <time>2015-03-04T13:49:22Z</time>
      </trkpt>
      <trkpt lat="48.45807" lon="2.47879">
        <ele>71.76</ele>
        <time>2015-03-04T13:49:42Z</time>
      </trkpt>
      <trkpt lat="48.45788" lon="2.47899">
        <ele>71.27</ele>
        <time>2015-03-04T13:50:00Z</time>
      </trkpt>
      <trkpt lat="48.45769" lon="2.47921">
        <ele>71.27</ele>
        <time>2015-03-04T13:50:19Z</time>
      </trkpt>
      <trkpt lat="48.45751" lon="2.47939">
        <ele>71.27</ele>
        <time>2015-03-04T13:50:36Z</time>
      </trkpt>
      <trkpt lat="48.45727" lon="2.47964">
        <ele>71.76</ele>
        <time>2015-03-04T13:50:58Z</time>
      </trkpt>
      <trkpt lat="48.45713" lon="2.47978">
        <ele>71.76</ele>
        <time>2015-03-04T13:51:16Z</time>
      </trkpt>
      <trkpt lat="48.4571" lon="2.47982">
        <ele>71.76</ele>
        <time>2015-03-04T13:51:36Z</time>
      </trkpt>
      <trkpt lat="48.457" lon="2.47989">
        <ele>71.27</ele>
        <time>2015-03-04T13:51:50Z</time>
      </trkpt>
      <trkpt lat="48.45698" lon="2.47988">
        <ele>71.27</ele>
        <time>2015-03-04T13:51:53Z</time>
      </trkpt>
      <trkpt lat="48.4569" lon="2.47984">
        <ele>71.27</ele>
        <time>2015-03-04T13:52:05Z</time>
      </trkpt>
      <trkpt lat="48.45677" lon="2.47977">
        <ele>72.24</ele>
        <time>2015-03-04T13:52:20Z</time>
      </trkpt>
      <trkpt lat="48.45665" lon="2.47968">
        <ele>73.68</ele>
        <time>2015-03-04T13:52:35Z</time>
      </trkpt>
      <trkpt lat="48.45651" lon="2.47959">
        <ele>73.68</ele>
        <time>2015-03-04T13:52:50Z</time>
      </trkpt>
      <trkpt lat="48.45634" lon="2.47953">
        <ele>73.68</ele>
        <time>2015-03-04T13:53:06Z</time>
      </trkpt>
      <trkpt lat="48.4562" lon="2.47943">
        <ele>74.16</ele>
        <time>2015-03-04T13:53:21Z</time>
      </trkpt>
      <trkpt lat="48.45616" lon="2.4794">
        <ele>74.16</ele>
        <time>2015-03-04T13:53:25Z</time>
      </trkpt>
      <trkpt lat="48.45594" lon="2.47929">
        <ele>72.72</ele>
        <time>2015-03-04T13:53:46Z</time>
      </trkpt>
      <trkpt lat="48.45588" lon="2.47927">
        <ele>71.76</ele>
        <time>2015-03-04T13:54:01Z</time>
      </trkpt>
      <trkpt lat="48.45583" lon="2.47924">
        <ele>70.79</ele>
        <time>2015-03-04T13:54:14Z</time>
      </trkpt>
      <trkpt lat="48.45579" lon="2.47928">
        <ele>70.79</ele>
        <time>2015-03-04T13:54:26Z</time>
      </trkpt>
      <trkpt lat="48.45579" lon="2.47931">
        <ele>70.31</ele>
        <time>2015-03-04T13:54:28Z</time>
      </trkpt>
      <trkpt lat="48.45564" lon="2.47946">
        <ele>69.35</ele>
        <time>2015-03-04T13:54:45Z</time>
      </trkpt>
      <trkpt lat="48.45554" lon="2.47961">
        <ele>68.39</ele>
        <time>2015-03-04T13:54:59Z</time>
      </trkpt>
      <trkpt lat="48.4555" lon="2.47964">
        <ele>68.39</ele>
        <time>2015-03-04T13:55:03Z</time>
      </trkpt>
      <trkpt lat="48.45548" lon="2.47965">
        <ele>68.39</ele>
        <time>2015-03-04T13:55:05Z</time>
      </trkpt>
      <trkpt lat="48.4554" lon="2.47971">
        <ele>67.43</ele>
        <time>2015-03-04T13:55:20Z</time>
      </trkpt>
      <trkpt lat="48.45532" lon="2.47976">
        <ele>66.95</ele>
        <time>2015-03-04T13:55:28Z</time>
      </trkpt>
      <trkpt lat="48.45515" lon="2.4799">
        <ele>65.51</ele>
        <time>2015-03-04T13:55:47Z</time>
      </trkpt>
      <trkpt lat="48.45505" lon="2.47999">
        <ele>65.03</ele>
        <time>2015-03-04T13:56:01Z</time>
      </trkpt>
      <trkpt lat="48.4549" lon="2.48011">
        <ele>64.07</ele>
        <time>2015-03-04T13:56:18Z</time>
      </trkpt>
      <trkpt lat="48.45485" lon="2.48016">
        <ele>63.58</ele>
        <time>2015-03-04T13:56:24Z</time>
      </trkpt>
      <trkpt lat="48.45474" lon="2.48005">
        <ele>63.58</ele>
        <time>2015-03-04T13:56:39Z</time>
      </trkpt>
      <trkpt lat="48.45468" lon="2.47987">
        <ele>64.07</ele>
        <time>2015-03-04T13:56:55Z</time>
      </trkpt>
      <trkpt lat="48.4546" lon="2.47975">
        <ele>64.07</ele>
        <time>2015-03-04T13:57:11Z</time>
      </trkpt>
      <trkpt lat="48.45456" lon="2.47963">
        <ele>64.07</ele>
        <time>2015-03-04T13:57:22Z</time>
      </trkpt>
      <trkpt lat="48.45447" lon="2.47939">
        <ele>64.07</ele>
        <time>2015-03-04T13:57:39Z</time>
      </trkpt>
      <trkpt lat="48.45442" lon="2.47927">
        <ele>63.58</ele>
        <time>2015-03-04T13:57:47Z</time>
      </trkpt>
      <trkpt lat="48.45426" lon="2.47907">
        <ele>64.07</ele>
        <time>2015-03-04T13:58:04Z</time>
      </trkpt>
      <trkpt lat="48.45417" lon="2.47898">
        <ele>64.07</ele>
        <time>2015-03-04T13:58:14Z</time>
      </trkpt>
      <trkpt lat="48.45401" lon="2.4788">
        <ele>65.03</ele>
        <time>2015-03-04T13:58:32Z</time>
      </trkpt>
      <trkpt lat="48.45385" lon="2.47859">
        <ele>63.58</ele>
        <time>2015-03-04T13:58:50Z</time>
      </trkpt>
      <trkpt lat="48.45368" lon="2.47839">
        <ele>64.55</ele>
        <time>2015-03-04T13:59:08Z</time>
      </trkpt>
      <trkpt lat="48.45356" lon="2.47825">
        <ele>63.1</ele>
        <time>2015-03-04T13:59:23Z</time>
      </trkpt>
      <trkpt lat="48.45337" lon="2.47806">
        <ele>63.58</ele>
        <time>2015-03-04T13:59:41Z</time>
      </trkpt>
      <trkpt lat="48.4532" lon="2.47786">
        <ele>62.62</ele>
        <time>2015-03-04T13:59:58Z</time>
      </trkpt>
      <trkpt lat="48.45302" lon="2.47775">
        <ele>62.62</ele>
        <time>2015-03-04T14:00:16Z</time>
      </trkpt>
      <trkpt lat="48.45298" lon="2.47772">
        <ele>62.62</ele>
        <time>2015-03-04T14:00:20Z</time>
      </trkpt>
      <trkpt lat="48.45283" lon="2.47766">
        <ele>62.62</ele>
        <time>2015-03-04T14:00:36Z</time>
      </trkpt>
      <trkpt lat="48.45261" lon="2.47746">
        <ele>62.62</ele>
        <time>2015-03-04T14:00:57Z</time>
      </trkpt>
      <trkpt lat="48.45245" lon="2.47736">
        <ele>62.62</ele>
        <time>2015-03-04T14:01:13Z</time>
      </trkpt>
      <trkpt lat="48.45233" lon="2.47717">
        <ele>62.62</ele>
        <time>2015-03-04T14:01:28Z</time>
      </trkpt>
      <trkpt lat="48.4523" lon="2.47713">
        <ele>62.62</ele>
        <time>2015-03-04T14:01:32Z</time>
      </trkpt>
      <trkpt lat="48.45221" lon="2.4769">
        <ele>62.62</ele>
        <time>2015-03-04T14:01:49Z</time>
      </trkpt>
      <trkpt lat="48.4521" lon="2.47667">
        <ele>62.62</ele>
        <time>2015-03-04T14:02:07Z</time>
      </trkpt>
      <trkpt lat="48.45195" lon="2.47689">
        <ele>62.14</ele>
        <time>2015-03-04T14:02:24Z</time>
      </trkpt>
      <trkpt lat="48.45182" lon="2.47713">
        <ele>62.14</ele>
        <time>2015-03-04T14:02:42Z</time>
      </trkpt>
      <trkpt lat="48.45169" lon="2.47735">
        <ele>61.66</ele>
        <time>2015-03-04T14:02:59Z</time>
      </trkpt>
      <trkpt lat="48.45156" lon="2.47756">
        <ele>61.66</ele>
        <time>2015-03-04T14:03:16Z</time>
      </trkpt>
      <trkpt lat="48.45152" lon="2.47767">
        <ele>62.14</ele>
        <time>2015-03-04T14:03:32Z</time>
      </trkpt>
      <trkpt lat="48.45147" lon="2.47768">
        <ele>61.66</ele>
        <time>2015-03-04T14:03:41Z</time>
      </trkpt>
      <trkpt lat="48.45142" lon="2.47765">
        <ele>61.66</ele>
        <time>2015-03-04T14:03:46Z</time>
      </trkpt>
      <trkpt lat="48.45135" lon="2.47753">
        <ele>61.66</ele>
        <time>2015-03-04T14:04:01Z</time>
      </trkpt>
      <trkpt lat="48.45125" lon="2.47739">
        <ele>61.18</ele>
        <time>2015-03-04T14:04:16Z</time>
      </trkpt>
      <trkpt lat="48.45116" lon="2.47723">
        <ele>61.18</ele>
        <time>2015-03-04T14:04:30Z</time>
      </trkpt>
      <trkpt lat="48.45105" lon="2.4771">
        <ele>61.18</ele>
        <time>2015-03-04T14:04:46Z</time>
      </trkpt>
      <trkpt lat="48.45091" lon="2.47695">
        <ele>61.18</ele>
        <time>2015-03-04T14:05:03Z</time>
      </trkpt>
      <trkpt lat="48.4508" lon="2.47694">
        <ele>62.14</ele>
        <time>2015-03-04T14:05:19Z</time>
      </trkpt>
      <trkpt lat="48.45067" lon="2.47697">
        <ele>64.07</ele>
        <time>2015-03-04T14:05:34Z</time>
      </trkpt>
      <trkpt lat="48.45057" lon="2.47695">
        <ele>64.07</ele>
        <time>2015-03-04T14:05:47Z</time>
      </trkpt>
      <trkpt lat="48.45046" lon="2.47693">
        <ele>64.55</ele>
        <time>2015-03-04T14:06:01Z</time>
      </trkpt>
      <trkpt lat="48.45038" lon="2.47693">
        <ele>65.03</ele>
        <time>2015-03-04T14:06:16Z</time>
      </trkpt>
      <trkpt lat="48.45033" lon="2.47695">
        <ele>65.99</ele>
        <time>2015-03-04T14:06:30Z</time>
      </trkpt>
      <trkpt lat="48.45022" lon="2.47684">
        <ele>66.47</ele>
        <time>2015-03-04T14:06:44Z</time>
      </trkpt>
      <trkpt lat="48.45015" lon="2.47671">
        <ele>66.47</ele>
        <time>2015-03-04T14:07:00Z</time>
      </trkpt>
      <trkpt lat="48.45" lon="2.47653">
        <ele>65.99</ele>
        <time>2015-03-04T14:07:18Z</time>
      </trkpt>
      <trkpt lat="48.4499" lon="2.47638">
        <ele>65.99</ele>
        <time>2015-03-04T14:07:33Z</time>
      </trkpt>
      <trkpt lat="48.44979" lon="2.47625">
        <ele>66.47</ele>
        <time>2015-03-04T14:07:48Z</time>
      </trkpt>
      <trkpt lat="48.44964" lon="2.47619">
        <ele>66.47</ele>
        <time>2015-03-04T14:08:01Z</time>
      </trkpt>
      <trkpt lat="48.44959" lon="2.47619">
        <ele>66.47</ele>
        <time>2015-03-04T14:08:19Z</time>
      </trkpt>
      <trkpt lat="48.44958" lon="2.47614">
        <ele>66.47</ele>
        <time>2015-03-04T14:08:42Z</time>
      </trkpt>
      <trkpt lat="48.44959" lon="2.47615">
        <ele>66.47</ele>
        <time>2015-03-04T14:09:09Z</time>
      </trkpt>
      <trkpt lat="48.44961" lon="2.47616">
        <ele>66.47</ele>
        <time>2015-03-04T14:09:38Z</time>
      </trkpt>
      <trkpt lat="48.44959" lon="2.47614">
        <ele>66.47</ele>
        <time>2015-03-04T14:10:02Z</time>
      </trkpt>
      <trkpt lat="48.44962" lon="2.47613">
        <ele>66.47</ele>
        <time>2015-03-04T14:10:31Z</time>
      </trkpt>
      <trkpt lat="48.44961" lon="2.47614">
        <ele>66.47</ele>
        <time>2015-03-04T14:10:58Z</time>
      </trkpt>
      <trkpt lat="48.44964" lon="2.47618">
        <ele>66.95</ele>
        <time>2015-03-04T14:11:24Z</time>
      </trkpt>
      <trkpt lat="48.44961" lon="2.47614">
        <ele>66.95</ele>
        <time>2015-03-04T14:11:51Z</time>
      </trkpt>
      <trkpt lat="48.44955" lon="2.476">
        <ele>66.47</ele>
        <time>2015-03-04T14:12:05Z</time>
      </trkpt>
      <trkpt lat="48.44941" lon="2.47588">
        <ele>66.47</ele>
        <time>2015-03-04T14:12:21Z</time>
      </trkpt>
      <trkpt lat="48.44925" lon="2.4758">
        <ele>66.47</ele>
        <time>2015-03-04T14:12:36Z</time>
      </trkpt>
      <trkpt lat="48.44904" lon="2.4758">
        <ele>66.95</ele>
        <time>2015-03-04T14:12:52Z</time>
      </trkpt>
      <trkpt lat="48.44888" lon="2.47578">
        <ele>67.91</ele>
        <time>2015-03-04T14:13:07Z</time>
      </trkpt>
      <trkpt lat="48.44872" lon="2.47576">
        <ele>67.91</ele>
        <time>2015-03-04T14:13:23Z</time>
      </trkpt>
      <trkpt lat="48.44852" lon="2.47575">
        <ele>68.87</ele>
        <time>2015-03-04T14:13:39Z</time>
      </trkpt>
      <trkpt lat="48.44835" lon="2.47571">
        <ele>69.35</ele>
        <time>2015-03-04T14:13:53Z</time>
      </trkpt>
      <trkpt lat="48.44818" lon="2.47568">
        <ele>69.35</ele>
        <time>2015-03-04T14:14:09Z</time>
      </trkpt>
      <trkpt lat="48.44811" lon="2.47567">
        <ele>69.35</ele>
        <time>2015-03-04T14:14:15Z</time>
      </trkpt>
      <trkpt lat="48.44796" lon="2.47563">
        <ele>69.83</ele>
        <time>2015-03-04T14:14:29Z</time>
      </trkpt>
      <trkpt lat="48.44788" lon="2.47561">
        <ele>69.35</ele>
        <time>2015-03-04T14:14:37Z</time>
      </trkpt>
      <trkpt lat="48.44772" lon="2.47561">
        <ele>69.83</ele>
        <time>2015-03-04T14:14:53Z</time>
      </trkpt>
      <trkpt lat="48.44767" lon="2.47561">
        <ele>69.83</ele>
        <time>2015-03-04T14:14:58Z</time>
      </trkpt>
      <trkpt lat="48.44745" lon="2.47562">
        <ele>69.83</ele>
        <time>2015-03-04T14:15:15Z</time>
      </trkpt>
      <trkpt lat="48.44734" lon="2.47577">
        <ele>71.27</ele>
        <time>2015-03-04T14:15:29Z</time>
      </trkpt>
      <trkpt lat="48.44722" lon="2.47592">
        <ele>72.24</ele>
        <time>2015-03-04T14:15:45Z</time>
      </trkpt>
      <trkpt lat="48.44714" lon="2.47608">
        <ele>73.68</ele>
        <time>2015-03-04T14:15:59Z</time>
      </trkpt>
      <trkpt lat="48.44703" lon="2.47625">
        <ele>74.64</ele>
        <time>2015-03-04T14:16:15Z</time>
      </trkpt>
      <trkpt lat="48.44694" lon="2.47643">
        <ele>75.12</ele>
        <time>2015-03-04T14:16:31Z</time>
      </trkpt>
      <trkpt lat="48.44684" lon="2.47659">
        <ele>75.6</ele>
        <time>2015-03-04T14:16:46Z</time>
      </trkpt>
      <trkpt lat="48.44675" lon="2.47673">
        <ele>77.04</ele>
        <time>2015-03-04T14:17:00Z</time>
      </trkpt>
      <trkpt lat="48.44672" lon="2.47678">
        <ele>77.52</ele>
        <time>2015-03-04T14:17:04Z</time>
      </trkpt>
      <trkpt lat="48.44656" lon="2.47672">
        <ele>76.56</ele>
        <time>2015-03-04T14:17:20Z</time>
      </trkpt>
      <trkpt lat="48.44655" lon="2.47673">
        <ele>76.56</ele>
        <time>2015-03-04T14:17:22Z</time>
      </trkpt>
      <trkpt lat="48.44644" lon="2.47669">
        <ele>76.08</ele>
        <time>2015-03-04T14:17:37Z</time>
      </trkpt>
      <trkpt lat="48.44633" lon="2.47656">
        <ele>75.6</ele>
        <time>2015-03-04T14:17:51Z</time>
      </trkpt>
      <trkpt lat="48.44621" lon="2.47635">
        <ele>74.16</ele>
        <time>2015-03-04T14:18:08Z</time>
      </trkpt>
      <trkpt lat="48.44613" lon="2.47614">
        <ele>73.2</ele>
        <time>2015-03-04T14:18:24Z</time>
      </trkpt>
      <trkpt lat="48.44607" lon="2.47594">
        <ele>72.72</ele>
        <time>2015-03-04T14:18:42Z</time>
      </trkpt>
      <trkpt lat="48.44588" lon="2.47571">
        <ele>71.27</ele>
        <time>2015-03-04T14:19:01Z</time>
      </trkpt>
      <trkpt lat="48.44579" lon="2.47558">
        <ele>70.79</ele>
        <time>2015-03-04T14:19:13Z</time>
      </trkpt>
      <trkpt lat="48.44572" lon="2.47541">
        <ele>70.31</ele>
        <time>2015-03-04T14:19:28Z</time>
      </trkpt>
      <trkpt lat="48.44553" lon="2.47521">
        <ele>69.35</ele>
        <time>2015-03-04T14:19:43Z</time>
      </trkpt>
      <trkpt lat="48.44544" lon="2.47504">
        <ele>68.87</ele>
        <time>2015-03-04T14:19:57Z</time>
      </trkpt>
      <trkpt lat="48.44525" lon="2.47483">
        <ele>68.39</ele>
        <time>2015-03-04T14:20:15Z</time>
      </trkpt>
      <trkpt lat="48.44517" lon="2.47471">
        <ele>68.39</ele>
        <time>2015-03-04T14:20:28Z</time>
      </trkpt>
      <trkpt lat="48.44515" lon="2.47468">
        <ele>68.39</ele>
        <time>2015-03-04T14:20:30Z</time>
      </trkpt>
      <trkpt lat="48.44491" lon="2.47445">
        <ele>67.91</ele>
        <time>2015-03-04T14:20:47Z</time>
      </trkpt>
      <trkpt lat="48.44481" lon="2.47426">
        <ele>67.43</ele>
        <time>2015-03-04T14:21:03Z</time>
      </trkpt>
      <trkpt lat="48.44469" lon="2.47408">
        <ele>66.95</ele>
        <time>2015-03-04T14:21:19Z</time>
      </trkpt>
      <trkpt lat="48.44459" lon="2.47391">
        <ele>66.95</ele>
        <time>2015-03-04T14:21:34Z</time>
      </trkpt>
      <trkpt lat="48.44441" lon="2.4737">
        <ele>66.95</ele>
        <time>2015-03-04T14:21:51Z</time>
      </trkpt>
      <trkpt lat="48.44431" lon="2.47352">
        <ele>66.95</ele>
        <time>2015-03-04T14:22:05Z</time>
      </trkpt>
      <trkpt lat="48.44425" lon="2.47335">
        <ele>67.43</ele>
        <time>2015-03-04T14:22:20Z</time>
      </trkpt>
      <trkpt lat="48.4442" lon="2.4732">
        <ele>67.43</ele>
        <time>2015-03-04T14:22:33Z</time>
      </trkpt>
      <trkpt lat="48.44407" lon="2.47302">
        <ele>67.43</ele>
        <time>2015-03-04T14:22:48Z</time>
      </trkpt>
      <trkpt lat="48.4439" lon="2.47286">
        <ele>67.91</ele>
        <time>2015-03-04T14:23:03Z</time>
      </trkpt>
      <trkpt lat="48.44372" lon="2.47275">
        <ele>67.43</ele>
        <time>2015-03-04T14:23:16Z</time>
      </trkpt>
      <trkpt lat="48.44349" lon="2.47269">
        <ele>67.43</ele>
        <time>2015-03-04T14:23:30Z</time>
      </trkpt>
      <trkpt lat="48.44339" lon="2.47274">
        <ele>67.43</ele>
        <time>2015-03-04T14:23:45Z</time>
      </trkpt>
      <trkpt lat="48.44337" lon="2.47281">
        <ele>67.91</ele>
        <time>2015-03-04T14:23:59Z</time>
      </trkpt>
      <trkpt lat="48.44336" lon="2.47294">
        <ele>68.87</ele>
        <time>2015-03-04T14:24:12Z</time>
      </trkpt>
      <trkpt lat="48.44334" lon="2.47313">
        <ele>69.83</ele>
        <time>2015-03-04T14:24:28Z</time>
      </trkpt>
      <trkpt lat="48.44333" lon="2.47316">
        <ele>69.83</ele>
        <time>2015-03-04T14:24:30Z</time>
      </trkpt>
      <trkpt lat="48.44324" lon="2.47335">
        <ele>70.79</ele>
        <time>2015-03-04T14:24:47Z</time>
      </trkpt>
      <trkpt lat="48.44319" lon="2.47344">
        <ele>71.27</ele>
        <time>2015-03-04T14:24:55Z</time>
      </trkpt>
      <trkpt lat="48.44311" lon="2.47362">
        <ele>71.76</ele>
        <time>2015-03-04T14:25:10Z</time>
      </trkpt>
      <trkpt lat="48.44305" lon="2.47373">
        <ele>72.24</ele>
        <time>2015-03-04T14:25:19Z</time>
      </trkpt>
      <trkpt lat="48.44296" lon="2.4739">
        <ele>72.72</ele>
        <time>2015-03-04T14:25:34Z</time>
      </trkpt>
      <trkpt lat="48.4427" lon="2.47404">
        <ele>73.68</ele>
        <time>2015-03-04T14:25:47Z</time>
      </trkpt>
      <trkpt lat="48.44231" lon="2.47418">
        <ele>74.64</ele>
        <time>2015-03-04T14:26:03Z</time>
      </trkpt>
      <trkpt lat="48.4422" lon="2.47434">
        <ele>75.12</ele>
        <time>2015-03-04T14:26:18Z</time>
      </trkpt>
      <trkpt lat="48.44218" lon="2.47437">
        <ele>75.6</ele>
        <time>2015-03-04T14:26:21Z</time>
      </trkpt>
      <trkpt lat="48.44214" lon="2.47442">
        <ele>76.08</ele>
        <time>2015-03-04T14:26:25Z</time>
      </trkpt>
      <trkpt lat="48.44213" lon="2.47444">
        <ele>76.08</ele>
        <time>2015-03-04T14:26:27Z</time>
      </trkpt>
      <trkpt lat="48.442" lon="2.47461">
        <ele>76.56</ele>
        <time>2015-03-04T14:26:43Z</time>
      </trkpt>
      <trkpt lat="48.44196" lon="2.47467">
        <ele>77.52</ele>
        <time>2015-03-04T14:26:50Z</time>
      </trkpt>
      <trkpt lat="48.44187" lon="2.47475">
        <ele>78</ele>
        <time>2015-03-04T14:27:05Z</time>
      </trkpt>
      <trkpt lat="48.44178" lon="2.47482">
        <ele>78</ele>
        <time>2015-03-04T14:27:17Z</time>
      </trkpt>
      <trkpt lat="48.44167" lon="2.47472">
        <ele>78.48</ele>
        <time>2015-03-04T14:27:30Z</time>
      </trkpt>
      <trkpt lat="48.4415" lon="2.4746">
        <ele>78</ele>
        <time>2015-03-04T14:27:48Z</time>
      </trkpt>
      <trkpt lat="48.44137" lon="2.4745">
        <ele>77.52</ele>
        <time>2015-03-04T14:28:03Z</time>
      </trkpt>
      <trkpt lat="48.44136" lon="2.47449">
        <ele>77.52</ele>
        <time>2015-03-04T14:28:15Z</time>
      </trkpt>
      <trkpt lat="48.44132" lon="2.47449">
        <ele>77.04</ele>
        <time>2015-03-04T14:28:32Z</time>
      </trkpt>
      <trkpt lat="48.44115" lon="2.47434">
        <ele>77.04</ele>
        <time>2015-03-04T14:28:51Z</time>
      </trkpt>
      <trkpt lat="48.44115" lon="2.4743">
        <ele>77.04</ele>
        <time>2015-03-04T14:28:54Z</time>
      </trkpt>
      <trkpt lat="48.4411" lon="2.47423">
        <ele>77.04</ele>
        <time>2015-03-04T14:29:00Z</time>
      </trkpt>
      <trkpt lat="48.44101" lon="2.47418">
        <ele>77.04</ele>
        <time>2015-03-04T14:29:05Z</time>
      </trkpt>
      <trkpt lat="48.44088" lon="2.47419">
        <ele>76.56</ele>
        <time>2015-03-04T14:29:17Z</time>
      </trkpt>
      <trkpt lat="48.4407" lon="2.47403">
        <ele>76.08</ele>
        <time>2015-03-04T14:29:36Z</time>
      </trkpt>
      <trkpt lat="48.44063" lon="2.47393">
        <ele>75.12</ele>
        <time>2015-03-04T14:29:43Z</time>
      </trkpt>
      <trkpt lat="48.44064" lon="2.47381">
        <ele>74.64</ele>
        <time>2015-03-04T14:29:50Z</time>
      </trkpt>
      <trkpt lat="48.44066" lon="2.47378">
        <ele>74.64</ele>
        <time>2015-03-04T14:29:53Z</time>
      </trkpt>
      <trkpt lat="48.4407" lon="2.47355">
        <ele>73.68</ele>
        <time>2015-03-04T14:30:09Z</time>
      </trkpt>
      <trkpt lat="48.44071" lon="2.47352">
        <ele>73.68</ele>
        <time>2015-03-04T14:30:11Z</time>
      </trkpt>
      <trkpt lat="48.4407" lon="2.47347">
        <ele>72.24</ele>
        <time>2015-03-04T14:30:23Z</time>
      </trkpt>
      <trkpt lat="48.44067" lon="2.47344">
        <ele>73.2</ele>
        <time>2015-03-04T14:30:43Z</time>
      </trkpt>
    </trkseg>
  </trk>
</gpx>